Darstellungsparameter: Aktuell verwendete Einstellungen:
Skalierung der Graphiken ... ?
xyx+y,   Skalierungsfaktor:      Skalierung: Modus: x, Faktor: 1
Darstellungszeitraum ... ?
Vom - - bis: - -   Zeitraum: 07.01.2009 - 06.07.2009
Min/Max/Avg-Anzeige ... ?
Zeige MMA aktuell
Zeige MMA Monat
Zeige MMA alles
Zeige --A aktuell
Zeige --A Monat
Zeige --A alles
Keine MMA-Anzeige
MMA:
Keine MMA-Graphiken
MMA-Basis: 07.01.2009 - 06.07.2009
Quicknavigation für Darstellung... ?
Tage:      1T, 2T, 3T, 5T -1T -2T -3T -5T +1T +2T +3T +5T
Wochen: 1W, 2W, 3W -1W -2W -3W +1W +2W +3W
Monate: 1M, 3M, 6M -1M -3M -6M +1M +3M +6M
Jahre:    1J, 3J, 5J, 10J -1J -3J -5J -10J +1J +3J +5J +10J
Nutze für die Darstellung ... ?
Originaldaten oder Mittelwerte auf ...
Stundenbasis Tagesbasis Wochenbasis
Monatsbasis Jahresbasis      Datenbasis: Original-Daten
Darstellen als:
Statistik (Auto) Statistik J:M      Darstellung:
Zur Graphik,    zurück zur Übersicht aller Sensoren.
 
Tabellarische Datenbersicht: ?
 
Sensor: Nr:Datum:Temp:Abs-Feuchte:Windchill:Wind:
Aussen-T/F 1 07-01-2009 00:00:16 -12.8 C 1.26 g/m*3 -12.8 C 0 km/h
2 07-01-2009 00:12:16 -12.9 C 1.25 g/m*3 -12.9 C 0 km/h
3 07-01-2009 00:24:15 -13 C 1.24 g/m*3 -13 C 0 km/h
4 07-01-2009 00:36:15 -13.3 C 1.21 g/m*3 -13.3 C 0 km/h
5 07-01-2009 00:48:15 -13.2 C 1.22 g/m*3 -13.2 C 0 km/h
6 07-01-2009 01:00:14 -13.4 C 1.22 g/m*3 -13.4 C 0 km/h
7 07-01-2009 01:12:14 -13.6 C 1.18 g/m*3 -13.6 C 0 km/h
8 07-01-2009 01:24:15 -13.7 C 1.17 g/m*3 -13.7 C 0 km/h
9 07-01-2009 01:36:15 -13.7 C 1.19 g/m*3 -13.7 C 0 km/h
10 07-01-2009 01:48:14 -13.8 C 1.18 g/m*3 -13.8 C 0 km/h
11 07-01-2009 02:00:15 -13.9 C 1.17 g/m*3 -13.9 C 0 km/h
12 07-01-2009 02:12:15 -13.9 C 1.17 g/m*3 -13.9 C 0 km/h
13 07-01-2009 02:24:14 -14.1 C 1.15 g/m*3 -14.1 C 0 km/h
14 07-01-2009 02:36:14 -14.3 C 1.13 g/m*3 -14.3 C 0 km/h
15 07-01-2009 02:49:15 -14.3 C 1.13 g/m*3 -14.3 C 0 km/h
16 07-01-2009 03:01:15 -14.2 C 1.14 g/m*3 -14.2 C 0 km/h
17 07-01-2009 03:13:15 -14.6 C 1.11 g/m*3 -14.6 C 0 km/h
18 07-01-2009 03:25:15 -14.6 C 1.11 g/m*3 -14.6 C 0 km/h
19 07-01-2009 03:37:15 -14.7 C 1.1 g/m*3 -14.7 C 0 km/h
20 07-01-2009 03:49:15 -14.8 C 1.09 g/m*3 -14.8 C 0 km/h
21 07-01-2009 04:01:15 -15 C 1.06 g/m*3 -15 C 0 km/h
22 07-01-2009 04:13:15 -15 C 1.07 g/m*3 -15 C 0 km/h
23 07-01-2009 04:25:14 -15.2 C 1.04 g/m*3 -15.2 C 0 km/h
24 07-01-2009 04:37:14 -15.4 C 1.02 g/m*3 -15.4 C 0 km/h
25 07-01-2009 04:49:14 -15.4 C 1.02 g/m*3 -15.4 C 0 km/h
Sensor: Nr:Datum:Temp:Abs-Feuchte:Windchill:Wind:
Aussen-T/F 26 07-01-2009 05:01:14 -15.4 C 1.02 g/m*3 -15.4 C 0 km/h
27 07-01-2009 05:13:14 -15.6 C 1.01 g/m*3 -15.6 C 0 km/h
28 07-01-2009 05:25:13 -15.7 C 0.99 g/m*3 -15.7 C 0 km/h
29 07-01-2009 05:37:14 -15.7 C 1 g/m*3 -15.7 C 0 km/h
30 07-01-2009 05:49:13 -15.7 C 1 g/m*3 -15.7 C 0 km/h
31 07-01-2009 06:01:14 -15.9 C 0.97 g/m*3 -15.9 C 0 km/h
32 07-01-2009 06:13:14 -15.9 C 0.97 g/m*3 -15.9 C 0 km/h
33 07-01-2009 06:25:13 -16 C 0.96 g/m*3 -16 C 0 km/h
34 07-01-2009 06:37:13 -15.9 C 0.97 g/m*3 -15.9 C 0 km/h
35 07-01-2009 06:49:13 -15.7 C 0.99 g/m*3 -15.7 C 0 km/h
36 07-01-2009 07:01:13 -15.4 C 1.01 g/m*3 -15.4 C 0 km/h
37 07-01-2009 07:13:13 -15.4 C 1.01 g/m*3 -15.4 C 0 km/h
38 07-01-2009 07:25:12 -15.5 C 0.99 g/m*3 -15.5 C 0 km/h
39 07-01-2009 07:37:12 -15.5 C 0.99 g/m*3 -15.5 C 0 km/h
40 07-01-2009 07:49:13 -15.4 C 0.99 g/m*3 -15.4 C 0 km/h
41 07-01-2009 08:01:12 -15.5 C 0.97 g/m*3 -15.5 C 0 km/h
42 07-01-2009 08:13:12 -15.6 C 0.96 g/m*3 -15.6 C 0 km/h
43 07-01-2009 08:25:12 -15.7 C 0.96 g/m*3 -15.7 C 0 km/h
44 07-01-2009 08:37:12 -16 C 0.92 g/m*3 -16 C 0 km/h
45 07-01-2009 08:49:12 -16.1 C 0.91 g/m*3 -16.1 C 0 km/h
46 07-01-2009 09:01:11 -15.9 C 0.93 g/m*3 -15.9 C 0 km/h
47 07-01-2009 09:13:11 -15.8 C 0.95 g/m*3 -15.8 C 0 km/h
48 07-01-2009 09:25:12 -15.7 C 0.96 g/m*3 -15.7 C 0 km/h
49 07-01-2009 09:37:11 -15.6 C 0.96 g/m*3 -15.6 C 0 km/h
50 07-01-2009 09:49:11 -15 C 1.01 g/m*3 -15 C 0 km/h
Sensor: Nr:Datum:Temp:Abs-Feuchte:Windchill:Wind:
Aussen-T/F 51 07-01-2009 10:01:12 -14.1 C 1.08 g/m*3 -14.1 C 0 km/h
52 07-01-2009 10:13:12 -13.9 C 1.08 g/m*3 -13.9 C 0 km/h
53 07-01-2009 10:25:11 -12.9 C 1.13 g/m*3 -12.9 C 0 km/h
54 07-01-2009 10:37:11 -12.8 C 1.1 g/m*3 -12.8 C 0 km/h
55 07-01-2009 10:49:11 -12.6 C 1.1 g/m*3 -12.6 C 0 km/h
56 07-01-2009 11:01:11 -12.2 C 1.14 g/m*3 -12.2 C 0 km/h
57 07-01-2009 11:13:11 -11.7 C 1.18 g/m*3 -11.7 C 0 km/h
58 07-01-2009 11:25:10 -11.6 C 1.17 g/m*3 -11.6 C 0 km/h
59 07-01-2009 11:37:10 -11.6 C 1.17 g/m*3 -11.6 C 0 km/h
60 07-01-2009 11:49:10 -10.8 C 1.24 g/m*3 -10.8 C 0 km/h
61 07-01-2009 12:01:10 -10.4 C 1.28 g/m*3 -10.4 C 0 km/h
62 07-01-2009 12:13:10 -9.9 C 1.31 g/m*3 -9.9 C 0 km/h
63 07-01-2009 12:25:09 -9.5 C 1.32 g/m*3 -9.5 C 0 km/h
64 07-01-2009 12:37:10 -9 C 1.37 g/m*3 -9 C 0 km/h
65 07-01-2009 12:49:10 -8.7 C 1.38 g/m*3 -8.7 C 0 km/h
66 07-01-2009 13:01:09 -9 C 1.35 g/m*3 -9 C 0 km/h
67 07-01-2009 13:13:09 -9 C 1.35 g/m*3 -9 C 0 km/h
68 07-01-2009 13:25:10 -8.7 C 1.43 g/m*3 -8.7 C 0 km/h
69 07-01-2009 13:37:09 -8.6 C 1.46 g/m*3 -8.6 C 0 km/h
70 07-01-2009 13:49:09 -8.3 C 1.5 g/m*3 -8.3 C 0 km/h
71 07-01-2009 14:01:09 -8.2 C 1.54 g/m*3 -8.2 C 0 km/h
72 07-01-2009 14:13:09 -8.3 C 1.52 g/m*3 -8.3 C 0 km/h
73 07-01-2009 14:25:09 -8.2 C 1.56 g/m*3 -8.2 C 0 km/h
74 07-01-2009 14:37:08 -8.1 C 1.6 g/m*3 -8.1 C 0 km/h
75 07-01-2009 14:49:09 -7.8 C 1.64 g/m*3 -7.8 C 0 km/h
Sensor: Nr:Datum:Temp:Abs-Feuchte:Windchill:Wind:
Aussen-T/F 76 07-01-2009 15:01:08 -7.7 C 1.65 g/m*3 -7.7 C 0 km/h
77 07-01-2009 15:13:08 -7.6 C 1.63 g/m*3 -7.6 C 0 km/h
78 07-01-2009 15:25:08 -7.5 C 1.65 g/m*3 -7.5 C 0 km/h
79 07-01-2009 15:37:08 -7.5 C 1.67 g/m*3 -7.5 C 0 km/h
80 07-01-2009 15:49:08 -7.6 C 1.66 g/m*3 -7.6 C 0 km/h
81 07-01-2009 16:01:07 -7.6 C 1.69 g/m*3 -7.6 C 0 km/h
82 07-01-2009 16:13:07 -7.5 C 1.7 g/m*3 -7.5 C 0 km/h
83 07-01-2009 16:25:08 -7.5 C 1.73 g/m*3 -7.5 C 0 km/h
84 07-01-2009 16:37:08 -7.6 C 1.72 g/m*3 -7.6 C 0 km/h
85 07-01-2009 16:49:07 -7.6 C 1.75 g/m*3 -7.6 C 0 km/h
86 07-01-2009 17:01:08 -7.7 C 1.73 g/m*3 -7.7 C 0 km/h
87 07-01-2009 17:13:08 -7.6 C 1.8 g/m*3 -7.6 C 0 km/h
88 07-01-2009 17:25:07 -7.5 C 1.82 g/m*3 -7.5 C 0 km/h
89 07-01-2009 17:37:07 -7.6 C 1.8 g/m*3 -7.6 C 0 km/h
90 07-01-2009 17:49:07 -7.6 C 1.8 g/m*3 -7.6 C 0 km/h
91 07-01-2009 18:01:07 -7.5 C 1.82 g/m*3 -7.5 C 0 km/h
92 07-01-2009 18:13:08 -7.4 C 1.8 g/m*3 -7.4 C 0 km/h
93 07-01-2009 18:25:06 -7.3 C 1.84 g/m*3 -7.3 C 0 km/h
94 07-01-2009 18:37:06 -7.3 C 1.84 g/m*3 -7.3 C 0 km/h
95 07-01-2009 18:49:06 -7.2 C 1.86 g/m*3 -7.2 C 0 km/h
96 07-01-2009 19:01:06 -7.1 C 1.87 g/m*3 -7.1 C 0 km/h
97 07-01-2009 19:13:06 -7.1 C 1.87 g/m*3 -7.1 C 0 km/h
98 07-01-2009 19:25:06 -7 C 1.88 g/m*3 -7 C 0 km/h
99 07-01-2009 19:37:06 -7.2 C 1.86 g/m*3 -7.2 C 0 km/h
100 07-01-2009 19:49:06 -7.3 C 1.87 g/m*3 -7.3 C 0 km/h
Sensor: Nr:Datum:Temp:Abs-Feuchte:Windchill:Wind:
Aussen-T/F 101 07-01-2009 20:01:05 -7.3 C 1.87 g/m*3 -7.3 C 0 km/h
102 07-01-2009 20:13:05 -7.4 C 1.89 g/m*3 -7.4 C 0 km/h
103 07-01-2009 20:25:06 -7.5 C 1.87 g/m*3 -7.5 C 0 km/h
104 07-01-2009 20:37:05 -7.4 C 1.92 g/m*3 -7.4 C 0 km/h
105 07-01-2009 20:49:05 -7.2 C 1.97 g/m*3 -7.2 C 0 km/h
106 07-01-2009 21:01:04 -6.9 C 2.05 g/m*3 -6.9 C 0 km/h
107 07-01-2009 21:13:04 -6.8 C 2.06 g/m*3 -6.8 C 0 km/h
108 07-01-2009 21:25:05 -6.6 C 2.09 g/m*3 -6.6 C 0 km/h
109 07-01-2009 21:37:05 -6.5 C 2.14 g/m*3 -6.5 C 0 km/h
110 07-01-2009 21:49:04 -6.5 C 2.14 g/m*3 -6.5 C 0 km/h
111 07-01-2009 22:01:05 -6.4 C 2.15 g/m*3 -6.4 C 0 km/h
112 07-01-2009 22:13:05 -6.4 C 2.18 g/m*3 -6.4 C 0 km/h
113 07-01-2009 22:26:09 -6.2 C 2.22 g/m*3 -6.2 C 0 km/h
114 07-01-2009 22:38:09 -6.2 C 2.25 g/m*3 -6.2 C 0 km/h
115 07-01-2009 22:50:09 -6.2 C 2.25 g/m*3 -6.2 C 0 km/h
116 07-01-2009 23:02:09 -6.2 C 2.25 g/m*3 -6.2 C 0 km/h
117 07-01-2009 23:14:09 -6.2 C 2.25 g/m*3 -6.2 C 0 km/h
118 07-01-2009 23:26:09 -6.3 C 2.23 g/m*3 -6.3 C 0 km/h
119 07-01-2009 23:38:09 -6.2 C 2.25 g/m*3 -6.2 C 0 km/h
120 07-01-2009 23:50:09 -6.2 C 2.25 g/m*3 -6.2 C 0 km/h
121 08-01-2009 00:02:09 -6.2 C 2.22 g/m*3 -6.2 C 0 km/h
122 08-01-2009 00:14:09 -6.1 C 2.23 g/m*3 -6.1 C 0 km/h
123 08-01-2009 00:26:09 -6.1 C 2.23 g/m*3 -6.1 C 0 km/h
124 08-01-2009 00:38:09 -6.1 C 2.2 g/m*3 -6.1 C 0 km/h
125 08-01-2009 00:50:09 -6.1 C 2.2 g/m*3 -6.1 C 0 km/h
Sensor: Nr:Datum:Temp:Abs-Feuchte:Windchill:Wind:
Aussen-T/F 126 08-01-2009 01:02:09 -6.1 C 2.2 g/m*3 -6.1 C 0 km/h
127 08-01-2009 01:14:09 -6 C 2.22 g/m*3 -6 C 0 km/h
128 08-01-2009 01:26:09 -5.9 C 2.23 g/m*3 -5.9 C 0 km/h
129 08-01-2009 01:38:10 -5.9 C 2.23 g/m*3 -5.9 C 0 km/h
130 08-01-2009 01:50:10 -5.8 C 2.25 g/m*3 -5.8 C 0 km/h
131 08-01-2009 02:02:10 -5.8 C 2.25 g/m*3 -5.8 C 0 km/h
132 08-01-2009 02:14:10 -5.7 C 2.27 g/m*3 -5.7 C 0 km/h
133 08-01-2009 02:26:10 -5.7 C 2.27 g/m*3 -5.7 C 0 km/h
134 08-01-2009 02:38:10 -5.7 C 2.27 g/m*3 -5.7 C 0 km/h
135 08-01-2009 02:50:10 -5.6 C 2.31 g/m*3 -5.6 C 0 km/h
136 08-01-2009 03:02:10 -5.6 C 2.31 g/m*3 -5.6 C 0 km/h
137 08-01-2009 03:14:10 -5.5 C 2.33 g/m*3 -5.5 C 0 km/h
138 08-01-2009 03:26:10 -5.4 C 2.35 g/m*3 -5.4 C 0 km/h
139 08-01-2009 03:38:10 -5.4 C 2.35 g/m*3 -5.4 C 0 km/h
140 08-01-2009 03:50:10 -5.3 C 2.37 g/m*3 -5.3 C 0 km/h
141 08-01-2009 04:02:10 -5.3 C 2.37 g/m*3 -5.3 C 0 km/h
142 08-01-2009 04:14:10 -5.3 C 2.37 g/m*3 -5.3 C 0 km/h
143 08-01-2009 04:26:10 -5.3 C 2.37 g/m*3 -5.3 C 0 km/h
144 08-01-2009 04:38:10 -5.3 C 2.37 g/m*3 -5.3 C 0 km/h
145 08-01-2009 04:50:10 -5.3 C 2.4 g/m*3 -5.3 C 0 km/h
146 08-01-2009 05:02:10 -5.2 C 2.42 g/m*3 -5.2 C 0 km/h
147 08-01-2009 05:14:10 -5.1 C 2.47 g/m*3 -5.1 C 0 km/h
148 08-01-2009 05:26:11 -5 C 2.49 g/m*3 -5 C 0 km/h
149 08-01-2009 05:38:11 -5 C 2.49 g/m*3 -5 C 0 km/h
150 08-01-2009 05:50:11 -5 C 2.49 g/m*3 -5 C 0 km/h
Sensor: Nr:Datum:Temp:Abs-Feuchte:Windchill:Wind:
Aussen-T/F 151 08-01-2009 06:02:11 -5 C 2.49 g/m*3 -5 C 0 km/h
152 08-01-2009 06:14:11 -5 C 2.49 g/m*3 -5 C 0 km/h
153 08-01-2009 06:26:11 -5 C 2.52 g/m*3 -5 C 0 km/h
154 08-01-2009 06:38:11 -5 C 2.52 g/m*3 -5 C 0 km/h
155 08-01-2009 06:50:11 -5 C 2.52 g/m*3 -5 C 0 km/h
156 08-01-2009 07:02:06 -5 C 2.52 g/m*3 -5 C 0 km/h
157 08-01-2009 07:14:05 -4.9 C 2.54 g/m*3 -4.9 C 0 km/h
158 08-01-2009 07:26:05 -4.9 C 2.54 g/m*3 -4.9 C 0 km/h
159 08-01-2009 07:38:05 -4.9 C 2.54 g/m*3 -4.9 C 0 km/h
160 08-01-2009 07:50:05 -4.9 C 2.54 g/m*3 -4.9 C 0 km/h
161 08-01-2009 08:02:05 -4.8 C 2.59 g/m*3 -4.8 C 0 km/h
162 08-01-2009 08:14:04 -4.8 C 2.59 g/m*3 -4.8 C 0 km/h
163 08-01-2009 08:26:04 -4.9 C 2.57 g/m*3 -4.9 C 0 km/h
164 08-01-2009 08:38:04 -4.8 C 2.63 g/m*3 -4.8 C 0 km/h
165 08-01-2009 08:50:04 -4.8 C 2.63 g/m*3 -4.8 C 0 km/h
166 08-01-2009 09:02:04 -4.7 C 2.61 g/m*3 -4.7 C 0 km/h
167 08-01-2009 09:14:04 -4.6 C 2.63 g/m*3 -4.6 C 0 km/h
168 08-01-2009 09:26:04 -4.7 C 2.57 g/m*3 -4.7 C 0 km/h
169 08-01-2009 09:38:04 -4.6 C 2.56 g/m*3 -4.6 C 0 km/h
170 08-01-2009 09:50:04 -4.5 C 2.58 g/m*3 -4.5 C 0 km/h
171 08-01-2009 10:02:03 -4.4 C 2.6 g/m*3 -4.4 C 0 km/h
172 08-01-2009 10:14:04 -4.2 C 2.6 g/m*3 -4.2 C 0 km/h
173 08-01-2009 10:26:04 -4 C 2.63 g/m*3 -4 C 0 km/h
174 08-01-2009 10:38:03 -3.8 C 2.63 g/m*3 -3.8 C 0 km/h
175 08-01-2009 10:50:03 -3.7 C 2.62 g/m*3 -3.7 C 0 km/h
Sensor: Nr:Datum:Temp:Abs-Feuchte:Windchill:Wind:
Aussen-T/F 176 08-01-2009 11:02:03 -3.5 C 2.62 g/m*3 -3.5 C 0 km/h
177 08-01-2009 11:14:03 -3.7 C 2.5 g/m*3 -3.7 C 0 km/h
178 08-01-2009 11:26:03 -3.8 C 2.49 g/m*3 -3.8 C 0 km/h
179 08-01-2009 11:38:02 -3.8 C 2.49 g/m*3 -3.8 C 0 km/h
180 08-01-2009 11:50:03 -3.8 C 2.49 g/m*3 -3.8 C 0 km/h
181 08-01-2009 12:02:03 -3.5 C 2.5 g/m*3 -3.5 C 0 km/h
182 08-01-2009 12:14:02 -3.3 C 2.5 g/m*3 -3.3 C 0 km/h
183 08-01-2009 12:26:02 -3.5 C 2.43 g/m*3 -3.5 C 0 km/h
184 08-01-2009 12:38:02 -3.2 C 2.48 g/m*3 -3.2 C 0 km/h
185 08-01-2009 12:50:02 -3.4 C 2.41 g/m*3 -3.4 C 0 km/h
186 08-01-2009 13:02:02 -3.8 C 2.34 g/m*3 -3.8 C 0 km/h
187 08-01-2009 13:14:01 -3.7 C 2.39 g/m*3 -3.7 C 0 km/h
188 08-01-2009 13:26:01 -3.7 C 2.39 g/m*3 -3.7 C 0 km/h
189 08-01-2009 13:38:02 -3.9 C 2.36 g/m*3 -3.9 C 0 km/h
190 08-01-2009 13:50:01 -4 C 2.34 g/m*3 -4 C 0 km/h
191 08-01-2009 14:02:01 -4 C 2.38 g/m*3 -4 C 0 km/h
192 08-01-2009 14:14:02 -4.1 C 2.32 g/m*3 -4.1 C 0 km/h
193 08-01-2009 14:26:02 -4.3 C 2.33 g/m*3 -4.3 C 0 km/h
194 08-01-2009 14:38:01 -4.5 C 2.29 g/m*3 -4.5 C 0 km/h
195 08-01-2009 14:50:01 -4.6 C 2.31 g/m*3 -4.6 C 0 km/h
196 08-01-2009 15:02:01 -4.6 C 2.31 g/m*3 -4.6 C 0 km/h
197 08-01-2009 15:14:01 -4.6 C 2.35 g/m*3 -4.6 C 0 km/h
198 08-01-2009 15:26:01 -4.7 C 2.33 g/m*3 -4.7 C 0 km/h
199 08-01-2009 15:38:00 -4.8 C 2.31 g/m*3 -4.8 C 0 km/h
200 08-01-2009 15:50:01 -4.9 C 2.33 g/m*3 -4.9 C 0 km/h
Sensor: Nr:Datum:Temp:Abs-Feuchte:Windchill:Wind:
Aussen-T/F 201 08-01-2009 16:02:00 -5 C 2.32 g/m*3 -5 C 0 km/h
202 08-01-2009 16:14:00 -5.1 C 2.33 g/m*3 -5.1 C 0 km/h
203 08-01-2009 16:26:00 -5.5 C 2.27 g/m*3 -5.5 C 0 km/h
204 08-01-2009 16:38:59 -6 C 2.22 g/m*3 -6 C 0 km/h
205 08-01-2009 16:50:00 -6.2 C 2.18 g/m*3 -6.2 C 0 km/h
206 08-01-2009 17:02:00 -6.5 C 2.17 g/m*3 -6.5 C 0 km/h
207 08-01-2009 17:14:59 -6.5 C 2.23 g/m*3 -6.5 C 0 km/h
208 08-01-2009 17:26:59 -6.6 C 2.21 g/m*3 -6.6 C 0 km/h
209 08-01-2009 17:38:00 -6.7 C 2.23 g/m*3 -6.7 C 0 km/h
210 08-01-2009 17:50:59 -7 C 2.18 g/m*3 -7 C 0 km/h
211 08-01-2009 18:01:59 -7 C 2.21 g/m*3 -7 C 0 km/h
212 08-01-2009 18:14:59 -7.3 C 2.19 g/m*3 -7.3 C 0 km/h
213 08-01-2009 18:26:59 -7.5 C 2.16 g/m*3 -7.5 C 0 km/h
214 08-01-2009 18:38:59 -7.8 C 2.11 g/m*3 -7.8 C 0 km/h
215 08-01-2009 18:50:59 -7.9 C 2.09 g/m*3 -7.9 C 0 km/h
216 08-01-2009 19:02:59 -8.2 C 2.05 g/m*3 -8.2 C 0 km/h
217 08-01-2009 19:14:58 -8.4 C 2.02 g/m*3 -8.4 C 0 km/h
218 08-01-2009 19:26:58 -8.4 C 2.04 g/m*3 -8.4 C 0 km/h
219 08-01-2009 19:38:58 -8.3 C 2.09 g/m*3 -8.3 C 0 km/h
220 08-01-2009 19:50:58 -8.4 C 2.07 g/m*3 -8.4 C 0 km/h
221 08-01-2009 20:02:58 -8.7 C 2.03 g/m*3 -8.7 C 0 km/h
222 08-01-2009 20:14:57 -8.8 C 2.01 g/m*3 -8.8 C 0 km/h
223 08-01-2009 20:26:57 -8.8 C 2.04 g/m*3 -8.8 C 0 km/h
224 08-01-2009 20:38:58 -8.9 C 2.02 g/m*3 -8.9 C 0 km/h
225 08-01-2009 20:50:57 -9.2 C 1.95 g/m*3 -9.2 C 0 km/h
Sensor: Nr:Datum:Temp:Abs-Feuchte:Windchill:Wind:
Aussen-T/F 226 08-01-2009 21:02:57 -9.2 C 1.98 g/m*3 -9.2 C 0 km/h
227 08-01-2009 21:14:58 -9.5 C 1.93 g/m*3 -9.5 C 0 km/h
228 08-01-2009 21:26:58 -9.9 C 1.85 g/m*3 -9.9 C 0 km/h
229 08-01-2009 21:38:57 -9.8 C 1.84 g/m*3 -9.8 C 0 km/h
230 08-01-2009 21:50:57 -9.8 C 1.84 g/m*3 -9.8 C 0 km/h
231 08-01-2009 22:02:56 -9.9 C 1.83 g/m*3 -9.9 C 0 km/h
232 08-01-2009 22:14:57 -10 C 1.79 g/m*3 -10 C 0 km/h
233 08-01-2009 22:26:57 -10.4 C 1.71 g/m*3 -10.4 C 0 km/h
234 08-01-2009 22:38:56 -10.7 C 1.65 g/m*3 -10.7 C 0 km/h
235 08-01-2009 22:51:11 -10.6 C 1.67 g/m*3 -10.6 C 0 km/h
236 08-01-2009 23:03:11 -10.8 C 1.64 g/m*3 -10.8 C 0 km/h
237 08-01-2009 23:15:11 -10.7 C 1.65 g/m*3 -10.7 C 0 km/h
238 08-01-2009 23:27:11 -10.8 C 1.64 g/m*3 -10.8 C 0 km/h
239 08-01-2009 23:39:11 -10.6 C 1.67 g/m*3 -10.6 C 0 km/h
240 08-01-2009 23:51:12 -10.7 C 1.65 g/m*3 -10.7 C 0 km/h
241 09-01-2009 00:03:12 -10.9 C 1.61 g/m*3 -10.9 C 0 km/h
242 09-01-2009 00:15:12 -11.1 C 1.58 g/m*3 -11.1 C 0 km/h
243 09-01-2009 00:27:12 -11.1 C 1.58 g/m*3 -11.1 C 0 km/h
244 09-01-2009 00:39:12 -11.1 C 1.58 g/m*3 -11.1 C 0 km/h
245 09-01-2009 00:51:12 -11.3 C 1.54 g/m*3 -11.3 C 0 km/h
246 09-01-2009 01:03:12 -11.5 C 1.51 g/m*3 -11.5 C 0 km/h
247 09-01-2009 01:15:12 -11.7 C 1.47 g/m*3 -11.7 C 0 km/h
248 09-01-2009 01:27:12 -11.7 C 1.47 g/m*3 -11.7 C 0 km/h
249 09-01-2009 01:39:12 -11.7 C 1.47 g/m*3 -11.7 C 0 km/h
250 09-01-2009 01:51:12 -11.7 C 1.47 g/m*3 -11.7 C 0 km/h
Sensor: Nr:Datum:Temp:Abs-Feuchte:Windchill:Wind:
Aussen-T/F 251 09-01-2009 02:03:12 -11.8 C 1.46 g/m*3 -11.8 C 0 km/h
252 09-01-2009 02:15:12 -11.9 C 1.45 g/m*3 -11.9 C 0 km/h
253 09-01-2009 02:27:12 -12.1 C 1.41 g/m*3 -12.1 C 0 km/h
254 09-01-2009 02:39:12 -12.1 C 1.43 g/m*3 -12.1 C 0 km/h
255 09-01-2009 02:51:12 -12.2 C 1.39 g/m*3 -12.2 C 0 km/h
256 09-01-2009 03:03:12 -12.3 C 1.38 g/m*3 -12.3 C 0 km/h
257 09-01-2009 03:15:12 -12.4 C 1.37 g/m*3 -12.4 C 0 km/h
258 09-01-2009 03:27:12 -12.5 C 1.36 g/m*3 -12.5 C 0 km/h
259 09-01-2009 03:39:13 -12.6 C 1.33 g/m*3 -12.6 C 0 km/h
260 09-01-2009 03:51:13 -12.6 C 1.33 g/m*3 -12.6 C 0 km/h
261 09-01-2009 04:03:13 -12.6 C 1.33 g/m*3 -12.6 C 0 km/h
262 09-01-2009 04:15:13 -12.8 C 1.31 g/m*3 -12.8 C 0 km/h
263 09-01-2009 04:27:13 -12.8 C 1.31 g/m*3 -12.8 C 0 km/h
264 09-01-2009 04:39:13 -12.9 C 1.3 g/m*3 -12.9 C 0 km/h
265 09-01-2009 04:51:13 -13.2 C 1.25 g/m*3 -13.2 C 0 km/h
266 09-01-2009 05:03:13 -13.2 C 1.25 g/m*3 -13.2 C 0 km/h
267 09-01-2009 05:15:13 -13.1 C 1.26 g/m*3 -13.1 C 0 km/h
268 09-01-2009 05:27:13 -13.2 C 1.25 g/m*3 -13.2 C 0 km/h
269 09-01-2009 05:39:13 -13.3 C 1.24 g/m*3 -13.3 C 0 km/h
270 09-01-2009 05:51:13 -13.2 C 1.25 g/m*3 -13.2 C 0 km/h
271 09-01-2009 06:03:13 -13.3 C 1.24 g/m*3 -13.3 C 0 km/h
272 09-01-2009 06:15:13 -13.4 C 1.22 g/m*3 -13.4 C 0 km/h
273 09-01-2009 06:27:13 -13.5 C 1.21 g/m*3 -13.5 C 0 km/h
274 09-01-2009 06:39:58 -13.5 C 1.21 g/m*3 -13.5 C 0 km/h
275 09-01-2009 06:51:57 -13.6 C 1.2 g/m*3 -13.6 C 0 km/h
Sensor: Nr:Datum:Temp:Abs-Feuchte:Windchill:Wind:
Aussen-T/F 276 09-01-2009 07:03:58 -13.7 C 1.19 g/m*3 -13.7 C 0 km/h
277 09-01-2009 07:15:57 -13.7 C 1.19 g/m*3 -13.7 C 0 km/h
278 09-01-2009 07:27:57 -13.6 C 1.2 g/m*3 -13.6 C 0 km/h
279 09-01-2009 07:39:57 -13.7 C 1.19 g/m*3 -13.7 C 0 km/h
280 09-01-2009 07:51:57 -13.9 C 1.17 g/m*3 -13.9 C 0 km/h
281 09-01-2009 08:03:57 -13.9 C 1.15 g/m*3 -13.9 C 0 km/h
282 09-01-2009 08:15:56 -13.9 C 1.15 g/m*3 -13.9 C 0 km/h
283 09-01-2009 08:27:56 -13.9 C 1.15 g/m*3 -13.9 C 0 km/h
284 09-01-2009 08:39:56 -13.9 C 1.15 g/m*3 -13.9 C 0 km/h
285 09-01-2009 08:51:56 -13.7 C 1.19 g/m*3 -13.7 C 0 km/h
286 09-01-2009 09:03:56 -13.6 C 1.2 g/m*3 -13.6 C 0 km/h
287 09-01-2009 09:15:56 -13.7 C 1.19 g/m*3 -13.7 C 0 km/h
288 09-01-2009 09:27:56 -13.6 C 1.2 g/m*3 -13.6 C 0 km/h
289 09-01-2009 09:39:56 -13.6 C 1.2 g/m*3 -13.6 C 0 km/h
290 09-01-2009 09:51:56 -13.4 C 1.22 g/m*3 -13.4 C 0 km/h
291 09-01-2009 10:03:55 -13.4 C 1.22 g/m*3 -13.4 C 0 km/h
292 09-01-2009 10:15:55 -13.2 C 1.24 g/m*3 -13.2 C 0 km/h
293 09-01-2009 10:27:55 -13.2 C 1.24 g/m*3 -13.2 C 0 km/h
294 09-01-2009 10:39:55 -13 C 1.26 g/m*3 -13 C 0 km/h
295 09-01-2009 10:51:55 -12.7 C 1.28 g/m*3 -12.7 C 0 km/h
296 09-01-2009 11:03:55 -12.6 C 1.31 g/m*3 -12.6 C 0 km/h
297 09-01-2009 11:15:55 -12.3 C 1.34 g/m*3 -12.3 C 0 km/h
298 09-01-2009 11:27:55 -12 C 1.4 g/m*3 -12 C 0 km/h
299 09-01-2009 11:39:55 -11.8 C 1.42 g/m*3 -11.8 C 0 km/h
300 09-01-2009 11:51:54 -11.5 C 1.47 g/m*3 -11.5 C 0 km/h
Sensor: Nr:Datum:Temp:Abs-Feuchte:Windchill:Wind:
Aussen-T/F 301 09-01-2009 12:03:55 -11.1 C 1.52 g/m*3 -11.1 C 0 km/h
302 09-01-2009 12:15:54 -10.8 C 1.57 g/m*3 -10.8 C 0 km/h
303 09-01-2009 12:27:54 -10.5 C 1.61 g/m*3 -10.5 C 0 km/h
304 09-01-2009 12:39:54 -10 C 1.7 g/m*3 -10 C 0 km/h
305 09-01-2009 12:51:54 -9.6 C 1.77 g/m*3 -9.6 C 0 km/h
306 09-01-2009 13:03:54 -9 C 1.85 g/m*3 -9 C 0 km/h
307 09-01-2009 13:15:54 -8.2 C 1.99 g/m*3 -8.2 C 0 km/h
308 09-01-2009 13:27:54 -8.1 C 1.98 g/m*3 -8.1 C 0 km/h
309 09-01-2009 13:39:53 -7.7 C 2.04 g/m*3 -7.7 C 0 km/h
310 09-01-2009 13:51:54 -7 C 2.15 g/m*3 -7 C 0 km/h
311 09-01-2009 14:03:53 -7.3 C 2.07 g/m*3 -7.3 C 0 km/h
312 09-01-2009 14:15:53 -7.7 C 1.99 g/m*3 -7.7 C 0 km/h
313 09-01-2009 14:27:53 -7.8 C 2 g/m*3 -7.8 C 0 km/h
314 09-01-2009 14:39:53 -7.8 C 2 g/m*3 -7.8 C 0 km/h
315 09-01-2009 14:51:01 -7.8 C 2.03 g/m*3 -7.8 C 0 km/h
316 09-01-2009 15:03:02 -7.8 C 2.03 g/m*3 -7.8 C 0 km/h
317 09-01-2009 15:15:01 -7.9 C 2.04 g/m*3 -7.9 C 0 km/h
318 09-01-2009 15:27:01 -7.9 C 2.04 g/m*3 -7.9 C 0 km/h
319 09-01-2009 15:39:01 -7.8 C 2.08 g/m*3 -7.8 C 0 km/h
320 09-01-2009 15:51:01 -7.8 C 2.08 g/m*3 -7.8 C 0 km/h
321 09-01-2009 16:03:01 -7.9 C 2.07 g/m*3 -7.9 C 0 km/h
322 09-01-2009 16:15:00 -8.1 C 2.04 g/m*3 -8.1 C 0 km/h
323 09-01-2009 16:27:00 -8 C 2.05 g/m*3 -8 C 0 km/h
324 09-01-2009 16:39:01 -8.1 C 2.06 g/m*3 -8.1 C 0 km/h
325 09-01-2009 16:51:00 -8.2 C 2.05 g/m*3 -8.2 C 0 km/h
Sensor: Nr:Datum:Temp:Abs-Feuchte:Windchill:Wind:
Aussen-T/F 326 09-01-2009 17:03:00 -8.3 C 2.03 g/m*3 -8.3 C 0 km/h
327 09-01-2009 17:15:01 -8.6 C 1.99 g/m*3 -8.6 C 0 km/h
328 09-01-2009 17:27:01 -8.6 C 1.99 g/m*3 -8.6 C 0 km/h
329 09-01-2009 17:39:00 -8.7 C 1.97 g/m*3 -8.7 C 0 km/h
330 09-01-2009 17:51:59 -8.7 C 1.97 g/m*3 -8.7 C 0 km/h
331 09-01-2009 18:03:00 -9 C 1.93 g/m*3 -9 C 0 km/h
332 09-01-2009 18:15:00 -9 C 1.93 g/m*3 -9 C 0 km/h
333 09-01-2009 18:27:00 -9.2 C 1.9 g/m*3 -9.2 C 0 km/h
334 09-01-2009 18:39:59 -9.3 C 1.89 g/m*3 -9.3 C 0 km/h
335 09-01-2009 18:51:00 -9.4 C 1.87 g/m*3 -9.4 C 0 km/h
336 09-01-2009 19:03:59 -9.6 C 1.84 g/m*3 -9.6 C 0 km/h
337 09-01-2009 19:15:59 -9.7 C 1.83 g/m*3 -9.7 C 0 km/h
338 09-01-2009 19:28:00 -9.9 C 1.8 g/m*3 -9.9 C 0 km/h
339 09-01-2009 19:39:58 -10 C 1.77 g/m*3 -10 C 0 km/h
340 09-01-2009 19:51:59 -10.1 C 1.75 g/m*3 -10.1 C 0 km/h
341 09-01-2009 20:03:59 -10.3 C 1.73 g/m*3 -10.3 C 0 km/h
342 09-01-2009 20:15:58 -10.4 C 1.71 g/m*3 -10.4 C 0 km/h
343 09-01-2009 20:27:58 -10.6 C 1.69 g/m*3 -10.6 C 0 km/h
344 09-01-2009 20:39:59 -10.7 C 1.68 g/m*3 -10.7 C 0 km/h
345 09-01-2009 20:51:58 -10.9 C 1.63 g/m*3 -10.9 C 0 km/h
346 09-01-2009 21:03:58 -11 C 1.62 g/m*3 -11 C 0 km/h
347 09-01-2009 21:15:58 -11 C 1.62 g/m*3 -11 C 0 km/h
348 09-01-2009 21:27:58 -11.3 C 1.58 g/m*3 -11.3 C 0 km/h
349 09-01-2009 21:39:57 -11.3 C 1.56 g/m*3 -11.3 C 0 km/h
350 09-01-2009 21:51:58 -11.3 C 1.58 g/m*3 -11.3 C 0 km/h
Sensor: Nr:Datum:Temp:Abs-Feuchte:Windchill:Wind:
Aussen-T/F 351 09-01-2009 22:03:58 -11.4 C 1.57 g/m*3 -11.4 C 0 km/h
352 09-01-2009 22:15:57 -11.6 C 1.54 g/m*3 -11.6 C 0 km/h
353 09-01-2009 22:27:57 -11.5 C 1.56 g/m*3 -11.5 C 0 km/h
354 09-01-2009 22:39:57 -11.5 C 1.56 g/m*3 -11.5 C 0 km/h
355 09-01-2009 22:51:57 -11.8 C 1.52 g/m*3 -11.8 C 0 km/h
356 09-01-2009 23:03:57 -11.8 C 1.5 g/m*3 -11.8 C 0 km/h
357 09-01-2009 23:15:56 -11.9 C 1.49 g/m*3 -11.9 C 0 km/h
358 09-01-2009 23:27:56 -12 C 1.48 g/m*3 -12 C 0 km/h
359 09-01-2009 23:39:57 -12.1 C 1.47 g/m*3 -12.1 C 0 km/h
360 09-01-2009 23:51:56 -12 C 1.48 g/m*3 -12 C 0 km/h
361 10-01-2009 00:03:56 -12.2 C 1.45 g/m*3 -12.2 C 0 km/h
362 10-01-2009 00:15:56 -12.4 C 1.41 g/m*3 -12.4 C 0 km/h
363 10-01-2009 00:27:56 -12.5 C 1.4 g/m*3 -12.5 C 0 km/h
364 10-01-2009 00:39:56 -12.5 C 1.38 g/m*3 -12.5 C 0 km/h
365 10-01-2009 00:51:56 -12.6 C 1.37 g/m*3 -12.6 C 0 km/h
366 10-01-2009 01:03:56 -12.7 C 1.36 g/m*3 -12.7 C 0 km/h
367 10-01-2009 01:15:56 -12.6 C 1.37 g/m*3 -12.6 C 0 km/h
368 10-01-2009 01:27:56 -12.6 C 1.37 g/m*3 -12.6 C 0 km/h
369 10-01-2009 01:39:55 -12.8 C 1.35 g/m*3 -12.8 C 0 km/h
370 10-01-2009 01:51:56 -12.8 C 1.35 g/m*3 -12.8 C 0 km/h
371 10-01-2009 02:03:55 -13 C 1.33 g/m*3 -13 C 0 km/h
372 10-01-2009 02:15:55 -13 C 1.33 g/m*3 -13 C 0 km/h
373 10-01-2009 02:27:55 -13 C 1.31 g/m*3 -13 C 0 km/h
374 10-01-2009 02:39:55 -13 C 1.31 g/m*3 -13 C 0 km/h
375 10-01-2009 02:52:02 -13.1 C 1.3 g/m*3 -13.1 C 0 km/h
Sensor: Nr:Datum:Temp:Abs-Feuchte:Windchill:Wind:
Aussen-T/F 376 10-01-2009 03:04:02 -13.2 C 1.29 g/m*3 -13.2 C 0 km/h
377 10-01-2009 03:16:01 -13.4 C 1.27 g/m*3 -13.4 C 0 km/h
378 10-01-2009 03:28:01 -13.3 C 1.28 g/m*3 -13.3 C 0 km/h
379 10-01-2009 03:40:02 -13.4 C 1.27 g/m*3 -13.4 C 0 km/h
380 10-01-2009 03:52:02 -13.5 C 1.26 g/m*3 -13.5 C 0 km/h
381 10-01-2009 04:04:01 -13.5 C 1.26 g/m*3 -13.5 C 0 km/h
382 10-01-2009 04:16:01 -13.6 C 1.23 g/m*3 -13.6 C 0 km/h
383 10-01-2009 04:28:02 -13.8 C 1.21 g/m*3 -13.8 C 0 km/h
384 10-01-2009 04:40:01 -13.7 C 1.22 g/m*3 -13.7 C 0 km/h
385 10-01-2009 04:52:01 -13.8 C 1.21 g/m*3 -13.8 C 0 km/h
386 10-01-2009 05:04:01 -13.9 C 1.19 g/m*3 -13.9 C 0 km/h
387 10-01-2009 05:16:02 -14 C 1.18 g/m*3 -14 C 0 km/h
388 10-01-2009 05:28:02 -14 C 1.18 g/m*3 -14 C 0 km/h
389 10-01-2009 05:40:01 -14 C 1.18 g/m*3 -14 C 0 km/h
390 10-01-2009 05:52:01 -14 C 1.18 g/m*3 -14 C 0 km/h
391 10-01-2009 06:04:02 -14.1 C 1.17 g/m*3 -14.1 C 0 km/h
392 10-01-2009 06:16:01 -14.3 C 1.13 g/m*3 -14.3 C 0 km/h
393 10-01-2009 06:28:01 -14.3 C 1.13 g/m*3 -14.3 C 0 km/h
394 10-01-2009 06:40:01 -14.1 C 1.17 g/m*3 -14.1 C 0 km/h
395 10-01-2009 06:52:01 -14.2 C 1.16 g/m*3 -14.2 C 0 km/h
396 10-01-2009 07:04:01 -14.4 C 1.13 g/m*3 -14.4 C 0 km/h
397 10-01-2009 07:16:01 -14.4 C 1.13 g/m*3 -14.4 C 0 km/h
398 10-01-2009 07:28:01 -14.4 C 1.13 g/m*3 -14.4 C 0 km/h
399 10-01-2009 07:40:02 -14.5 C 1.12 g/m*3 -14.5 C 0 km/h
400 10-01-2009 07:52:01 -14.5 C 1.12 g/m*3 -14.5 C 0 km/h
Sensor: Nr:Datum:Temp:Abs-Feuchte:Windchill:Wind:
Aussen-T/F 401 10-01-2009 08:04:02 -14.3 C 1.13 g/m*3 -14.3 C 0 km/h
402 10-01-2009 08:16:01 -14.3 C 1.13 g/m*3 -14.3 C 0 km/h
403 10-01-2009 08:28:01 -14.4 C 1.11 g/m*3 -14.4 C 0 km/h
404 10-01-2009 08:40:01 -14.5 C 1.1 g/m*3 -14.5 C 0 km/h
405 10-01-2009 08:52:01 -14.5 C 1.1 g/m*3 -14.5 C 0 km/h
406 10-01-2009 09:04:02 -14.3 C 1.12 g/m*3 -14.3 C 0 km/h
407 10-01-2009 09:16:01 -14.3 C 1.12 g/m*3 -14.3 C 0 km/h
408 10-01-2009 09:28:01 -14.4 C 1.11 g/m*3 -14.4 C 0 km/h
409 10-01-2009 09:40:01 -14.1 C 1.13 g/m*3 -14.1 C 0 km/h
410 10-01-2009 09:52:01 -13.8 C 1.18 g/m*3 -13.8 C 0 km/h
411 10-01-2009 10:04:01 -13.8 C 1.18 g/m*3 -13.8 C 0 km/h
412 10-01-2009 10:16:01 -13.7 C 1.19 g/m*3 -13.7 C 0 km/h
413 10-01-2009 10:28:01 -13.4 C 1.22 g/m*3 -13.4 C 0 km/h
414 10-01-2009 10:40:02 -13.4 C 1.22 g/m*3 -13.4 C 0 km/h
415 10-01-2009 10:52:01 -13.2 C 1.24 g/m*3 -13.2 C 0 km/h
416 10-01-2009 11:04:02 -12.9 C 1.28 g/m*3 -12.9 C 0 km/h
417 10-01-2009 11:16:01 -12.6 C 1.31 g/m*3 -12.6 C 0 km/h
418 10-01-2009 11:28:01 -12.4 C 1.35 g/m*3 -12.4 C 0 km/h
419 10-01-2009 11:40:01 -12.1 C 1.39 g/m*3 -12.1 C 0 km/h
420 10-01-2009 11:52:01 -11.8 C 1.44 g/m*3 -11.8 C 0 km/h
421 10-01-2009 12:04:01 -11.5 C 1.47 g/m*3 -11.5 C 0 km/h
422 10-01-2009 12:16:02 -11.2 C 1.53 g/m*3 -11.2 C 0 km/h
423 10-01-2009 12:28:02 -10.9 C 1.56 g/m*3 -10.9 C 0 km/h
424 10-01-2009 12:40:01 -10.3 C 1.66 g/m*3 -10.3 C 0 km/h
425 10-01-2009 12:52:02 -9.6 C 1.77 g/m*3 -9.6 C 0 km/h
Sensor: Nr:Datum:Temp:Abs-Feuchte:Windchill:Wind:
Aussen-T/F 426 10-01-2009 13:04:01 -9 C 1.85 g/m*3 -9 C 0 km/h
427 10-01-2009 13:16:02 -8.2 C 1.99 g/m*3 -8.2 C 0 km/h
428 10-01-2009 13:28:02 -7.6 C 2.08 g/m*3 -7.6 C 0 km/h
429 10-01-2009 13:40:01 -7 C 2.18 g/m*3 -7 C 0 km/h
430 10-01-2009 13:52:01 -6.4 C 2.28 g/m*3 -6.4 C 0 km/h
431 10-01-2009 14:04:01 -6.6 C 2.21 g/m*3 -6.6 C 0 km/h
432 10-01-2009 14:16:01 -7.1 C 2.1 g/m*3 -7.1 C 0 km/h
433 10-01-2009 14:28:01 -7.4 C 2.06 g/m*3 -7.4 C 0 km/h
434 10-01-2009 14:40:02 -7.5 C 2.04 g/m*3 -7.5 C 0 km/h
435 10-01-2009 14:52:01 -7.5 C 2.07 g/m*3 -7.5 C 0 km/h
436 10-01-2009 15:04:02 -7.5 C 2.1 g/m*3 -7.5 C 0 km/h
437 10-01-2009 15:16:01 -7.5 C 2.1 g/m*3 -7.5 C 0 km/h
438 10-01-2009 15:28:01 -7.4 C 2.14 g/m*3 -7.4 C 0 km/h
439 10-01-2009 15:40:02 -7.4 C 2.14 g/m*3 -7.4 C 0 km/h
440 10-01-2009 15:52:01 -7.4 C 2.14 g/m*3 -7.4 C 0 km/h
441 10-01-2009 16:04:01 -7.3 C 2.19 g/m*3 -7.3 C 0 km/h
442 10-01-2009 16:16:01 -7.3 C 2.19 g/m*3 -7.3 C 0 km/h
443 10-01-2009 16:28:01 -7.4 C 2.17 g/m*3 -7.4 C 0 km/h
444 10-01-2009 16:40:01 -7.7 C 2.1 g/m*3 -7.7 C 0 km/h
445 10-01-2009 16:52:02 -7.8 C 2.08 g/m*3 -7.8 C 0 km/h
446 10-01-2009 17:04:01 -8 C 2.08 g/m*3 -8 C 0 km/h
447 10-01-2009 17:16:01 -8.3 C 2.01 g/m*3 -8.3 C 0 km/h
448 10-01-2009 17:28:01 -8.5 C 2 g/m*3 -8.5 C 0 km/h
449 10-01-2009 17:40:01 -8.6 C 1.99 g/m*3 -8.6 C 0 km/h
450 10-01-2009 17:52:01 -8.8 C 1.96 g/m*3 -8.8 C 0 km/h
Sensor: Nr:Datum:Temp:Abs-Feuchte:Windchill:Wind:
Aussen-T/F 451 10-01-2009 18:04:01 -8.8 C 1.96 g/m*3 -8.8 C 0 km/h
452 10-01-2009 18:16:01 -9 C 1.93 g/m*3 -9 C 0 km/h
453 10-01-2009 18:28:01 -9.2 C 1.9 g/m*3 -9.2 C 0 km/h
454 10-01-2009 18:40:02 -9.4 C 1.87 g/m*3 -9.4 C 0 km/h
455 10-01-2009 18:52:01 -9.7 C 1.81 g/m*3 -9.7 C 0 km/h
456 10-01-2009 19:04:02 -9.6 C 1.84 g/m*3 -9.6 C 0 km/h
457 10-01-2009 19:16:01 -9.5 C 1.88 g/m*3 -9.5 C 0 km/h
458 10-01-2009 19:28:01 -9.8 C 1.82 g/m*3 -9.8 C 0 km/h
459 10-01-2009 19:40:02 -9.9 C 1.8 g/m*3 -9.9 C 0 km/h
460 10-01-2009 19:52:01 -9.9 C 1.8 g/m*3 -9.9 C 0 km/h
461 10-01-2009 20:04:02 -10.2 C 1.76 g/m*3 -10.2 C 0 km/h
462 10-01-2009 20:16:01 -10 C 1.79 g/m*3 -10 C 0 km/h
463 10-01-2009 20:28:01 -10.2 C 1.76 g/m*3 -10.2 C 0 km/h
464 10-01-2009 20:40:01 -10.3 C 1.73 g/m*3 -10.3 C 0 km/h
465 10-01-2009 20:52:01 -10.2 C 1.76 g/m*3 -10.2 C 0 km/h
466 10-01-2009 21:04:01 -10.1 C 1.78 g/m*3 -10.1 C 0 km/h
467 10-01-2009 21:16:02 -10 C 1.81 g/m*3 -10 C 0 km/h
468 10-01-2009 21:28:02 -10.2 C 1.76 g/m*3 -10.2 C 0 km/h
469 10-01-2009 21:40:01 -9.9 C 1.83 g/m*3 -9.9 C 0 km/h
470 10-01-2009 21:52:01 -10 C 1.81 g/m*3 -10 C 0 km/h
471 10-01-2009 22:04:01 -10.4 C 1.74 g/m*3 -10.4 C 0 km/h
472 10-01-2009 22:16:02 -10.6 C 1.71 g/m*3 -10.6 C 0 km/h
473 10-01-2009 22:28:02 -10.4 C 1.74 g/m*3 -10.4 C 0 km/h
474 10-01-2009 22:40:01 -10.7 C 1.7 g/m*3 -10.7 C 0 km/h
475 10-01-2009 22:52:02 -10.6 C 1.71 g/m*3 -10.6 C 0 km/h
Sensor: Nr:Datum:Temp:Abs-Feuchte:Windchill:Wind:
Aussen-T/F 476 10-01-2009 23:04:47 -10.6 C 1.71 g/m*3 -10.6 C 0 km/h
477 10-01-2009 23:16:48 -10.6 C 1.71 g/m*3 -10.6 C 0 km/h
478 10-01-2009 23:28:48 -10.6 C 1.71 g/m*3 -10.6 C 0 km/h
479 10-01-2009 23:40:48 -10.9 C 1.65 g/m*3 -10.9 C 0 km/h
480 10-01-2009 23:52:48 -10.8 C 1.69 g/m*3 -10.8 C 0 km/h
481 11-01-2009 00:04:48 -10.7 C 1.7 g/m*3 -10.7 C 0 km/h
482 11-01-2009 00:16:48 -10.6 C 1.73 g/m*3 -10.6 C 0 km/h
483 11-01-2009 00:28:48 -10.7 C 1.7 g/m*3 -10.7 C 0 km/h
484 11-01-2009 00:40:48 -11 C 1.66 g/m*3 -11 C 0 km/h
485 11-01-2009 00:52:48 -11 C 1.64 g/m*3 -11 C 0 km/h
486 11-01-2009 01:04:48 -11 C 1.64 g/m*3 -11 C 0 km/h
487 11-01-2009 01:16:48 -11.1 C 1.63 g/m*3 -11.1 C 0 km/h
488 11-01-2009 01:28:48 -11 C 1.64 g/m*3 -11 C 0 km/h
489 11-01-2009 01:40:48 -11.1 C 1.63 g/m*3 -11.1 C 0 km/h
490 11-01-2009 01:52:48 -11.5 C 1.56 g/m*3 -11.5 C 0 km/h
491 11-01-2009 02:04:48 -11.5 C 1.56 g/m*3 -11.5 C 0 km/h
492 11-01-2009 02:16:48 -11.5 C 1.56 g/m*3 -11.5 C 0 km/h
493 11-01-2009 02:28:48 -11.6 C 1.54 g/m*3 -11.6 C 0 km/h
494 11-01-2009 02:40:48 -11.3 C 1.6 g/m*3 -11.3 C 0 km/h
495 11-01-2009 02:52:48 -11.3 C 1.6 g/m*3 -11.3 C 0 km/h
496 11-01-2009 03:04:49 -11.2 C 1.61 g/m*3 -11.2 C 0 km/h
497 11-01-2009 03:16:49 -11.5 C 1.58 g/m*3 -11.5 C 0 km/h
498 11-01-2009 03:28:49 -11.5 C 1.58 g/m*3 -11.5 C 0 km/h
499 11-01-2009 03:40:49 -11.4 C 1.59 g/m*3 -11.4 C 0 km/h
500 11-01-2009 03:52:49 -11.5 C 1.58 g/m*3 -11.5 C 0 km/h
Sensor: Nr:Datum:Temp:Abs-Feuchte:Windchill:Wind:
Aussen-T/F 501 11-01-2009 04:04:49 -11.7 C 1.55 g/m*3 -11.7 C 0 km/h
502 11-01-2009 04:16:49 -11.7 C 1.53 g/m*3 -11.7 C 0 km/h
503 11-01-2009 04:28:49 -11.7 C 1.53 g/m*3 -11.7 C 0 km/h
504 11-01-2009 04:40:49 -11.7 C 1.53 g/m*3 -11.7 C 0 km/h
505 11-01-2009 04:52:49 -11.9 C 1.51 g/m*3 -11.9 C 0 km/h
506 11-01-2009 05:04:49 -12 C 1.5 g/m*3 -12 C 0 km/h
507 11-01-2009 05:16:49 -11.9 C 1.49 g/m*3 -11.9 C 0 km/h
508 11-01-2009 05:28:49 -12 C 1.48 g/m*3 -12 C 0 km/h
509 11-01-2009 05:40:49 -12.2 C 1.45 g/m*3 -12.2 C 0 km/h
510 11-01-2009 05:52:49 -12.1 C 1.47 g/m*3 -12.1 C 0 km/h
511 11-01-2009 06:04:49 -12.1 C 1.47 g/m*3 -12.1 C 0 km/h
512 11-01-2009 06:16:49 -12.2 C 1.45 g/m*3 -12.2 C 0 km/h
513 11-01-2009 06:28:49 -12.3 C 1.44 g/m*3 -12.3 C 0 km/h
514 11-01-2009 06:40:49 -12.3 C 1.44 g/m*3 -12.3 C 0 km/h
515 11-01-2009 06:52:50 -12.1 C 1.49 g/m*3 -12.1 C 0 km/h
516 11-01-2009 07:04:50 -12.1 C 1.49 g/m*3 -12.1 C 0 km/h
517 11-01-2009 07:16:50 -12.2 C 1.47 g/m*3 -12.2 C 0 km/h
518 11-01-2009 07:28:50 -12.3 C 1.44 g/m*3 -12.3 C 0 km/h
519 11-01-2009 07:40:50 -12.3 C 1.44 g/m*3 -12.3 C 0 km/h
520 11-01-2009 07:52:50 -12.1 C 1.49 g/m*3 -12.1 C 0 km/h
521 11-01-2009 08:04:50 -12.3 C 1.46 g/m*3 -12.3 C 0 km/h
522 11-01-2009 08:16:50 -12.3 C 1.44 g/m*3 -12.3 C 0 km/h
523 11-01-2009 08:28:50 -12.4 C 1.43 g/m*3 -12.4 C 0 km/h
524 11-01-2009 08:40:50 -12.5 C 1.42 g/m*3 -12.5 C 0 km/h
525 11-01-2009 08:52:46 -12.3 C 1.44 g/m*3 -12.3 C 0 km/h
Sensor: Nr:Datum:Temp:Abs-Feuchte:Windchill:Wind:
Aussen-T/F 526 11-01-2009 09:04:46 -12.2 C 1.45 g/m*3 -12.2 C 0 km/h
527 11-01-2009 09:16:47 -12.1 C 1.47 g/m*3 -12.1 C 0 km/h
528 11-01-2009 09:28:47 -11.7 C 1.53 g/m*3 -11.7 C 0 km/h
529 11-01-2009 09:40:46 -11.3 C 1.58 g/m*3 -11.3 C 0 km/h
530 11-01-2009 09:52:46 -11.2 C 1.59 g/m*3 -11.2 C 0 km/h
531 11-01-2009 10:04:45 -10.9 C 1.63 g/m*3 -10.9 C 0 km/h
532 11-01-2009 10:16:45 -10.9 C 1.63 g/m*3 -10.9 C 0 km/h
533 11-01-2009 10:28:45 -10.6 C 1.67 g/m*3 -10.6 C 0 km/h
534 11-01-2009 10:40:46 -10.2 C 1.72 g/m*3 -10.2 C 0 km/h
535 11-01-2009 10:52:45 -10.1 C 1.73 g/m*3 -10.1 C 0 km/h
536 11-01-2009 11:04:45 -10.1 C 1.73 g/m*3 -10.1 C 0 km/h
537 11-01-2009 11:16:45 -10 C 1.77 g/m*3 -10 C 0 km/h
538 11-01-2009 11:28:45 -9.8 C 1.79 g/m*3 -9.8 C 0 km/h
539 11-01-2009 11:40:45 -9.4 C 1.87 g/m*3 -9.4 C 0 km/h
540 11-01-2009 11:52:45 -9.1 C 1.92 g/m*3 -9.1 C 0 km/h
541 11-01-2009 12:04:44 -8.6 C 2.01 g/m*3 -8.6 C 0 km/h
542 11-01-2009 12:16:45 -8.2 C 2.1 g/m*3 -8.2 C 0 km/h
543 11-01-2009 12:28:45 -7.8 C 2.19 g/m*3 -7.8 C 0 km/h
544 11-01-2009 12:40:44 -7 C 2.36 g/m*3 -7 C 0 km/h
545 11-01-2009 12:52:44 -6.4 C 2.49 g/m*3 -6.4 C 0 km/h
546 11-01-2009 13:04:44 -5.8 C 2.57 g/m*3 -5.8 C 0 km/h
547 11-01-2009 13:16:44 -5.1 C 2.7 g/m*3 -5.1 C 0 km/h
548 11-01-2009 13:28:44 -4.7 C 2.75 g/m*3 -4.7 C 0 km/h
549 11-01-2009 13:40:44 -4.1 C 2.8 g/m*3 -4.1 C 0 km/h
550 11-01-2009 13:52:44 -3.4 C 2.9 g/m*3 -3.4 C 0 km/h
Sensor: Nr:Datum:Temp:Abs-Feuchte:Windchill:Wind:
Aussen-T/F 551 11-01-2009 14:04:44 -3.4 C 2.79 g/m*3 -3.4 C 0 km/h
552 11-01-2009 14:16:43 -4 C 2.63 g/m*3 -4 C 0 km/h
553 11-01-2009 14:28:43 -4.2 C 2.63 g/m*3 -4.2 C 0 km/h
554 11-01-2009 14:40:43 -4.3 C 2.65 g/m*3 -4.3 C 0 km/h
555 11-01-2009 14:52:43 -4.4 C 2.67 g/m*3 -4.4 C 0 km/h
556 11-01-2009 15:04:43 -4.4 C 2.67 g/m*3 -4.4 C 0 km/h
557 11-01-2009 15:16:42 -4.4 C 2.67 g/m*3 -4.4 C 0 km/h
558 11-01-2009 15:28:42 -4.4 C 2.7 g/m*3 -4.4 C 0 km/h
559 11-01-2009 15:40:42 -4.4 C 2.67 g/m*3 -4.4 C 0 km/h
560 11-01-2009 15:52:43 -4.2 C 2.7 g/m*3 -4.2 C 0 km/h
561 11-01-2009 16:04:42 -4.1 C 2.72 g/m*3 -4.1 C 0 km/h
562 11-01-2009 16:16:42 -4.2 C 2.74 g/m*3 -4.2 C 0 km/h
563 11-01-2009 16:28:42 -4.5 C 2.68 g/m*3 -4.5 C 0 km/h
564 11-01-2009 16:40:42 -4.6 C 2.66 g/m*3 -4.6 C 0 km/h
565 11-01-2009 16:52:42 -4.6 C 2.66 g/m*3 -4.6 C 0 km/h
566 11-01-2009 17:04:02 -4.7 C 2.64 g/m*3 -4.7 C 0 km/h
567 11-01-2009 17:16:02 -4.8 C 2.63 g/m*3 -4.8 C 0 km/h
568 11-01-2009 17:28:02 -5.2 C 2.58 g/m*3 -5.2 C 0 km/h
569 11-01-2009 17:40:01 -5.2 C 2.58 g/m*3 -5.2 C 0 km/h
570 11-01-2009 17:52:02 -5.3 C 2.57 g/m*3 -5.3 C 0 km/h
571 11-01-2009 18:04:01 -5.8 C 2.47 g/m*3 -5.8 C 0 km/h
572 11-01-2009 18:16:01 -6.2 C 2.4 g/m*3 -6.2 C 0 km/h
573 11-01-2009 18:28:01 -6.2 C 2.4 g/m*3 -6.2 C 0 km/h
574 11-01-2009 18:40:01 -6.4 C 2.37 g/m*3 -6.4 C 0 km/h
575 11-01-2009 18:52:01 -6.5 C 2.38 g/m*3 -6.5 C 0 km/h
Sensor: Nr:Datum:Temp:Abs-Feuchte:Windchill:Wind:
Aussen-T/F 576 11-01-2009 19:04:01 -6.5 C 2.38 g/m*3 -6.5 C 0 km/h
577 11-01-2009 19:16:01 -6.9 C 2.31 g/m*3 -6.9 C 0 km/h
578 11-01-2009 19:28:01 -7.2 C 2.23 g/m*3 -7.2 C 0 km/h
579 11-01-2009 19:40:01 -7.4 C 2.23 g/m*3 -7.4 C 0 km/h
580 11-01-2009 19:52:00 -7.6 C 2.2 g/m*3 -7.6 C 0 km/h
581 11-01-2009 20:04:01 -7.8 C 2.16 g/m*3 -7.8 C 0 km/h
582 11-01-2009 20:16:00 -7.9 C 2.15 g/m*3 -7.9 C 0 km/h
583 11-01-2009 20:28:00 -7.9 C 2.15 g/m*3 -7.9 C 0 km/h
584 11-01-2009 20:40:00 -8 C 2.13 g/m*3 -8 C 0 km/h
585 11-01-2009 20:52:00 -8.1 C 2.12 g/m*3 -8.1 C 0 km/h
586 11-01-2009 21:04:00 -8.2 C 2.1 g/m*3 -8.2 C 0 km/h
587 11-01-2009 21:16:59 -8.3 C 2.09 g/m*3 -8.3 C 0 km/h
588 11-01-2009 21:27:59 -8.3 C 2.09 g/m*3 -8.3 C 0 km/h
589 11-01-2009 21:40:00 -8.6 C 2.04 g/m*3 -8.6 C 0 km/h
590 11-01-2009 21:52:00 -8.7 C 2.03 g/m*3 -8.7 C 0 km/h
591 11-01-2009 22:04:59 -9 C 1.98 g/m*3 -9 C 0 km/h
592 11-01-2009 22:16:59 -9.2 C 1.93 g/m*3 -9.2 C 0 km/h
593 11-01-2009 22:29:00 -9.2 C 1.95 g/m*3 -9.2 C 0 km/h
594 11-01-2009 22:40:58 -9.3 C 1.91 g/m*3 -9.3 C 0 km/h
595 11-01-2009 22:52:59 -9.5 C 1.88 g/m*3 -9.5 C 0 km/h
596 11-01-2009 23:04:59 -9.5 C 1.91 g/m*3 -9.5 C 0 km/h
597 11-01-2009 23:16:58 -9.5 C 1.91 g/m*3 -9.5 C 0 km/h
598 11-01-2009 23:28:58 -9.7 C 1.88 g/m*3 -9.7 C 0 km/h
599 11-01-2009 23:40:59 -9.7 C 1.88 g/m*3 -9.7 C 0 km/h
600 11-01-2009 23:53:00 -9.9 C 1.83 g/m*3 -9.9 C 0 km/h
Sensor: Nr:Datum:Temp:Abs-Feuchte:Windchill:Wind:
Aussen-T/F 601 12-01-2009 00:05:00 -9.7 C 1.88 g/m*3 -9.7 C 0 km/h
602 12-01-2009 00:17:00 -10 C 1.84 g/m*3 -10 C 0 km/h
603 12-01-2009 00:29:00 -10.2 C 1.79 g/m*3 -10.2 C 0 km/h
604 12-01-2009 00:41:00 -10.3 C 1.77 g/m*3 -10.3 C 0 km/h
605 12-01-2009 00:53:00 -10.5 C 1.75 g/m*3 -10.5 C 0 km/h
606 12-01-2009 01:05:01 -10.6 C 1.73 g/m*3 -10.6 C 0 km/h
607 12-01-2009 01:17:01 -10.7 C 1.7 g/m*3 -10.7 C 0 km/h
608 12-01-2009 01:29:01 -10.7 C 1.7 g/m*3 -10.7 C 0 km/h
609 12-01-2009 01:41:01 -10.6 C 1.73 g/m*3 -10.6 C 0 km/h
610 12-01-2009 01:53:01 -10.6 C 1.71 g/m*3 -10.6 C 0 km/h
611 12-01-2009 02:05:01 -10.8 C 1.69 g/m*3 -10.8 C 0 km/h
612 12-01-2009 02:17:01 -10.8 C 1.69 g/m*3 -10.8 C 0 km/h
613 12-01-2009 02:29:01 -11 C 1.66 g/m*3 -11 C 0 km/h
614 12-01-2009 02:41:01 -11 C 1.66 g/m*3 -11 C 0 km/h
615 12-01-2009 02:53:01 -11.1 C 1.65 g/m*3 -11.1 C 0 km/h
616 12-01-2009 03:05:01 -11.2 C 1.61 g/m*3 -11.2 C 0 km/h
617 12-01-2009 03:17:01 -11.1 C 1.63 g/m*3 -11.1 C 0 km/h
618 12-01-2009 03:29:01 -11.1 C 1.63 g/m*3 -11.1 C 0 km/h
619 12-01-2009 03:41:01 -11.1 C 1.63 g/m*3 -11.1 C 0 km/h
620 12-01-2009 03:53:01 -11.2 C 1.61 g/m*3 -11.2 C 0 km/h
621 12-01-2009 04:05:01 -11.3 C 1.6 g/m*3 -11.3 C 0 km/h
622 12-01-2009 04:17:01 -11.3 C 1.6 g/m*3 -11.3 C 0 km/h
623 12-01-2009 04:29:01 -11.2 C 1.61 g/m*3 -11.2 C 0 km/h
624 12-01-2009 04:41:01 -11.2 C 1.61 g/m*3 -11.2 C 0 km/h
625 12-01-2009 04:53:01 -11.4 C 1.57 g/m*3 -11.4 C 0 km/h
Sensor: Nr:Datum:Temp:Abs-Feuchte:Windchill:Wind:
Aussen-T/F 626 12-01-2009 05:05:02 -11.4 C 1.57 g/m*3 -11.4 C 0 km/h
627 12-01-2009 05:17:02 -11.5 C 1.56 g/m*3 -11.5 C 0 km/h
628 12-01-2009 05:29:02 -11.5 C 1.56 g/m*3 -11.5 C 0 km/h
629 12-01-2009 05:41:02 -11.5 C 1.56 g/m*3 -11.5 C 0 km/h
630 12-01-2009 05:53:02 -11.4 C 1.57 g/m*3 -11.4 C 0 km/h
631 12-01-2009 06:05:02 -11.3 C 1.58 g/m*3 -11.3 C 0 km/h
632 12-01-2009 06:17:02 -11.2 C 1.61 g/m*3 -11.2 C 0 km/h
633 12-01-2009 06:29:02 -11.4 C 1.59 g/m*3 -11.4 C 0 km/h
634 12-01-2009 06:41:02 -11.5 C 1.56 g/m*3 -11.5 C 0 km/h
635 12-01-2009 06:53:02 -11.5 C 1.58 g/m*3 -11.5 C 0 km/h
636 12-01-2009 07:05:00 -11.6 C 1.54 g/m*3 -11.6 C 0 km/h
637 12-01-2009 07:17:00 -11.7 C 1.53 g/m*3 -11.7 C 0 km/h
638 12-01-2009 07:29:00 -11.8 C 1.52 g/m*3 -11.8 C 0 km/h
639 12-01-2009 07:41:59 -11.8 C 1.5 g/m*3 -11.8 C 0 km/h
640 12-01-2009 07:53:00 -11.9 C 1.49 g/m*3 -11.9 C 0 km/h
641 12-01-2009 08:05:59 -11.7 C 1.51 g/m*3 -11.7 C 0 km/h
642 12-01-2009 08:17:59 -11.7 C 1.53 g/m*3 -11.7 C 0 km/h
643 12-01-2009 08:29:59 -11.7 C 1.53 g/m*3 -11.7 C 0 km/h
644 12-01-2009 08:41:58 -11.7 C 1.53 g/m*3 -11.7 C 0 km/h
645 12-01-2009 08:53:59 -11.7 C 1.53 g/m*3 -11.7 C 0 km/h
646 12-01-2009 09:05:58 -11.7 C 1.53 g/m*3 -11.7 C 0 km/h
647 12-01-2009 09:17:58 -11.5 C 1.56 g/m*3 -11.5 C 0 km/h
648 12-01-2009 09:29:59 -11.3 C 1.58 g/m*3 -11.3 C 0 km/h
649 12-01-2009 09:41:58 -11.3 C 1.56 g/m*3 -11.3 C 0 km/h
650 12-01-2009 09:53:58 -11.1 C 1.58 g/m*3 -11.1 C 0 km/h
Sensor: Nr:Datum:Temp:Abs-Feuchte:Windchill:Wind:
Aussen-T/F 651 12-01-2009 10:05:57 -10.9 C 1.63 g/m*3 -10.9 C 0 km/h
652 12-01-2009 10:17:58 -10.6 C 1.67 g/m*3 -10.6 C 0 km/h
653 12-01-2009 10:29:58 -10.4 C 1.69 g/m*3 -10.4 C 0 km/h
654 12-01-2009 10:41:58 -10.2 C 1.72 g/m*3 -10.2 C 0 km/h
655 12-01-2009 10:53:57 -9.8 C 1.79 g/m*3 -9.8 C 0 km/h
656 12-01-2009 11:05:58 -9.7 C 1.81 g/m*3 -9.7 C 0 km/h
657 12-01-2009 11:17:57 -9.4 C 1.85 g/m*3 -9.4 C 0 km/h
658 12-01-2009 11:29:57 -8.9 C 1.97 g/m*3 -8.9 C 0 km/h
659 12-01-2009 11:41:57 -8.6 C 2.01 g/m*3 -8.6 C 0 km/h
660 12-01-2009 11:53:56 -8.1 C 2.12 g/m*3 -8.1 C 0 km/h
661 12-01-2009 12:05:57 -7.7 C 2.21 g/m*3 -7.7 C 0 km/h
662 12-01-2009 12:17:57 -7.3 C 2.3 g/m*3 -7.3 C 0 km/h
663 12-01-2009 12:29:57 -7.2 C 2.32 g/m*3 -7.2 C 0 km/h
664 12-01-2009 12:41:56 -6.6 C 2.46 g/m*3 -6.6 C 0 km/h
665 12-01-2009 12:53:57 -5.9 C 2.58 g/m*3 -5.9 C 0 km/h
666 12-01-2009 13:05:56 -4.9 C 2.78 g/m*3 -4.9 C 0 km/h
667 12-01-2009 13:17:56 -4.1 C 2.87 g/m*3 -4.1 C 0 km/h
668 12-01-2009 13:29:56 -3.3 C 3 g/m*3 -3.3 C 0 km/h
669 12-01-2009 13:41:55 -3.2 C 2.9 g/m*3 -3.2 C 0 km/h
670 12-01-2009 13:53:56 -2.8 C 2.91 g/m*3 -2.8 C 0 km/h
671 12-01-2009 14:05:55 -2.6 C 2.87 g/m*3 -2.6 C 0 km/h
672 12-01-2009 14:17:55 -3 C 2.75 g/m*3 -3 C 0 km/h
673 12-01-2009 14:29:55 -3.1 C 2.77 g/m*3 -3.1 C 0 km/h
674 12-01-2009 14:41:56 -3 C 2.83 g/m*3 -3 C 0 km/h
675 12-01-2009 14:53:55 -2.9 C 2.85 g/m*3 -2.9 C 0 km/h
Sensor: Nr:Datum:Temp:Abs-Feuchte:Windchill:Wind:
Aussen-T/F 676 12-01-2009 15:05:55 -2.8 C 2.91 g/m*3 -2.8 C 0 km/h
677 12-01-2009 15:17:55 -2.7 C 2.93 g/m*3 -2.7 C 0 km/h
678 12-01-2009 15:29:55 -2.6 C 2.87 g/m*3 -2.6 C 0 km/h
679 12-01-2009 15:41:55 -2.7 C 2.89 g/m*3 -2.7 C 0 km/h
680 12-01-2009 15:53:54 -2.7 C 2.89 g/m*3 -2.7 C 0 km/h
681 12-01-2009 16:05:55 -2.8 C 2.87 g/m*3 -2.8 C 0 km/h
682 12-01-2009 16:17:54 -2.8 C 2.87 g/m*3 -2.8 C 0 km/h
683 12-01-2009 16:29:54 -2.9 C 2.89 g/m*3 -2.9 C 0 km/h
684 12-01-2009 16:41:54 -2.9 C 2.89 g/m*3 -2.9 C 0 km/h
685 12-01-2009 16:53:53 -2.8 C 2.91 g/m*3 -2.8 C 0 km/h
686 12-01-2009 17:05:54 -2.8 C 2.95 g/m*3 -2.8 C 0 km/h
687 12-01-2009 17:17:54 -2.8 C 2.99 g/m*3 -2.8 C 0 km/h
688 12-01-2009 17:29:54 -3 C 2.95 g/m*3 -3 C 0 km/h
689 12-01-2009 17:41:53 -3 C 2.99 g/m*3 -3 C 0 km/h
690 12-01-2009 17:53:54 -3 C 2.95 g/m*3 -3 C 0 km/h
691 12-01-2009 18:05:53 -3 C 2.91 g/m*3 -3 C 0 km/h
692 12-01-2009 18:17:53 -3.1 C 2.81 g/m*3 -3.1 C 0 km/h
693 12-01-2009 18:29:54 -3.3 C 2.81 g/m*3 -3.3 C 0 km/h
694 12-01-2009 18:41:52 -3.4 C 2.79 g/m*3 -3.4 C 0 km/h
695 12-01-2009 18:53:53 -3.3 C 2.81 g/m*3 -3.3 C 0 km/h
696 12-01-2009 19:05:52 -3.5 C 2.77 g/m*3 -3.5 C 0 km/h
697 12-01-2009 19:17:52 -3.6 C 2.75 g/m*3 -3.6 C 0 km/h
698 12-01-2009 19:29:52 -3.7 C 2.77 g/m*3 -3.7 C 0 km/h
699 12-01-2009 19:41:53 -3.6 C 2.82 g/m*3 -3.6 C 0 km/h
700 12-01-2009 19:53:52 -3.5 C 2.77 g/m*3 -3.5 C 0 km/h
Sensor: Nr:Datum:Temp:Abs-Feuchte:Windchill:Wind:
Aussen-T/F 701 12-01-2009 20:05:52 -3.6 C 2.75 g/m*3 -3.6 C 0 km/h
702 12-01-2009 20:17:52 -3.6 C 2.71 g/m*3 -3.6 C 0 km/h
703 12-01-2009 20:29:52 -3.7 C 2.65 g/m*3 -3.7 C 0 km/h
704 12-01-2009 20:41:52 -3.8 C 2.71 g/m*3 -3.8 C 0 km/h
705 12-01-2009 20:53:51 -3.8 C 2.75 g/m*3 -3.8 C 0 km/h
706 12-01-2009 21:05:52 -3.7 C 2.77 g/m*3 -3.7 C 0 km/h
707 12-01-2009 21:17:51 -3.6 C 2.82 g/m*3 -3.6 C 0 km/h
708 12-01-2009 21:29:51 -3.5 C 2.84 g/m*3 -3.5 C 0 km/h
709 12-01-2009 21:41:51 -3.6 C 2.79 g/m*3 -3.6 C 0 km/h
710 12-01-2009 21:53:51 -3.8 C 2.75 g/m*3 -3.8 C 0 km/h
711 12-01-2009 22:06:06 -3.8 C 2.75 g/m*3 -3.8 C 0 km/h
712 12-01-2009 22:18:06 -4 C 2.67 g/m*3 -4 C 0 km/h
713 12-01-2009 22:30:06 -4 C 2.67 g/m*3 -4 C 0 km/h
714 12-01-2009 22:42:06 -4.1 C 2.65 g/m*3 -4.1 C 0 km/h
715 12-01-2009 22:54:06 -4.2 C 2.63 g/m*3 -4.2 C 0 km/h
716 12-01-2009 23:06:06 -4.3 C 2.61 g/m*3 -4.3 C 0 km/h
717 12-01-2009 23:18:06 -4.2 C 2.63 g/m*3 -4.2 C 0 km/h
718 12-01-2009 23:30:06 -4 C 2.74 g/m*3 -4 C 0 km/h
719 12-01-2009 23:42:06 -3.9 C 2.8 g/m*3 -3.9 C 0 km/h
720 12-01-2009 23:54:06 -3.7 C 2.84 g/m*3 -3.7 C 0 km/h
721 13-01-2009 00:06:06 -3.6 C 2.86 g/m*3 -3.6 C 0 km/h
722 13-01-2009 00:18:06 -3.5 C 2.88 g/m*3 -3.5 C 0 km/h
723 13-01-2009 00:30:06 -3.4 C 2.9 g/m*3 -3.4 C 0 km/h
724 13-01-2009 00:42:06 -3.4 C 2.9 g/m*3 -3.4 C 0 km/h
725 13-01-2009 00:54:06 -3.3 C 2.92 g/m*3 -3.3 C 0 km/h
Sensor: Nr:Datum:Temp:Abs-Feuchte:Windchill:Wind:
Aussen-T/F 726 13-01-2009 01:06:06 -3.1 C 2.96 g/m*3 -3.1 C 0 km/h
727 13-01-2009 01:18:07 -3 C 2.95 g/m*3 -3 C 0 km/h
728 13-01-2009 01:30:07 -2.9 C 3.01 g/m*3 -2.9 C 0 km/h
729 13-01-2009 01:42:07 -2.9 C 2.97 g/m*3 -2.9 C 0 km/h
730 13-01-2009 01:54:07 -2.8 C 2.99 g/m*3 -2.8 C 0 km/h
731 13-01-2009 02:06:07 -2.8 C 2.99 g/m*3 -2.8 C 0 km/h
732 13-01-2009 02:18:07 -2.8 C 3.03 g/m*3 -2.8 C 0 km/h
733 13-01-2009 02:30:07 -2.6 C 3.07 g/m*3 -2.6 C 0 km/h
734 13-01-2009 02:42:07 -2.4 C 3.11 g/m*3 -2.4 C 0 km/h
735 13-01-2009 02:54:07 -2.2 C 3.16 g/m*3 -2.2 C 0 km/h
736 13-01-2009 03:06:07 -2.1 C 3.18 g/m*3 -2.1 C 0 km/h
737 13-01-2009 03:18:07 -2 C 3.16 g/m*3 -2 C 0 km/h
738 13-01-2009 03:30:07 -1.8 C 3.16 g/m*3 -1.8 C 0 km/h
739 13-01-2009 03:42:07 -1.5 C 3.19 g/m*3 -1.5 C 0 km/h
740 13-01-2009 03:54:07 -1.3 C 3.14 g/m*3 -1.3 C 0 km/h
741 13-01-2009 04:06:07 -1.4 C 3.12 g/m*3 -1.4 C 0 km/h
742 13-01-2009 04:18:07 -1.6 C 3.12 g/m*3 -1.6 C 0 km/h
743 13-01-2009 04:30:07 -1.6 C 3.12 g/m*3 -1.6 C 0 km/h
744 13-01-2009 04:42:07 -1.4 C 3.21 g/m*3 -1.4 C 0 km/h
745 13-01-2009 04:54:07 -1.2 C 3.21 g/m*3 -1.2 C 0 km/h
746 13-01-2009 05:06:07 -1.4 C 3.17 g/m*3 -1.4 C 0 km/h
747 13-01-2009 05:18:08 -1.3 C 3.23 g/m*3 -1.3 C 0 km/h
748 13-01-2009 05:30:08 -1.2 C 3.3 g/m*3 -1.2 C 0 km/h
749 13-01-2009 05:42:08 -1.2 C 3.34 g/m*3 -1.2 C 0 km/h
750 13-01-2009 05:54:08 -1.3 C 3.32 g/m*3 -1.3 C 0 km/h
Sensor: Nr:Datum:Temp:Abs-Feuchte:Windchill:Wind:
Aussen-T/F 751 13-01-2009 06:06:08 -1.2 C 3.34 g/m*3 -1.2 C 0 km/h
752 13-01-2009 06:18:08 -1.2 C 3.34 g/m*3 -1.2 C 0 km/h
753 13-01-2009 06:30:08 -0.9 C 3.28 g/m*3 -0.9 C 0 km/h
754 13-01-2009 06:42:08 -0.9 C 3.23 g/m*3 -0.9 C 0 km/h
755 13-01-2009 06:54:08 -0.9 C 3.28 g/m*3 -0.9 C 0 km/h
756 13-01-2009 07:06:08 -0.9 C 3.28 g/m*3 -0.9 C 0 km/h
757 13-01-2009 07:18:52 -0.9 C 3.28 g/m*3 -0.9 C 0 km/h
758 13-01-2009 07:30:52 -0.9 C 3.28 g/m*3 -0.9 C 0 km/h
759 13-01-2009 07:42:52 -0.6 C 3.39 g/m*3 -0.6 C 0 km/h
760 13-01-2009 07:54:51 -0.6 C 3.39 g/m*3 -0.6 C 0 km/h
761 13-01-2009 08:06:51 -0.5 C 3.42 g/m*3 -0.5 C 0 km/h
762 13-01-2009 08:18:51 -0.4 C 3.49 g/m*3 -0.4 C 0 km/h
763 13-01-2009 08:30:51 -0.3 C 3.51 g/m*3 -0.3 C 0 km/h
764 13-01-2009 08:42:51 -0.3 C 3.46 g/m*3 -0.3 C 0 km/h
765 13-01-2009 08:54:51 -0.1 C 3.42 g/m*3 -0.1 C 0 km/h
766 13-01-2009 09:06:50 0.2 C 3.44 g/m*3 0.2 C 0 km/h
767 13-01-2009 09:18:50 0.4 C 3.44 g/m*3 0.4 C 0 km/h
768 13-01-2009 09:30:51 0.6 C 3.43 g/m*3 0.6 C 0 km/h
769 13-01-2009 09:42:51 0.7 C 3.41 g/m*3 0.7 C 0 km/h
770 13-01-2009 09:54:50 0.8 C 3.43 g/m*3 0.8 C 0 km/h
771 13-01-2009 10:06:50 1 C 3.43 g/m*3 1 C 0 km/h
772 13-01-2009 10:18:50 1.2 C 3.42 g/m*3 1.2 C 0 km/h
773 13-01-2009 10:30:50 1.4 C 3.41 g/m*3 1.4 C 0 km/h
774 13-01-2009 10:42:50 1.5 C 3.38 g/m*3 1.5 C 0 km/h
775 13-01-2009 10:54:49 2.1 C 3.36 g/m*3 2.1 C 0 km/h
Sensor: Nr:Datum:Temp:Abs-Feuchte:Windchill:Wind:
Aussen-T/F 776 13-01-2009 11:06:50 2.4 C 3.43 g/m*3 2.4 C 0 km/h
777 13-01-2009 11:18:49 2.7 C 3.32 g/m*3 2.7 C 0 km/h
778 13-01-2009 11:30:49 3.1 C 3.29 g/m*3 3.1 C 0 km/h
779 13-01-2009 11:42:49 3.3 C 3.15 g/m*3 3.3 C 0 km/h
780 13-01-2009 11:54:49 3.3 C 3.09 g/m*3 3.3 C 0 km/h
781 13-01-2009 12:06:49 3.6 C 3.16 g/m*3 3.6 C 0 km/h
782 13-01-2009 12:18:49 3.7 C 3.3 g/m*3 3.7 C 0 km/h
783 13-01-2009 12:30:48 3.8 C 3.39 g/m*3 3.8 C 0 km/h
784 13-01-2009 12:42:48 3.7 C 3.37 g/m*3 3.7 C 0 km/h
785 13-01-2009 12:54:48 3.7 C 3.3 g/m*3 3.7 C 0 km/h
786 13-01-2009 13:06:48 3.8 C 3.45 g/m*3 3.8 C 0 km/h
787 13-01-2009 13:18:49 3.8 C 3.45 g/m*3 3.8 C 0 km/h
788 13-01-2009 13:30:48 3.9 C 3.47 g/m*3 3.9 C 0 km/h
789 13-01-2009 13:42:48 3.9 C 3.47 g/m*3 3.9 C 0 km/h
790 13-01-2009 13:54:48 3.9 C 3.47 g/m*3 3.9 C 0 km/h
791 13-01-2009 14:06:47 3.8 C 3.45 g/m*3 3.8 C 0 km/h
792 13-01-2009 14:18:48 3.7 C 3.43 g/m*3 3.7 C 0 km/h
793 13-01-2009 14:30:47 3.7 C 3.43 g/m*3 3.7 C 0 km/h
794 13-01-2009 14:42:47 3.5 C 3.44 g/m*3 3.5 C 0 km/h
795 13-01-2009 14:54:47 3.4 C 3.48 g/m*3 3.4 C 0 km/h
796 13-01-2009 15:06:47 3.4 C 3.42 g/m*3 3.4 C 0 km/h
797 13-01-2009 15:18:47 3.3 C 3.46 g/m*3 3.3 C 0 km/h
798 13-01-2009 15:30:47 3.2 C 3.43 g/m*3 3.2 C 0 km/h
799 13-01-2009 15:42:47 3 C 3.45 g/m*3 3 C 0 km/h
800 13-01-2009 15:54:47 2.8 C 3.52 g/m*3 2.8 C 0 km/h
Sensor: Nr:Datum:Temp:Abs-Feuchte:Windchill:Wind:
Aussen-T/F 801 13-01-2009 16:06:47 2.7 C 3.55 g/m*3 2.7 C 0 km/h
802 13-01-2009 16:18:46 2.4 C 3.48 g/m*3 2.4 C 0 km/h
803 13-01-2009 16:30:46 2.2 C 3.49 g/m*3 2.2 C 0 km/h
804 13-01-2009 16:42:47 1.9 C 3.48 g/m*3 1.9 C 0 km/h
805 13-01-2009 16:54:46 1.5 C 3.44 g/m*3 1.5 C 0 km/h
806 13-01-2009 17:06:46 1.3 C 3.44 g/m*3 1.3 C 0 km/h
807 13-01-2009 17:18:46 1.1 C 3.4 g/m*3 1.1 C 0 km/h
808 13-01-2009 17:30:46 0.8 C 3.43 g/m*3 0.8 C 0 km/h
809 13-01-2009 17:42:46 0.7 C 3.46 g/m*3 0.7 C 0 km/h
810 13-01-2009 17:54:45 0.4 C 3.49 g/m*3 0.4 C 0 km/h
811 13-01-2009 18:06:45 0.1 C 3.37 g/m*3 0.1 C 0 km/h
812 13-01-2009 18:18:46 0 C 3.39 g/m*3 0 C 0 km/h
813 13-01-2009 18:30:45 -0.2 C 3.35 g/m*3 -0.2 C 0 km/h
814 13-01-2009 18:42:45 -0.4 C 3.3 g/m*3 -0.4 C 0 km/h
815 13-01-2009 18:54:45 -0.6 C 3.3 g/m*3 -0.6 C 0 km/h
816 13-01-2009 19:06:44 -0.9 C 3.28 g/m*3 -0.9 C 0 km/h
817 13-01-2009 19:18:45 -1.1 C 3.23 g/m*3 -1.1 C 0 km/h
818 13-01-2009 19:30:45 -1.2 C 3.25 g/m*3 -1.2 C 0 km/h
819 13-01-2009 19:42:45 -1.5 C 3.19 g/m*3 -1.5 C 0 km/h
820 13-01-2009 19:54:44 -1.7 C 3.14 g/m*3 -1.7 C 0 km/h
821 13-01-2009 20:06:45 -1.9 C 3.06 g/m*3 -1.9 C 0 km/h
822 13-01-2009 20:18:44 -1.9 C 3.1 g/m*3 -1.9 C 0 km/h
823 13-01-2009 20:30:44 -1.9 C 3.14 g/m*3 -1.9 C 0 km/h
824 13-01-2009 20:42:44 -1.9 C 3.1 g/m*3 -1.9 C 0 km/h
825 13-01-2009 20:54:44 -1.9 C 3.14 g/m*3 -1.9 C 0 km/h
Sensor: Nr:Datum:Temp:Abs-Feuchte:Windchill:Wind:
Aussen-T/F 826 13-01-2009 21:06:44 -2 C 3.12 g/m*3 -2 C 0 km/h
827 13-01-2009 21:18:44 -2.2 C 3.08 g/m*3 -2.2 C 0 km/h
828 13-01-2009 21:30:43 -2.2 C 3.12 g/m*3 -2.2 C 0 km/h
829 13-01-2009 21:42:43 -2.3 C 3.1 g/m*3 -2.3 C 0 km/h
830 13-01-2009 21:54:44 -2.2 C 3.16 g/m*3 -2.2 C 0 km/h
831 13-01-2009 22:06:43 -2.1 C 3.18 g/m*3 -2.1 C 0 km/h
832 13-01-2009 22:18:43 -2.2 C 3.16 g/m*3 -2.2 C 0 km/h
833 13-01-2009 22:30:43 -2.3 C 3.14 g/m*3 -2.3 C 0 km/h
834 13-01-2009 22:42:43 -2.5 C 3.09 g/m*3 -2.5 C 0 km/h
835 13-01-2009 22:54:43 -2.8 C 3.07 g/m*3 -2.8 C 0 km/h
836 13-01-2009 23:06:43 -2.9 C 3.05 g/m*3 -2.9 C 0 km/h
837 13-01-2009 23:18:42 -3 C 3.06 g/m*3 -3 C 0 km/h
838 13-01-2009 23:30:42 -3 C 3.1 g/m*3 -3 C 0 km/h
839 13-01-2009 23:42:42 -3.1 C 3.08 g/m*3 -3.1 C 0 km/h
840 13-01-2009 23:54:42 -3.3 C 3.08 g/m*3 -3.3 C 0 km/h
841 14-01-2009 00:06:42 -3.4 C 3.05 g/m*3 -3.4 C 0 km/h
842 14-01-2009 00:18:42 -3.4 C 3.05 g/m*3 -3.4 C 0 km/h
843 14-01-2009 00:30:41 -3.6 C 3.01 g/m*3 -3.6 C 0 km/h
844 14-01-2009 00:42:41 -3.7 C 2.99 g/m*3 -3.7 C 0 km/h
845 14-01-2009 00:54:42 -3.5 C 3.07 g/m*3 -3.5 C 0 km/h
846 14-01-2009 01:06:41 -3.4 C 3.13 g/m*3 -3.4 C 0 km/h
847 14-01-2009 01:18:41 -3.1 C 3.2 g/m*3 -3.1 C 0 km/h
848 14-01-2009 01:30:41 -3 C 3.22 g/m*3 -3 C 0 km/h
849 14-01-2009 01:42:41 -3 C 3.18 g/m*3 -3 C 0 km/h
850 14-01-2009 01:54:41 -3.2 C 3.14 g/m*3 -3.2 C 0 km/h
Sensor: Nr:Datum:Temp:Abs-Feuchte:Windchill:Wind:
Aussen-T/F 851 14-01-2009 02:06:41 -3.4 C 3.05 g/m*3 -3.4 C 0 km/h
852 14-01-2009 02:18:40 -3.5 C 3.03 g/m*3 -3.5 C 0 km/h
853 14-01-2009 02:30:41 -3.1 C 3.16 g/m*3 -3.1 C 0 km/h
854 14-01-2009 02:42:42 -3.1 C 3.16 g/m*3 -3.1 C 0 km/h
855 14-01-2009 02:55:41 -3 C 3.18 g/m*3 -3 C 0 km/h
856 14-01-2009 03:07:41 -3 C 3.18 g/m*3 -3 C 0 km/h
857 14-01-2009 03:19:42 -2.8 C 3.23 g/m*3 -2.8 C 0 km/h
858 14-01-2009 03:31:41 -2.7 C 3.25 g/m*3 -2.7 C 0 km/h
859 14-01-2009 03:43:41 -2.6 C 3.23 g/m*3 -2.6 C 0 km/h
860 14-01-2009 03:55:41 -2.6 C 3.23 g/m*3 -2.6 C 0 km/h
861 14-01-2009 04:07:41 -2.9 C 3.16 g/m*3 -2.9 C 0 km/h
862 14-01-2009 04:19:41 -3 C 3.14 g/m*3 -3 C 0 km/h
863 14-01-2009 04:31:41 -3 C 3.14 g/m*3 -3 C 0 km/h
864 14-01-2009 04:43:42 -2.6 C 3.27 g/m*3 -2.6 C 0 km/h
865 14-01-2009 04:55:41 -2.5 C 3.3 g/m*3 -2.5 C 0 km/h
866 14-01-2009 05:07:40 -2.3 C 3.34 g/m*3 -2.3 C 0 km/h
867 14-01-2009 05:19:41 -2.1 C 3.35 g/m*3 -2.1 C 0 km/h
868 14-01-2009 05:31:40 -1.9 C 3.4 g/m*3 -1.9 C 0 km/h
869 14-01-2009 05:43:40 -1.8 C 3.38 g/m*3 -1.8 C 0 km/h
870 14-01-2009 05:55:40 -1.7 C 3.4 g/m*3 -1.7 C 0 km/h
871 14-01-2009 06:07:40 -1.6 C 3.38 g/m*3 -1.6 C 0 km/h
872 14-01-2009 06:19:40 -1.6 C 3.38 g/m*3 -1.6 C 0 km/h
873 14-01-2009 06:31:39 -1.4 C 3.43 g/m*3 -1.4 C 0 km/h
874 14-01-2009 06:43:39 -1.4 C 3.39 g/m*3 -1.4 C 0 km/h
875 14-01-2009 06:55:40 -1.4 C 3.43 g/m*3 -1.4 C 0 km/h
Sensor: Nr:Datum:Temp:Abs-Feuchte:Windchill:Wind:
Aussen-T/F 876 14-01-2009 07:07:39 -1.1 C 3.5 g/m*3 -1.1 C 0 km/h
877 14-01-2009 07:19:39 -0.9 C 3.6 g/m*3 -0.9 C 0 km/h
878 14-01-2009 07:31:39 -0.7 C 3.69 g/m*3 -0.7 C 0 km/h
879 14-01-2009 07:43:39 -0.7 C 3.69 g/m*3 -0.7 C 0 km/h
880 14-01-2009 07:55:39 -0.7 C 3.69 g/m*3 -0.7 C 0 km/h
881 14-01-2009 08:07:38 -0.8 C 3.67 g/m*3 -0.8 C 0 km/h
882 14-01-2009 08:19:39 -1.1 C 3.59 g/m*3 -1.1 C 0 km/h
883 14-01-2009 08:31:39 -1.1 C 3.64 g/m*3 -1.1 C 0 km/h
884 14-01-2009 08:43:39 -1 C 3.71 g/m*3 -1 C 0 km/h
885 14-01-2009 08:55:38 -1 C 3.71 g/m*3 -1 C 0 km/h
886 14-01-2009 09:07:38 -0.9 C 3.78 g/m*3 -0.9 C 0 km/h
887 14-01-2009 09:19:38 -0.8 C 3.85 g/m*3 -0.8 C 0 km/h
888 14-01-2009 09:31:38 -0.5 C 3.98 g/m*3 -0.5 C 0 km/h
889 14-01-2009 09:43:38 -0.2 C 4.06 g/m*3 -0.2 C 0 km/h
890 14-01-2009 09:55:37 -0.3 C 4.03 g/m*3 -0.3 C 0 km/h
891 14-01-2009 10:07:38 -0.2 C 4.11 g/m*3 -0.2 C 0 km/h
892 14-01-2009 10:19:37 -0.1 C 4.14 g/m*3 -0.1 C 0 km/h
893 14-01-2009 10:31:37 -0.1 C 4.14 g/m*3 -0.1 C 0 km/h
894 14-01-2009 10:43:37 -0.1 C 4.14 g/m*3 -0.1 C 0 km/h
895 14-01-2009 10:55:37 0 C 4.17 g/m*3 0 C 0 km/h
896 14-01-2009 11:07:37 0 C 4.17 g/m*3 0 C 0 km/h
897 14-01-2009 11:19:37 0 C 4.22 g/m*3 0 C 0 km/h
898 14-01-2009 11:31:37 0.1 C 4.24 g/m*3 0.1 C 0 km/h
899 14-01-2009 11:43:37 0.2 C 4.27 g/m*3 0.2 C 0 km/h
900 14-01-2009 11:55:37 0.3 C 4.3 g/m*3 0.3 C 0 km/h
Sensor: Nr:Datum:Temp:Abs-Feuchte:Windchill:Wind:
Aussen-T/F 901 14-01-2009 12:07:36 0.4 C 4.33 g/m*3 0.4 C 0 km/h
902 14-01-2009 12:19:37 0.5 C 4.36 g/m*3 0.5 C 0 km/h
903 14-01-2009 12:31:36 0.7 C 4.47 g/m*3 0.7 C 0 km/h
904 14-01-2009 12:43:36 1 C 4.52 g/m*3 1 C 0 km/h
905 14-01-2009 12:55:36 1.2 C 4.58 g/m*3 1.2 C 0 km/h
906 14-01-2009 13:07:36 1.6 C 4.7 g/m*3 1.6 C 0 km/h
907 14-01-2009 13:19:36 1.7 C 4.74 g/m*3 1.7 C 0 km/h
908 14-01-2009 13:31:36 1.7 C 4.74 g/m*3 1.7 C 0 km/h
909 14-01-2009 13:43:36 2 C 4.78 g/m*3 2 C 0 km/h
910 14-01-2009 13:55:35 2.2 C 4.84 g/m*3 2.2 C 0 km/h
911 14-01-2009 14:07:36 2.3 C 4.82 g/m*3 2.3 C 0 km/h
912 14-01-2009 14:19:35 2.3 C 4.76 g/m*3 2.3 C 0 km/h
913 14-01-2009 14:31:35 2.2 C 4.73 g/m*3 2.2 C 0 km/h
914 14-01-2009 14:43:35 2.3 C 4.76 g/m*3 2.3 C 0 km/h
915 14-01-2009 14:55:35 2.2 C 4.73 g/m*3 2.2 C 0 km/h
916 14-01-2009 15:07:35 2.1 C 4.7 g/m*3 2.1 C 0 km/h
917 14-01-2009 15:19:34 2.1 C 4.7 g/m*3 2.1 C 0 km/h
918 14-01-2009 15:31:34 2.1 C 4.7 g/m*3 2.1 C 0 km/h
919 14-01-2009 15:43:34 2 C 4.67 g/m*3 2 C 0 km/h
920 14-01-2009 15:55:34 1.8 C 4.66 g/m*3 1.8 C 0 km/h
921 14-01-2009 16:07:34 1.8 C 4.66 g/m*3 1.8 C 0 km/h
922 14-01-2009 16:19:34 1.7 C 4.63 g/m*3 1.7 C 0 km/h
923 14-01-2009 16:31:34 1.6 C 4.6 g/m*3 1.6 C 0 km/h
924 14-01-2009 16:43:34 1.5 C 4.62 g/m*3 1.5 C 0 km/h
925 14-01-2009 16:55:34 1.6 C 4.7 g/m*3 1.6 C 0 km/h
Sensor: Nr:Datum:Temp:Abs-Feuchte:Windchill:Wind:
Aussen-T/F 926 14-01-2009 17:07:33 1.5 C 4.67 g/m*3 1.5 C 0 km/h
927 14-01-2009 17:19:34 1.5 C 4.67 g/m*3 1.5 C 0 km/h
928 14-01-2009 17:31:33 1.4 C 4.64 g/m*3 1.4 C 0 km/h
929 14-01-2009 17:43:33 1.4 C 4.64 g/m*3 1.4 C 0 km/h
930 14-01-2009 17:55:33 1.5 C 4.67 g/m*3 1.5 C 0 km/h
931 14-01-2009 18:07:33 1.5 C 4.73 g/m*3 1.5 C 0 km/h
932 14-01-2009 18:19:33 1.5 C 4.73 g/m*3 1.5 C 0 km/h
933 14-01-2009 18:31:33 1.5 C 4.73 g/m*3 1.5 C 0 km/h
934 14-01-2009 18:43:33 1.4 C 4.69 g/m*3 1.4 C 0 km/h
935 14-01-2009 18:55:32 1.4 C 4.69 g/m*3 1.4 C 0 km/h
936 14-01-2009 19:07:33 1.4 C 4.69 g/m*3 1.4 C 0 km/h
937 14-01-2009 19:19:32 1.4 C 4.69 g/m*3 1.4 C 0 km/h
938 14-01-2009 19:31:32 1.3 C 4.72 g/m*3 1.3 C 0 km/h
939 14-01-2009 19:43:32 1.3 C 4.72 g/m*3 1.3 C 0 km/h
940 14-01-2009 19:55:32 1.3 C 4.72 g/m*3 1.3 C 0 km/h
941 14-01-2009 20:07:32 1.3 C 4.72 g/m*3 1.3 C 0 km/h
942 14-01-2009 20:19:31 1.2 C 4.68 g/m*3 1.2 C 0 km/h
943 14-01-2009 20:31:32 1.2 C 4.68 g/m*3 1.2 C 0 km/h
944 14-01-2009 20:43:33 1.2 C 4.68 g/m*3 1.2 C 0 km/h
945 14-01-2009 20:55:31 1.3 C 4.72 g/m*3 1.3 C 0 km/h
946 14-01-2009 21:07:31 1.2 C 4.68 g/m*3 1.2 C 0 km/h
947 14-01-2009 21:19:31 1.2 C 4.68 g/m*3 1.2 C 0 km/h
948 14-01-2009 21:31:31 1.2 C 4.68 g/m*3 1.2 C 0 km/h
949 14-01-2009 21:43:31 1.1 C 4.65 g/m*3 1.1 C 0 km/h
950 14-01-2009 21:55:31 1.2 C 4.74 g/m*3 1.2 C 0 km/h
Sensor: Nr:Datum:Temp:Abs-Feuchte:Windchill:Wind:
Aussen-T/F 951 14-01-2009 22:07:31 1.1 C 4.7 g/m*3 1.1 C 0 km/h
952 14-01-2009 22:19:30 1.1 C 4.7 g/m*3 1.1 C 0 km/h
953 14-01-2009 22:31:31 1.1 C 4.7 g/m*3 1.1 C 0 km/h
954 14-01-2009 22:43:31 1.1 C 4.7 g/m*3 1.1 C 0 km/h
955 14-01-2009 22:56:31 1.1 C 4.7 g/m*3 1.1 C 0 km/h
956 14-01-2009 23:08:31 1.1 C 4.7 g/m*3 1.1 C 0 km/h
957 14-01-2009 23:20:31 1.1 C 4.76 g/m*3 1.1 C 0 km/h
958 14-01-2009 23:32:31 1.1 C 4.76 g/m*3 1.1 C 0 km/h
959 14-01-2009 23:44:31 1.1 C 4.76 g/m*3 1.1 C 0 km/h
960 14-01-2009 23:56:31 1 C 4.72 g/m*3 1 C 0 km/h
961 15-01-2009 00:08:31 1 C 4.72 g/m*3 1 C 0 km/h
962 15-01-2009 00:20:31 1 C 4.72 g/m*3 1 C 0 km/h
963 15-01-2009 00:32:31 1 C 4.72 g/m*3 1 C 0 km/h
964 15-01-2009 00:44:31 1 C 4.72 g/m*3 1 C 0 km/h
965 15-01-2009 00:56:32 1 C 4.72 g/m*3 1 C 0 km/h
966 15-01-2009 01:08:32 1 C 4.72 g/m*3 1 C 0 km/h
967 15-01-2009 01:20:32 1 C 4.72 g/m*3 1 C 0 km/h
968 15-01-2009 01:32:32 0.9 C 4.69 g/m*3 0.9 C 0 km/h
969 15-01-2009 01:44:32 0.9 C 4.69 g/m*3 0.9 C 0 km/h
970 15-01-2009 01:56:32 1 C 4.72 g/m*3 1 C 0 km/h
971 15-01-2009 02:08:32 0.9 C 4.74 g/m*3 0.9 C 0 km/h
972 15-01-2009 02:20:32 0.9 C 4.74 g/m*3 0.9 C 0 km/h
973 15-01-2009 02:32:32 0.9 C 4.74 g/m*3 0.9 C 0 km/h
974 15-01-2009 02:44:32 0.9 C 4.74 g/m*3 0.9 C 0 km/h
975 15-01-2009 02:56:32 0.9 C 4.74 g/m*3 0.9 C 0 km/h
Sensor: Nr:Datum:Temp:Abs-Feuchte:Windchill:Wind:
Aussen-T/F 976 15-01-2009 03:08:32 0.8 C 4.71 g/m*3 0.8 C 0 km/h
977 15-01-2009 03:20:32 0.8 C 4.71 g/m*3 0.8 C 0 km/h
978 15-01-2009 03:32:32 0.8 C 4.71 g/m*3 0.8 C 0 km/h
979 15-01-2009 03:44:32 0.8 C 4.71 g/m*3 0.8 C 0 km/h
980 15-01-2009 03:56:32 0.8 C 4.71 g/m*3 0.8 C 0 km/h
981 15-01-2009 04:08:32 0.8 C 4.71 g/m*3 0.8 C 0 km/h
982 15-01-2009 04:20:32 0.7 C 4.68 g/m*3 0.7 C 0 km/h
983 15-01-2009 04:32:32 0.7 C 4.63 g/m*3 0.7 C 0 km/h
984 15-01-2009 04:44:32 0.7 C 4.63 g/m*3 0.7 C 0 km/h
985 15-01-2009 04:56:33 0.6 C 4.65 g/m*3 0.6 C 0 km/h
986 15-01-2009 05:08:33 0.6 C 4.65 g/m*3 0.6 C 0 km/h
987 15-01-2009 05:20:33 0.6 C 4.65 g/m*3 0.6 C 0 km/h
988 15-01-2009 05:32:33 0.6 C 4.65 g/m*3 0.6 C 0 km/h
989 15-01-2009 05:44:31 0.6 C 4.65 g/m*3 0.6 C 0 km/h
990 15-01-2009 05:56:31 0.5 C 4.61 g/m*3 0.5 C 0 km/h
991 15-01-2009 06:08:32 0.6 C 4.65 g/m*3 0.6 C 0 km/h
992 15-01-2009 06:20:31 0.6 C 4.65 g/m*3 0.6 C 0 km/h
993 15-01-2009 06:32:31 0.6 C 4.65 g/m*3 0.6 C 0 km/h
994 15-01-2009 06:44:30 0.6 C 4.65 g/m*3 0.6 C 0 km/h
995 15-01-2009 06:56:30 0.6 C 4.65 g/m*3 0.6 C 0 km/h
996 15-01-2009 07:08:31 0.6 C 4.65 g/m*3 0.6 C 0 km/h
997 15-01-2009 07:20:30 0.6 C 4.65 g/m*3 0.6 C 0 km/h
998 15-01-2009 07:32:30 0.6 C 4.65 g/m*3 0.6 C 0 km/h
999 15-01-2009 07:44:30 0.7 C 4.68 g/m*3 0.7 C 0 km/h
1000 15-01-2009 07:56:30 0.7 C 4.68 g/m*3 0.7 C 0 km/h
Sensor: Nr:Datum:Temp:Abs-Feuchte:Windchill:Wind:
Aussen-T/F 1001 15-01-2009 08:08:30 0.6 C 4.65 g/m*3 0.6 C 0 km/h
1002 15-01-2009 08:20:30 0.6 C 4.65 g/m*3 0.6 C 0 km/h
1003 15-01-2009 08:32:30 0.6 C 4.65 g/m*3 0.6 C 0 km/h
1004 15-01-2009 08:44:30 0.7 C 4.68 g/m*3 0.7 C 0 km/h
1005 15-01-2009 08:56:30 0.7 C 4.68 g/m*3 0.7 C 0 km/h
1006 15-01-2009 09:08:29 0.8 C 4.71 g/m*3 0.8 C 0 km/h
1007 15-01-2009 09:20:30 0.9 C 4.74 g/m*3 0.9 C 0 km/h
1008 15-01-2009 09:32:29 1 C 4.78 g/m*3 1 C 0 km/h
1009 15-01-2009 09:44:29 1.1 C 4.81 g/m*3 1.1 C 0 km/h
1010 15-01-2009 09:56:29 1.3 C 4.87 g/m*3 1.3 C 0 km/h
1011 15-01-2009 10:08:29 1.3 C 4.87 g/m*3 1.3 C 0 km/h
1012 15-01-2009 10:20:29 1.4 C 4.85 g/m*3 1.4 C 0 km/h
1013 15-01-2009 10:32:28 1.6 C 4.92 g/m*3 1.6 C 0 km/h
1014 15-01-2009 10:44:29 1.7 C 4.95 g/m*3 1.7 C 0 km/h
1015 15-01-2009 10:56:29 1.8 C 4.93 g/m*3 1.8 C 0 km/h
1016 15-01-2009 11:08:28 1.6 C 4.87 g/m*3 1.6 C 0 km/h
1017 15-01-2009 11:20:28 1.3 C 4.72 g/m*3 1.3 C 0 km/h
1018 15-01-2009 11:32:28 1.2 C 4.68 g/m*3 1.2 C 0 km/h
1019 15-01-2009 11:44:28 1.3 C 4.77 g/m*3 1.3 C 0 km/h
1020 15-01-2009 11:56:28 1.2 C 4.74 g/m*3 1.2 C 0 km/h
1021 15-01-2009 12:08:28 1.2 C 4.74 g/m*3 1.2 C 0 km/h
1022 15-01-2009 12:20:27 1.4 C 4.8 g/m*3 1.4 C 0 km/h
1023 15-01-2009 12:32:28 1.7 C 4.9 g/m*3 1.7 C 0 km/h
1024 15-01-2009 12:44:27 2.1 C 4.98 g/m*3 2.1 C 0 km/h
1025 15-01-2009 12:56:27 2.6 C 5.03 g/m*3 2.6 C 0 km/h
Sensor: Nr:Datum:Temp:Abs-Feuchte:Windchill:Wind:
Aussen-T/F 1026 15-01-2009 13:08:27 3.1 C 5.03 g/m*3 3.1 C 0 km/h
1027 15-01-2009 13:20:27 3.7 C 4.99 g/m*3 3.7 C 0 km/h
1028 15-01-2009 13:32:27 4 C 4.64 g/m*3 4 C 0 km/h
1029 15-01-2009 13:44:26 4.5 C 4.54 g/m*3 4.5 C 0 km/h
1030 15-01-2009 13:56:26 4.8 C 4.43 g/m*3 4.8 C 0 km/h
1031 15-01-2009 14:08:27 5 C 4.08 g/m*3 5 C 0 km/h
1032 15-01-2009 14:20:27 5 C 3.87 g/m*3 5 C 0 km/h
1033 15-01-2009 14:32:26 4.3 C 3.76 g/m*3 4.3 C 0 km/h
1034 15-01-2009 14:44:26 3.5 C 3.69 g/m*3 3.5 C 0 km/h
1035 15-01-2009 14:56:26 3.2 C 3.62 g/m*3 3.2 C 0 km/h
1036 15-01-2009 15:08:26 2.8 C 3.7 g/m*3 2.8 C 0 km/h
1037 15-01-2009 15:20:26 2.6 C 3.7 g/m*3 2.6 C 0 km/h
1038 15-01-2009 15:32:25 2.5 C 3.74 g/m*3 2.5 C 0 km/h
1039 15-01-2009 15:44:26 2.6 C 3.7 g/m*3 2.6 C 0 km/h
1040 15-01-2009 15:56:26 2.6 C 3.65 g/m*3 2.6 C 0 km/h
1041 15-01-2009 16:08:25 2.6 C 3.59 g/m*3 2.6 C 0 km/h
1042 15-01-2009 16:20:25 2.3 C 3.63 g/m*3 2.3 C 0 km/h
1043 15-01-2009 16:32:25 2.1 C 3.64 g/m*3 2.1 C 0 km/h
1044 15-01-2009 16:44:25 2.1 C 3.64 g/m*3 2.1 C 0 km/h
1045 15-01-2009 16:56:25 2 C 3.56 g/m*3 2 C 0 km/h
1046 15-01-2009 17:08:25 1.7 C 3.54 g/m*3 1.7 C 0 km/h
1047 15-01-2009 17:20:24 1.3 C 3.55 g/m*3 1.3 C 0 km/h
1048 15-01-2009 17:32:25 0.9 C 3.66 g/m*3 0.9 C 0 km/h
1049 15-01-2009 17:44:24 0.7 C 3.71 g/m*3 0.7 C 0 km/h
1050 15-01-2009 17:56:24 0.5 C 3.76 g/m*3 0.5 C 0 km/h
Sensor: Nr:Datum:Temp:Abs-Feuchte:Windchill:Wind:
Aussen-T/F 1051 15-01-2009 18:08:24 0.2 C 3.68 g/m*3 0.2 C 0 km/h
1052 15-01-2009 18:20:24 0.1 C 3.76 g/m*3 0.1 C 0 km/h
1053 15-01-2009 18:32:24 -0.2 C 3.68 g/m*3 -0.2 C 0 km/h
1054 15-01-2009 18:44:23 -0.4 C 3.68 g/m*3 -0.4 C 0 km/h
1055 15-01-2009 18:56:23 -0.5 C 3.7 g/m*3 -0.5 C 0 km/h
1056 15-01-2009 19:08:24 -0.7 C 3.69 g/m*3 -0.7 C 0 km/h
1057 15-01-2009 19:20:24 -0.8 C 3.67 g/m*3 -0.8 C 0 km/h
1058 15-01-2009 19:32:23 -1 C 3.66 g/m*3 -1 C 0 km/h
1059 15-01-2009 19:44:23 -0.9 C 3.69 g/m*3 -0.9 C 0 km/h
1060 15-01-2009 19:56:23 -0.6 C 3.81 g/m*3 -0.6 C 0 km/h
1061 15-01-2009 20:08:23 -0.5 C 3.84 g/m*3 -0.5 C 0 km/h
1062 15-01-2009 20:20:23 -0.5 C 3.74 g/m*3 -0.5 C 0 km/h
1063 15-01-2009 20:32:23 -0.7 C 3.69 g/m*3 -0.7 C 0 km/h
1064 15-01-2009 20:44:23 -0.9 C 3.64 g/m*3 -0.9 C 0 km/h
1065 15-01-2009 20:56:23 -1.2 C 3.61 g/m*3 -1.2 C 0 km/h
1066 15-01-2009 21:08:23 -1.3 C 3.59 g/m*3 -1.3 C 0 km/h
1067 15-01-2009 21:20:22 -1.5 C 3.58 g/m*3 -1.5 C 0 km/h
1068 15-01-2009 21:32:22 -1.7 C 3.53 g/m*3 -1.7 C 0 km/h
1069 15-01-2009 21:44:22 -2 C 3.46 g/m*3 -2 C 0 km/h
1070 15-01-2009 21:56:22 -2.1 C 3.47 g/m*3 -2.1 C 0 km/h
1071 15-01-2009 22:08:22 -2.1 C 3.47 g/m*3 -2.1 C 0 km/h
1072 15-01-2009 22:20:22 -2.1 C 3.52 g/m*3 -2.1 C 0 km/h
1073 15-01-2009 22:32:22 -2.3 C 3.47 g/m*3 -2.3 C 0 km/h
1074 15-01-2009 22:44:22 -2.4 C 3.44 g/m*3 -2.4 C 0 km/h
1075 15-01-2009 22:56:22 -2.4 C 3.44 g/m*3 -2.4 C 0 km/h
Sensor: Nr:Datum:Temp:Abs-Feuchte:Windchill:Wind:
Aussen-T/F 1076 15-01-2009 23:08:21 -2.4 C 3.48 g/m*3 -2.4 C 0 km/h
1077 15-01-2009 23:20:21 -2.6 C 3.43 g/m*3 -2.6 C 0 km/h
1078 15-01-2009 23:33:02 -2.7 C 3.45 g/m*3 -2.7 C 0 km/h
1079 15-01-2009 23:45:02 -2.3 C 3.59 g/m*3 -2.3 C 0 km/h
1080 15-01-2009 23:57:02 -1.6 C 3.81 g/m*3 -1.6 C 0 km/h
1081 16-01-2009 00:09:02 -1.3 C 3.94 g/m*3 -1.3 C 0 km/h
1082 16-01-2009 00:21:02 -1.2 C 3.97 g/m*3 -1.2 C 0 km/h
1083 16-01-2009 00:33:02 -1.1 C 3.95 g/m*3 -1.1 C 0 km/h
1084 16-01-2009 00:45:03 -0.9 C 4.01 g/m*3 -0.9 C 0 km/h
1085 16-01-2009 00:57:03 -0.7 C 4.06 g/m*3 -0.7 C 0 km/h
1086 16-01-2009 01:09:03 -0.6 C 4.04 g/m*3 -0.6 C 0 km/h
1087 16-01-2009 01:21:03 -0.5 C 4.07 g/m*3 -0.5 C 0 km/h
1088 16-01-2009 01:33:03 -0.4 C 4.1 g/m*3 -0.4 C 0 km/h
1089 16-01-2009 01:45:03 -0.3 C 4.13 g/m*3 -0.3 C 0 km/h
1090 16-01-2009 01:57:03 -0.3 C 4.13 g/m*3 -0.3 C 0 km/h
1091 16-01-2009 02:09:03 -0.2 C 4.11 g/m*3 -0.2 C 0 km/h
1092 16-01-2009 02:21:03 -0.2 C 4.11 g/m*3 -0.2 C 0 km/h
1093 16-01-2009 02:33:03 0 C 4.17 g/m*3 0 C 0 km/h
1094 16-01-2009 02:45:03 0 C 4.12 g/m*3 0 C 0 km/h
1095 16-01-2009 02:57:03 0 C 4.12 g/m*3 0 C 0 km/h
1096 16-01-2009 03:09:03 0 C 4.12 g/m*3 0 C 0 km/h
1097 16-01-2009 03:21:03 0 C 4.07 g/m*3 0 C 0 km/h
1098 16-01-2009 03:33:03 0.1 C 4.15 g/m*3 0.1 C 0 km/h
1099 16-01-2009 03:45:03 0.1 C 4.1 g/m*3 0.1 C 0 km/h
1100 16-01-2009 03:57:03 0.1 C 4.1 g/m*3 0.1 C 0 km/h
Sensor: Nr:Datum:Temp:Abs-Feuchte:Windchill:Wind:
Aussen-T/F 1101 16-01-2009 04:09:03 0.2 C 4.13 g/m*3 0.2 C 0 km/h
1102 16-01-2009 04:21:03 0.3 C 4.16 g/m*3 0.3 C 0 km/h
1103 16-01-2009 04:33:04 0.3 C 4.06 g/m*3 0.3 C 0 km/h
1104 16-01-2009 04:45:04 0.3 C 4.01 g/m*3 0.3 C 0 km/h
1105 16-01-2009 04:57:04 0.3 C 3.91 g/m*3 0.3 C 0 km/h
1106 16-01-2009 05:09:04 0.3 C 3.91 g/m*3 0.3 C 0 km/h
1107 16-01-2009 05:21:04 0.3 C 3.91 g/m*3 0.3 C 0 km/h
1108 16-01-2009 05:33:04 0.3 C 3.91 g/m*3 0.3 C 0 km/h
1109 16-01-2009 05:45:04 0.3 C 3.91 g/m*3 0.3 C 0 km/h
1110 16-01-2009 05:57:04 0.3 C 3.91 g/m*3 0.3 C 0 km/h
1111 16-01-2009 06:09:04 0.3 C 3.96 g/m*3 0.3 C 0 km/h
1112 16-01-2009 06:21:04 0.3 C 3.96 g/m*3 0.3 C 0 km/h
1113 16-01-2009 06:33:04 0.3 C 3.91 g/m*3 0.3 C 0 km/h
1114 16-01-2009 06:45:04 0.4 C 3.93 g/m*3 0.4 C 0 km/h
1115 16-01-2009 06:57:04 0.4 C 3.93 g/m*3 0.4 C 0 km/h
1116 16-01-2009 07:09:01 0.4 C 3.98 g/m*3 0.4 C 0 km/h
1117 16-01-2009 07:21:01 0.4 C 3.98 g/m*3 0.4 C 0 km/h
1118 16-01-2009 07:33:02 0.5 C 3.96 g/m*3 0.5 C 0 km/h
1119 16-01-2009 07:45:01 0.5 C 3.96 g/m*3 0.5 C 0 km/h
1120 16-01-2009 07:57:01 0.5 C 3.91 g/m*3 0.5 C 0 km/h
1121 16-01-2009 08:09:01 0.5 C 3.91 g/m*3 0.5 C 0 km/h
1122 16-01-2009 08:21:01 0.5 C 3.91 g/m*3 0.5 C 0 km/h
1123 16-01-2009 08:33:01 0.5 C 3.86 g/m*3 0.5 C 0 km/h
1124 16-01-2009 08:45:00 0.5 C 3.86 g/m*3 0.5 C 0 km/h
1125 16-01-2009 08:57:00 0.6 C 3.89 g/m*3 0.6 C 0 km/h
Sensor: Nr:Datum:Temp:Abs-Feuchte:Windchill:Wind:
Aussen-T/F 1126 16-01-2009 09:09:01 0.7 C 3.86 g/m*3 0.7 C 0 km/h
1127 16-01-2009 09:21:00 0.8 C 3.84 g/m*3 0.8 C 0 km/h
1128 16-01-2009 09:33:00 1 C 3.84 g/m*3 1 C 0 km/h
1129 16-01-2009 09:45:00 0.9 C 3.76 g/m*3 0.9 C 0 km/h
1130 16-01-2009 09:57:00 1 C 3.74 g/m*3 1 C 0 km/h
1131 16-01-2009 10:09:00 1.1 C 3.76 g/m*3 1.1 C 0 km/h
1132 16-01-2009 10:21:00 1.3 C 3.76 g/m*3 1.3 C 0 km/h
1133 16-01-2009 10:33:59 1.4 C 3.73 g/m*3 1.4 C 0 km/h
1134 16-01-2009 10:45:00 1.5 C 3.76 g/m*3 1.5 C 0 km/h
1135 16-01-2009 10:57:00 1.8 C 3.73 g/m*3 1.8 C 0 km/h
1136 16-01-2009 11:09:59 2.2 C 3.66 g/m*3 2.2 C 0 km/h
1137 16-01-2009 11:21:59 2.4 C 3.65 g/m*3 2.4 C 0 km/h
1138 16-01-2009 11:33:00 2.2 C 3.6 g/m*3 2.2 C 0 km/h
1139 16-01-2009 11:45:59 2.3 C 3.63 g/m*3 2.3 C 0 km/h
1140 16-01-2009 11:57:59 2.4 C 3.65 g/m*3 2.4 C 0 km/h
1141 16-01-2009 12:09:59 2.2 C 3.6 g/m*3 2.2 C 0 km/h
1142 16-01-2009 12:21:59 2.3 C 3.63 g/m*3 2.3 C 0 km/h
1143 16-01-2009 12:33:59 2.2 C 3.6 g/m*3 2.2 C 0 km/h
1144 16-01-2009 12:45:58 2.2 C 3.6 g/m*3 2.2 C 0 km/h
1145 16-01-2009 12:57:58 2.1 C 3.64 g/m*3 2.1 C 0 km/h
1146 16-01-2009 13:09:59 2.3 C 3.69 g/m*3 2.3 C 0 km/h
1147 16-01-2009 13:21:58 2.3 C 3.69 g/m*3 2.3 C 0 km/h
1148 16-01-2009 13:33:58 2.3 C 3.69 g/m*3 2.3 C 0 km/h
1149 16-01-2009 13:45:57 2.7 C 3.79 g/m*3 2.7 C 0 km/h
1150 16-01-2009 13:57:57 2.8 C 3.7 g/m*3 2.8 C 0 km/h
Sensor: Nr:Datum:Temp:Abs-Feuchte:Windchill:Wind:
Aussen-T/F 1151 16-01-2009 14:09:58 2.6 C 3.65 g/m*3 2.6 C 0 km/h
1152 16-01-2009 14:21:58 2.8 C 3.75 g/m*3 2.8 C 0 km/h
1153 16-01-2009 14:33:57 3.1 C 3.71 g/m*3 3.1 C 0 km/h
1154 16-01-2009 14:45:58 2.9 C 3.72 g/m*3 2.9 C 0 km/h
1155 16-01-2009 14:57:58 2.7 C 3.67 g/m*3 2.7 C 0 km/h
1156 16-01-2009 15:09:57 2.6 C 3.7 g/m*3 2.6 C 0 km/h
1157 16-01-2009 15:21:57 2.5 C 3.74 g/m*3 2.5 C 0 km/h
1158 16-01-2009 15:33:57 2.5 C 3.74 g/m*3 2.5 C 0 km/h
1159 16-01-2009 15:45:57 2.5 C 3.74 g/m*3 2.5 C 0 km/h
1160 16-01-2009 15:57:57 2.3 C 3.74 g/m*3 2.3 C 0 km/h
1161 16-01-2009 16:09:56 2 C 3.67 g/m*3 2 C 0 km/h
1162 16-01-2009 16:21:56 1.7 C 3.7 g/m*3 1.7 C 0 km/h
1163 16-01-2009 16:33:57 1.4 C 3.68 g/m*3 1.4 C 0 km/h
1164 16-01-2009 16:45:56 1.2 C 3.68 g/m*3 1.2 C 0 km/h
1165 16-01-2009 16:57:56 1 C 3.74 g/m*3 1 C 0 km/h
1166 16-01-2009 17:09:56 0.9 C 3.76 g/m*3 0.9 C 0 km/h
1167 16-01-2009 17:21:56 0.6 C 3.74 g/m*3 0.6 C 0 km/h
1168 16-01-2009 17:33:55 0.3 C 3.71 g/m*3 0.3 C 0 km/h
1169 16-01-2009 17:45:56 0.1 C 3.71 g/m*3 0.1 C 0 km/h
1170 16-01-2009 17:57:56 -0.2 C 3.73 g/m*3 -0.2 C 0 km/h
1171 16-01-2009 18:09:55 -0.3 C 3.75 g/m*3 -0.3 C 0 km/h
1172 16-01-2009 18:21:55 -0.5 C 3.74 g/m*3 -0.5 C 0 km/h
1173 16-01-2009 18:33:55 -0.6 C 3.72 g/m*3 -0.6 C 0 km/h
1174 16-01-2009 18:45:55 -0.6 C 3.76 g/m*3 -0.6 C 0 km/h
1175 16-01-2009 18:57:55 -0.6 C 3.81 g/m*3 -0.6 C 0 km/h
Sensor: Nr:Datum:Temp:Abs-Feuchte:Windchill:Wind:
Aussen-T/F 1176 16-01-2009 19:09:55 -0.7 C 3.78 g/m*3 -0.7 C 0 km/h
1177 16-01-2009 19:21:55 -0.7 C 3.78 g/m*3 -0.7 C 0 km/h
1178 16-01-2009 19:33:54 -0.7 C 3.83 g/m*3 -0.7 C 0 km/h
1179 16-01-2009 19:45:55 -0.8 C 3.8 g/m*3 -0.8 C 0 km/h
1180 16-01-2009 19:57:55 -0.7 C 3.83 g/m*3 -0.7 C 0 km/h
1181 16-01-2009 20:09:54 -0.7 C 3.88 g/m*3 -0.7 C 0 km/h
1182 16-01-2009 20:21:54 -0.5 C 3.93 g/m*3 -0.5 C 0 km/h
1183 16-01-2009 20:33:54 -0.4 C 3.96 g/m*3 -0.4 C 0 km/h
1184 16-01-2009 20:45:54 -0.2 C 4.01 g/m*3 -0.2 C 0 km/h
1185 16-01-2009 20:57:54 0 C 4.07 g/m*3 0 C 0 km/h
1186 16-01-2009 21:09:53 0.1 C 4.1 g/m*3 0.1 C 0 km/h
1187 16-01-2009 21:21:53 0.2 C 4.13 g/m*3 0.2 C 0 km/h
1188 16-01-2009 21:33:54 0.2 C 4.08 g/m*3 0.2 C 0 km/h
1189 16-01-2009 21:45:53 0.3 C 4.11 g/m*3 0.3 C 0 km/h
1190 16-01-2009 21:57:53 0.3 C 4.06 g/m*3 0.3 C 0 km/h
1191 16-01-2009 22:09:53 0.5 C 4.11 g/m*3 0.5 C 0 km/h
1192 16-01-2009 22:22:54 0.6 C 4.14 g/m*3 0.6 C 0 km/h
1193 16-01-2009 22:34:54 0.6 C 4.14 g/m*3 0.6 C 0 km/h
1194 16-01-2009 22:46:54 0.6 C 4.09 g/m*3 0.6 C 0 km/h
1195 16-01-2009 22:58:54 0.7 C 4.07 g/m*3 0.7 C 0 km/h
1196 16-01-2009 23:10:54 0.7 C 4.07 g/m*3 0.7 C 0 km/h
1197 16-01-2009 23:22:54 0.7 C 4.07 g/m*3 0.7 C 0 km/h
1198 16-01-2009 23:34:54 0.8 C 4.1 g/m*3 0.8 C 0 km/h
1199 16-01-2009 23:46:54 0.7 C 4.02 g/m*3 0.7 C 0 km/h
1200 16-01-2009 23:58:54 0.8 C 4.04 g/m*3 0.8 C 0 km/h
Sensor: Nr:Datum:Temp:Abs-Feuchte:Windchill:Wind:
Aussen-T/F 1201 17-01-2009 00:10:54 0.8 C 4.04 g/m*3 0.8 C 0 km/h
1202 17-01-2009 00:22:55 0.7 C 4.02 g/m*3 0.7 C 0 km/h
1203 17-01-2009 00:34:55 0.8 C 4.04 g/m*3 0.8 C 0 km/h
1204 17-01-2009 00:46:55 0.8 C 4.1 g/m*3 0.8 C 0 km/h
1205 17-01-2009 00:58:55 0.8 C 4.1 g/m*3 0.8 C 0 km/h
1206 17-01-2009 01:10:55 0.8 C 4.1 g/m*3 0.8 C 0 km/h
1207 17-01-2009 01:22:55 0.9 C 4.12 g/m*3 0.9 C 0 km/h
1208 17-01-2009 01:34:55 0.9 C 4.12 g/m*3 0.9 C 0 km/h
1209 17-01-2009 01:46:55 0.7 C 4.07 g/m*3 0.7 C 0 km/h
1210 17-01-2009 01:58:55 0.6 C 4.04 g/m*3 0.6 C 0 km/h
1211 17-01-2009 02:10:55 0.6 C 4.09 g/m*3 0.6 C 0 km/h
1212 17-01-2009 02:22:55 0.5 C 4.11 g/m*3 0.5 C 0 km/h
1213 17-01-2009 02:34:55 0.6 C 4.19 g/m*3 0.6 C 0 km/h
1214 17-01-2009 02:46:55 0.6 C 4.19 g/m*3 0.6 C 0 km/h
1215 17-01-2009 02:58:55 0.6 C 4.24 g/m*3 0.6 C 0 km/h
1216 17-01-2009 03:10:55 0.7 C 4.27 g/m*3 0.7 C 0 km/h
1217 17-01-2009 03:22:55 0.7 C 4.32 g/m*3 0.7 C 0 km/h
1218 17-01-2009 03:34:55 0.6 C 4.29 g/m*3 0.6 C 0 km/h
1219 17-01-2009 03:46:55 0.6 C 4.34 g/m*3 0.6 C 0 km/h
1220 17-01-2009 03:58:55 0.6 C 4.39 g/m*3 0.6 C 0 km/h
1221 17-01-2009 04:10:56 0.7 C 4.42 g/m*3 0.7 C 0 km/h
1222 17-01-2009 04:22:56 0.7 C 4.42 g/m*3 0.7 C 0 km/h
1223 17-01-2009 04:34:56 0.8 C 4.51 g/m*3 0.8 C 0 km/h
1224 17-01-2009 04:46:56 0.8 C 4.51 g/m*3 0.8 C 0 km/h
1225 17-01-2009 04:58:56 0.8 C 4.51 g/m*3 0.8 C 0 km/h
Sensor: Nr:Datum:Temp:Abs-Feuchte:Windchill:Wind:
Aussen-T/F 1226 17-01-2009 05:10:56 0.8 C 4.51 g/m*3 0.8 C 0 km/h
1227 17-01-2009 05:22:56 0.8 C 4.51 g/m*3 0.8 C 0 km/h
1228 17-01-2009 05:34:56 0.9 C 4.54 g/m*3 0.9 C 0 km/h
1229 17-01-2009 05:46:56 0.9 C 4.59 g/m*3 0.9 C 0 km/h
1230 17-01-2009 05:58:56 0.9 C 4.59 g/m*3 0.9 C 0 km/h
1231 17-01-2009 06:10:56 1 C 4.62 g/m*3 1 C 0 km/h
1232 17-01-2009 06:22:56 1 C 4.62 g/m*3 1 C 0 km/h
1233 17-01-2009 06:34:56 1.1 C 4.65 g/m*3 1.1 C 0 km/h
1234 17-01-2009 06:46:56 1.2 C 4.68 g/m*3 1.2 C 0 km/h
1235 17-01-2009 06:58:56 1.2 C 4.68 g/m*3 1.2 C 0 km/h
1236 17-01-2009 07:10:56 1.2 C 4.68 g/m*3 1.2 C 0 km/h
1237 17-01-2009 07:22:56 1.2 C 4.74 g/m*3 1.2 C 0 km/h
1238 17-01-2009 07:34:56 1.3 C 4.77 g/m*3 1.3 C 0 km/h
1239 17-01-2009 07:46:56 1.3 C 4.77 g/m*3 1.3 C 0 km/h
1240 17-01-2009 07:58:57 1.2 C 4.74 g/m*3 1.2 C 0 km/h
1241 17-01-2009 08:10:57 1.2 C 4.74 g/m*3 1.2 C 0 km/h
1242 17-01-2009 08:22:57 1.2 C 4.74 g/m*3 1.2 C 0 km/h
1243 17-01-2009 08:34:55 1.3 C 4.77 g/m*3 1.3 C 0 km/h
1244 17-01-2009 08:46:55 1.4 C 4.8 g/m*3 1.4 C 0 km/h
1245 17-01-2009 08:58:55 1.4 C 4.8 g/m*3 1.4 C 0 km/h
1246 17-01-2009 09:10:54 1.6 C 4.87 g/m*3 1.6 C 0 km/h
1247 17-01-2009 09:22:54 1.7 C 4.85 g/m*3 1.7 C 0 km/h
1248 17-01-2009 09:34:54 1.8 C 4.88 g/m*3 1.8 C 0 km/h
1249 17-01-2009 09:46:54 1.9 C 4.91 g/m*3 1.9 C 0 km/h
1250 17-01-2009 09:58:54 2 C 4.89 g/m*3 2 C 0 km/h
Sensor: Nr:Datum:Temp:Abs-Feuchte:Windchill:Wind:
Aussen-T/F 1251 17-01-2009 10:10:54 2.1 C 4.87 g/m*3 2.1 C 0 km/h
1252 17-01-2009 10:22:53 2.1 C 4.87 g/m*3 2.1 C 0 km/h
1253 17-01-2009 10:34:54 2.2 C 4.9 g/m*3 2.2 C 0 km/h
1254 17-01-2009 10:46:53 2.3 C 4.93 g/m*3 2.3 C 0 km/h
1255 17-01-2009 10:58:53 2.5 C 5 g/m*3 2.5 C 0 km/h
1256 17-01-2009 11:10:53 2.7 C 5.01 g/m*3 2.7 C 0 km/h
1257 17-01-2009 11:22:53 2.9 C 5.08 g/m*3 2.9 C 0 km/h
1258 17-01-2009 11:34:53 3.1 C 5.09 g/m*3 3.1 C 0 km/h
1259 17-01-2009 11:46:52 3 C 4.99 g/m*3 3 C 0 km/h
1260 17-01-2009 11:58:52 3 C 4.99 g/m*3 3 C 0 km/h
1261 17-01-2009 12:10:53 3.1 C 5.03 g/m*3 3.1 C 0 km/h
1262 17-01-2009 12:22:53 3 C 4.93 g/m*3 3 C 0 km/h
1263 17-01-2009 12:34:52 3.2 C 4.94 g/m*3 3.2 C 0 km/h
1264 17-01-2009 12:46:52 3.3 C 4.97 g/m*3 3.3 C 0 km/h
1265 17-01-2009 12:58:52 3.5 C 4.98 g/m*3 3.5 C 0 km/h
1266 17-01-2009 13:10:52 3.5 C 4.92 g/m*3 3.5 C 0 km/h
1267 17-01-2009 13:22:52 3.8 C 5.08 g/m*3 3.8 C 0 km/h
1268 17-01-2009 13:34:51 3.8 C 5.02 g/m*3 3.8 C 0 km/h
1269 17-01-2009 13:46:52 3.9 C 5.05 g/m*3 3.9 C 0 km/h
1270 17-01-2009 13:58:52 4.2 C 5.15 g/m*3 4.2 C 0 km/h
1271 17-01-2009 14:10:51 4.2 C 5.09 g/m*3 4.2 C 0 km/h
1272 17-01-2009 14:22:51 4.1 C 4.99 g/m*3 4.1 C 0 km/h
1273 17-01-2009 14:34:51 4.1 C 5.06 g/m*3 4.1 C 0 km/h
1274 17-01-2009 14:46:51 4.1 C 5.06 g/m*3 4.1 C 0 km/h
1275 17-01-2009 14:58:51 3.9 C 5.12 g/m*3 3.9 C 0 km/h
Sensor: Nr:Datum:Temp:Abs-Feuchte:Windchill:Wind:
Aussen-T/F 1276 17-01-2009 15:10:51 4.1 C 5.18 g/m*3 4.1 C 0 km/h
1277 17-01-2009 15:22:50 4.2 C 5.28 g/m*3 4.2 C 0 km/h
1278 17-01-2009 15:34:51 4.3 C 5.32 g/m*3 4.3 C 0 km/h
1279 17-01-2009 15:46:50 4.4 C 5.42 g/m*3 4.4 C 0 km/h
1280 17-01-2009 15:58:50 4.4 C 5.42 g/m*3 4.4 C 0 km/h
1281 17-01-2009 16:10:51 4.4 C 5.35 g/m*3 4.4 C 0 km/h
1282 17-01-2009 16:22:50 4.4 C 5.42 g/m*3 4.4 C 0 km/h
1283 17-01-2009 16:34:50 4.6 C 5.49 g/m*3 4.6 C 0 km/h
1284 17-01-2009 16:46:50 5.1 C 5.61 g/m*3 5.1 C 0 km/h
1285 17-01-2009 16:58:50 5.2 C 5.51 g/m*3 5.2 C 0 km/h
1286 17-01-2009 17:10:50 5.1 C 5.47 g/m*3 5.1 C 0 km/h
1287 17-01-2009 17:22:49 5 C 5.5 g/m*3 5 C 0 km/h
1288 17-01-2009 17:34:49 5 C 5.5 g/m*3 5 C 0 km/h
1289 17-01-2009 17:46:49 5 C 5.5 g/m*3 5 C 0 km/h
1290 17-01-2009 17:58:49 5 C 5.57 g/m*3 5 C 0 km/h
1291 17-01-2009 18:10:49 5 C 5.5 g/m*3 5 C 0 km/h
1292 17-01-2009 18:22:49 5 C 5.44 g/m*3 5 C 0 km/h
1293 17-01-2009 18:34:49 5.1 C 5.47 g/m*3 5.1 C 0 km/h
1294 17-01-2009 18:46:49 5.2 C 5.44 g/m*3 5.2 C 0 km/h
1295 17-01-2009 18:58:49 5.1 C 5.34 g/m*3 5.1 C 0 km/h
1296 17-01-2009 19:10:48 5.2 C 5.44 g/m*3 5.2 C 0 km/h
1297 17-01-2009 19:22:49 5.2 C 5.37 g/m*3 5.2 C 0 km/h
1298 17-01-2009 19:34:48 5.2 C 5.37 g/m*3 5.2 C 0 km/h
1299 17-01-2009 19:46:48 5.1 C 5.27 g/m*3 5.1 C 0 km/h
1300 17-01-2009 19:58:49 5.1 C 5.34 g/m*3 5.1 C 0 km/h
Sensor: Nr:Datum:Temp:Abs-Feuchte:Windchill:Wind:
Aussen-T/F 1301 17-01-2009 20:10:48 5.5 C 5.41 g/m*3 5.5 C 0 km/h
1302 17-01-2009 20:22:48 5.6 C 5.37 g/m*3 5.6 C 0 km/h
1303 17-01-2009 20:34:48 5.7 C 5.34 g/m*3 5.7 C 0 km/h
1304 17-01-2009 20:46:48 5.6 C 5.3 g/m*3 5.6 C 0 km/h
1305 17-01-2009 20:58:48 5.4 C 5.23 g/m*3 5.4 C 0 km/h
1306 17-01-2009 21:10:47 5.4 C 5.23 g/m*3 5.4 C 0 km/h
1307 17-01-2009 21:22:48 5.3 C 5.27 g/m*3 5.3 C 0 km/h
1308 17-01-2009 21:34:47 5 C 5.16 g/m*3 5 C 0 km/h
1309 17-01-2009 21:46:47 5.3 C 5.27 g/m*3 5.3 C 0 km/h
1310 17-01-2009 21:58:47 5.7 C 5.34 g/m*3 5.7 C 0 km/h
1311 17-01-2009 22:10:47 5.6 C 5.16 g/m*3 5.6 C 0 km/h
1312 17-01-2009 22:22:47 5.7 C 5.19 g/m*3 5.7 C 0 km/h
1313 17-01-2009 22:34:46 5.6 C 5.16 g/m*3 5.6 C 0 km/h
1314 17-01-2009 22:47:47 5.4 C 5.09 g/m*3 5.4 C 0 km/h
1315 17-01-2009 22:59:47 5.2 C 5.1 g/m*3 5.2 C 0 km/h
1316 17-01-2009 23:11:47 5 C 5.1 g/m*3 5 C 0 km/h
1317 17-01-2009 23:23:47 4.8 C 5.16 g/m*3 4.8 C 0 km/h
1318 17-01-2009 23:35:47 4.6 C 5.16 g/m*3 4.6 C 0 km/h
1319 17-01-2009 23:47:47 4.4 C 5.09 g/m*3 4.4 C 0 km/h
1320 17-01-2009 23:59:47 4.4 C 5.22 g/m*3 4.4 C 0 km/h
1321 18-01-2009 00:11:47 4.1 C 5.12 g/m*3 4.1 C 0 km/h
1322 18-01-2009 00:23:47 3.7 C 5.05 g/m*3 3.7 C 0 km/h
1323 18-01-2009 00:35:47 3.9 C 5.18 g/m*3 3.9 C 0 km/h
1324 18-01-2009 00:47:47 3.9 C 5.12 g/m*3 3.9 C 0 km/h
1325 18-01-2009 00:59:47 4.2 C 5.09 g/m*3 4.2 C 0 km/h
Sensor: Nr:Datum:Temp:Abs-Feuchte:Windchill:Wind:
Aussen-T/F 1326 18-01-2009 01:11:47 4.1 C 4.99 g/m*3 4.1 C 0 km/h
1327 18-01-2009 01:23:47 3.9 C 5.05 g/m*3 3.9 C 0 km/h
1328 18-01-2009 01:35:47 3.8 C 5.02 g/m*3 3.8 C 0 km/h
1329 18-01-2009 01:47:47 3.8 C 5.02 g/m*3 3.8 C 0 km/h
1330 18-01-2009 01:59:47 4 C 5.15 g/m*3 4 C 0 km/h
1331 18-01-2009 02:11:47 4.3 C 5.25 g/m*3 4.3 C 0 km/h
1332 18-01-2009 02:23:48 4.6 C 5.36 g/m*3 4.6 C 0 km/h
1333 18-01-2009 02:35:48 4.6 C 5.29 g/m*3 4.6 C 0 km/h
1334 18-01-2009 02:47:48 4.5 C 5.19 g/m*3 4.5 C 0 km/h
1335 18-01-2009 02:59:48 4.3 C 5.12 g/m*3 4.3 C 0 km/h
1336 18-01-2009 03:11:48 4.2 C 5.09 g/m*3 4.2 C 0 km/h
1337 18-01-2009 03:23:48 4.1 C 5.06 g/m*3 4.1 C 0 km/h
1338 18-01-2009 03:35:48 4.2 C 5.09 g/m*3 4.2 C 0 km/h
1339 18-01-2009 03:47:48 4.3 C 5.19 g/m*3 4.3 C 0 km/h
1340 18-01-2009 03:59:48 4.3 C 5.19 g/m*3 4.3 C 0 km/h
1341 18-01-2009 04:11:48 4.4 C 5.22 g/m*3 4.4 C 0 km/h
1342 18-01-2009 04:23:48 4.4 C 5.29 g/m*3 4.4 C 0 km/h
1343 18-01-2009 04:35:48 4.6 C 5.36 g/m*3 4.6 C 0 km/h
1344 18-01-2009 04:47:48 4.8 C 5.36 g/m*3 4.8 C 0 km/h
1345 18-01-2009 04:59:48 4.6 C 5.23 g/m*3 4.6 C 0 km/h
1346 18-01-2009 05:11:48 4.4 C 5.16 g/m*3 4.4 C 0 km/h
1347 18-01-2009 05:23:48 4.5 C 5.26 g/m*3 4.5 C 0 km/h
1348 18-01-2009 05:35:48 4.4 C 5.16 g/m*3 4.4 C 0 km/h
1349 18-01-2009 05:47:48 4.3 C 5.12 g/m*3 4.3 C 0 km/h
1350 18-01-2009 05:59:48 4.3 C 5.12 g/m*3 4.3 C 0 km/h
Sensor: Nr:Datum:Temp:Abs-Feuchte:Windchill:Wind:
Aussen-T/F 1351 18-01-2009 06:11:49 4.5 C 5.19 g/m*3 4.5 C 0 km/h
1352 18-01-2009 06:23:49 4.5 C 5.06 g/m*3 4.5 C 0 km/h
1353 18-01-2009 06:35:49 4.5 C 5 g/m*3 4.5 C 0 km/h
1354 18-01-2009 06:47:49 4.5 C 5 g/m*3 4.5 C 0 km/h
1355 18-01-2009 06:59:49 4.4 C 4.9 g/m*3 4.4 C 0 km/h
1356 18-01-2009 07:11:49 4.5 C 4.93 g/m*3 4.5 C 0 km/h
1357 18-01-2009 07:23:49 4.5 C 4.86 g/m*3 4.5 C 0 km/h
1358 18-01-2009 07:35:49 4.5 C 4.86 g/m*3 4.5 C 0 km/h
1359 18-01-2009 07:47:49 4.7 C 4.93 g/m*3 4.7 C 0 km/h
1360 18-01-2009 07:59:49 4.5 C 4.86 g/m*3 4.5 C 0 km/h
1361 18-01-2009 08:11:49 4.5 C 5 g/m*3 4.5 C 0 km/h
1362 18-01-2009 08:23:49 4.5 C 5 g/m*3 4.5 C 0 km/h
1363 18-01-2009 08:35:49 4.5 C 5.13 g/m*3 4.5 C 0 km/h
1364 18-01-2009 08:47:49 4.4 C 5.16 g/m*3 4.4 C 0 km/h
1365 18-01-2009 08:59:49 4.5 C 5.32 g/m*3 4.5 C 0 km/h
1366 18-01-2009 09:11:47 4.4 C 5.42 g/m*3 4.4 C 0 km/h
1367 18-01-2009 09:23:47 4.3 C 5.51 g/m*3 4.3 C 0 km/h
1368 18-01-2009 09:35:46 4.3 C 5.64 g/m*3 4.3 C 0 km/h
1369 18-01-2009 09:47:47 4.1 C 5.57 g/m*3 4.1 C 0 km/h
1370 18-01-2009 09:59:47 3.9 C 5.62 g/m*3 3.9 C 0 km/h
1371 18-01-2009 10:11:46 3.5 C 5.47 g/m*3 3.5 C 0 km/h
1372 18-01-2009 10:23:46 3.3 C 5.4 g/m*3 3.3 C 0 km/h
1373 18-01-2009 10:35:46 3.4 C 5.44 g/m*3 3.4 C 0 km/h
1374 18-01-2009 10:47:46 3.6 C 5.57 g/m*3 3.6 C 0 km/h
1375 18-01-2009 10:59:46 3.9 C 5.68 g/m*3 3.9 C 0 km/h
Sensor: Nr:Datum:Temp:Abs-Feuchte:Windchill:Wind:
Aussen-T/F 1376 18-01-2009 11:11:46 4 C 5.59 g/m*3 4 C 0 km/h
1377 18-01-2009 11:23:46 4.2 C 5.54 g/m*3 4.2 C 0 km/h
1378 18-01-2009 11:35:46 4.5 C 5.52 g/m*3 4.5 C 0 km/h
1379 18-01-2009 11:47:45 4.5 C 5.39 g/m*3 4.5 C 0 km/h
1380 18-01-2009 11:59:45 4.5 C 5.46 g/m*3 4.5 C 0 km/h
1381 18-01-2009 12:11:46 4.7 C 5.6 g/m*3 4.7 C 0 km/h
1382 18-01-2009 12:23:45 5 C 5.64 g/m*3 5 C 0 km/h
1383 18-01-2009 12:35:45 5.3 C 5.68 g/m*3 5.3 C 0 km/h
1384 18-01-2009 12:47:44 5.8 C 5.66 g/m*3 5.8 C 0 km/h
1385 18-01-2009 12:59:44 6.2 C 5.52 g/m*3 6.2 C 0 km/h
1386 18-01-2009 13:11:45 6.2 C 5.52 g/m*3 6.2 C 0 km/h
1387 18-01-2009 13:23:44 6.2 C 5.44 g/m*3 6.2 C 0 km/h
1388 18-01-2009 13:35:44 6.3 C 5.48 g/m*3 6.3 C 0 km/h
1389 18-01-2009 13:47:44 6.4 C 5.44 g/m*3 6.4 C 0 km/h
1390 18-01-2009 13:59:44 6.4 C 5.44 g/m*3 6.4 C 0 km/h
1391 18-01-2009 14:11:44 6.2 C 5.37 g/m*3 6.2 C 0 km/h
1392 18-01-2009 14:23:43 6.2 C 5.37 g/m*3 6.2 C 0 km/h
1393 18-01-2009 14:35:44 6.2 C 5.29 g/m*3 6.2 C 0 km/h
1394 18-01-2009 14:47:44 6.2 C 5.15 g/m*3 6.2 C 0 km/h
1395 18-01-2009 14:59:44 6.1 C 5.11 g/m*3 6.1 C 0 km/h
1396 18-01-2009 15:11:43 6.2 C 5.15 g/m*3 6.2 C 0 km/h
1397 18-01-2009 15:23:44 6.6 C 5.13 g/m*3 6.6 C 0 km/h
1398 18-01-2009 15:35:43 6.5 C 5.1 g/m*3 6.5 C 0 km/h
1399 18-01-2009 15:47:43 6.2 C 5.15 g/m*3 6.2 C 0 km/h
1400 18-01-2009 15:59:43 6 C 5.23 g/m*3 6 C 0 km/h
Sensor: Nr:Datum:Temp:Abs-Feuchte:Windchill:Wind:
Aussen-T/F 1401 18-01-2009 16:11:43 5.7 C 5.34 g/m*3 5.7 C 0 km/h
1402 18-01-2009 16:23:43 5.6 C 5.3 g/m*3 5.6 C 0 km/h
1403 18-01-2009 16:35:43 5.4 C 5.16 g/m*3 5.4 C 0 km/h
1404 18-01-2009 16:47:42 5.4 C 5.16 g/m*3 5.4 C 0 km/h
1405 18-01-2009 16:59:42 5.2 C 5.1 g/m*3 5.2 C 0 km/h
1406 18-01-2009 17:11:43 5.3 C 4.99 g/m*3 5.3 C 0 km/h
1407 18-01-2009 17:23:42 5.4 C 4.95 g/m*3 5.4 C 0 km/h
1408 18-01-2009 17:35:42 5.3 C 4.92 g/m*3 5.3 C 0 km/h
1409 18-01-2009 17:47:42 4.6 C 5.1 g/m*3 4.6 C 0 km/h
1410 18-01-2009 17:59:42 4.4 C 5.16 g/m*3 4.4 C 0 km/h
1411 18-01-2009 18:11:42 4.3 C 5.19 g/m*3 4.3 C 0 km/h
1412 18-01-2009 18:23:41 4.3 C 5.12 g/m*3 4.3 C 0 km/h
1413 18-01-2009 18:35:41 4.3 C 4.99 g/m*3 4.3 C 0 km/h
1414 18-01-2009 18:47:41 4.4 C 5.03 g/m*3 4.4 C 0 km/h
1415 18-01-2009 18:59:41 4.5 C 4.93 g/m*3 4.5 C 0 km/h
1416 18-01-2009 19:11:41 4.4 C 4.77 g/m*3 4.4 C 0 km/h
1417 18-01-2009 19:23:41 4.4 C 4.77 g/m*3 4.4 C 0 km/h
1418 18-01-2009 19:35:41 4.2 C 4.7 g/m*3 4.2 C 0 km/h
1419 18-01-2009 19:47:41 4.3 C 4.67 g/m*3 4.3 C 0 km/h
1420 18-01-2009 19:59:41 4.2 C 4.64 g/m*3 4.2 C 0 km/h
1421 18-01-2009 20:11:40 4 C 4.58 g/m*3 4 C 0 km/h
1422 18-01-2009 20:23:41 3.9 C 4.67 g/m*3 3.9 C 0 km/h
1423 18-01-2009 20:35:40 3.8 C 4.64 g/m*3 3.8 C 0 km/h
1424 18-01-2009 20:47:40 3.8 C 4.71 g/m*3 3.8 C 0 km/h
1425 18-01-2009 20:59:41 3.6 C 4.58 g/m*3 3.6 C 0 km/h
Sensor: Nr:Datum:Temp:Abs-Feuchte:Windchill:Wind:
Aussen-T/F 1426 18-01-2009 21:11:40 3.3 C 4.55 g/m*3 3.3 C 0 km/h
1427 18-01-2009 21:23:40 3.4 C 4.58 g/m*3 3.4 C 0 km/h
1428 18-01-2009 21:35:40 3.5 C 4.61 g/m*3 3.5 C 0 km/h
1429 18-01-2009 21:47:39 3.8 C 4.64 g/m*3 3.8 C 0 km/h
1430 18-01-2009 21:59:39 3.9 C 4.61 g/m*3 3.9 C 0 km/h
1431 18-01-2009 22:11:40 3.4 C 4.46 g/m*3 3.4 C 0 km/h
1432 18-01-2009 22:23:39 3.3 C 4.55 g/m*3 3.3 C 0 km/h
1433 18-01-2009 22:35:39 3 C 4.52 g/m*3 3 C 0 km/h
1434 18-01-2009 22:48:01 2.9 C 4.55 g/m*3 2.9 C 0 km/h
1435 18-01-2009 23:00:01 2.9 C 4.55 g/m*3 2.9 C 0 km/h
1436 18-01-2009 23:12:01 3.1 C 4.55 g/m*3 3.1 C 0 km/h
1437 18-01-2009 23:24:01 3.2 C 4.58 g/m*3 3.2 C 0 km/h
1438 18-01-2009 23:36:01 3.1 C 4.55 g/m*3 3.1 C 0 km/h
1439 18-01-2009 23:48:01 2.8 C 4.52 g/m*3 2.8 C 0 km/h
1440 19-01-2009 00:00:01 2.4 C 4.45 g/m*3 2.4 C 0 km/h
1441 19-01-2009 00:12:01 2.6 C 4.57 g/m*3 2.6 C 0 km/h
1442 19-01-2009 00:24:02 2.6 C 4.51 g/m*3 2.6 C 0 km/h
1443 19-01-2009 00:36:02 3 C 4.52 g/m*3 3 C 0 km/h
1444 19-01-2009 00:48:02 3.1 C 4.43 g/m*3 3.1 C 0 km/h
1445 19-01-2009 01:00:02 3.3 C 4.43 g/m*3 3.3 C 0 km/h
1446 19-01-2009 01:12:02 3.4 C 4.4 g/m*3 3.4 C 0 km/h
1447 19-01-2009 01:24:02 3.3 C 4.37 g/m*3 3.3 C 0 km/h
1448 19-01-2009 01:36:02 3.4 C 4.34 g/m*3 3.4 C 0 km/h
1449 19-01-2009 01:48:02 3.6 C 4.27 g/m*3 3.6 C 0 km/h
1450 19-01-2009 02:00:02 3.4 C 4.21 g/m*3 3.4 C 0 km/h
Sensor: Nr:Datum:Temp:Abs-Feuchte:Windchill:Wind:
Aussen-T/F 1451 19-01-2009 02:12:02 3.4 C 4.28 g/m*3 3.4 C 0 km/h
1452 19-01-2009 02:24:02 3.6 C 4.27 g/m*3 3.6 C 0 km/h
1453 19-01-2009 02:36:02 3.5 C 4.24 g/m*3 3.5 C 0 km/h
1454 19-01-2009 02:48:02 3.4 C 4.21 g/m*3 3.4 C 0 km/h
1455 19-01-2009 03:00:02 3.3 C 4.31 g/m*3 3.3 C 0 km/h
1456 19-01-2009 03:12:02 3.2 C 4.34 g/m*3 3.2 C 0 km/h
1457 19-01-2009 03:24:02 3.2 C 4.4 g/m*3 3.2 C 0 km/h
1458 19-01-2009 03:36:02 3.3 C 4.49 g/m*3 3.3 C 0 km/h
1459 19-01-2009 03:48:02 3.4 C 4.52 g/m*3 3.4 C 0 km/h
1460 19-01-2009 04:00:02 3.4 C 4.52 g/m*3 3.4 C 0 km/h
1461 19-01-2009 04:12:03 3.4 C 4.46 g/m*3 3.4 C 0 km/h
1462 19-01-2009 04:24:03 3.4 C 4.46 g/m*3 3.4 C 0 km/h
1463 19-01-2009 04:36:03 3.3 C 4.43 g/m*3 3.3 C 0 km/h
1464 19-01-2009 04:48:03 3.4 C 4.46 g/m*3 3.4 C 0 km/h
1465 19-01-2009 05:00:03 3.5 C 4.49 g/m*3 3.5 C 0 km/h
1466 19-01-2009 05:12:03 3.5 C 4.49 g/m*3 3.5 C 0 km/h
1467 19-01-2009 05:24:03 3.5 C 4.55 g/m*3 3.5 C 0 km/h
1468 19-01-2009 05:36:03 3.5 C 4.49 g/m*3 3.5 C 0 km/h
1469 19-01-2009 05:48:03 3.4 C 4.46 g/m*3 3.4 C 0 km/h
1470 19-01-2009 06:00:03 3.2 C 4.46 g/m*3 3.2 C 0 km/h
1471 19-01-2009 06:12:03 2.8 C 4.4 g/m*3 2.8 C 0 km/h
1472 19-01-2009 06:24:03 2.7 C 4.49 g/m*3 2.7 C 0 km/h
1473 19-01-2009 06:36:03 2.6 C 4.46 g/m*3 2.6 C 0 km/h
1474 19-01-2009 06:48:03 2.7 C 4.54 g/m*3 2.7 C 0 km/h
1475 19-01-2009 07:00:03 2.9 C 4.67 g/m*3 2.9 C 0 km/h
Sensor: Nr:Datum:Temp:Abs-Feuchte:Windchill:Wind:
Aussen-T/F 1476 19-01-2009 07:12:03 2.8 C 4.63 g/m*3 2.8 C 0 km/h
1477 19-01-2009 07:24:03 2.8 C 4.69 g/m*3 2.8 C 0 km/h
1478 19-01-2009 07:36:03 2.9 C 4.78 g/m*3 2.9 C 0 km/h
1479 19-01-2009 07:48:03 3.2 C 4.88 g/m*3 3.2 C 0 km/h
1480 19-01-2009 08:00:03 3.2 C 4.82 g/m*3 3.2 C 0 km/h
1481 19-01-2009 08:12:01 3.4 C 4.95 g/m*3 3.4 C 0 km/h
1482 19-01-2009 08:24:01 3.4 C 4.89 g/m*3 3.4 C 0 km/h
1483 19-01-2009 08:36:00 3.5 C 4.98 g/m*3 3.5 C 0 km/h
1484 19-01-2009 08:48:01 3.7 C 4.99 g/m*3 3.7 C 0 km/h
1485 19-01-2009 09:00:01 3.9 C 4.99 g/m*3 3.9 C 0 km/h
1486 19-01-2009 09:12:01 3.9 C 4.99 g/m*3 3.9 C 0 km/h
1487 19-01-2009 09:24:01 4 C 4.9 g/m*3 4 C 0 km/h
1488 19-01-2009 09:36:00 3.8 C 4.96 g/m*3 3.8 C 0 km/h
1489 19-01-2009 09:48:00 3.6 C 5.01 g/m*3 3.6 C 0 km/h
1490 19-01-2009 10:00:00 3.6 C 5.14 g/m*3 3.6 C 0 km/h
1491 19-01-2009 10:12:00 3.4 C 5.13 g/m*3 3.4 C 0 km/h
1492 19-01-2009 10:24:00 3.3 C 5.22 g/m*3 3.3 C 0 km/h
1493 19-01-2009 10:36:59 3.3 C 5.22 g/m*3 3.3 C 0 km/h
1494 19-01-2009 10:48:00 3.3 C 5.28 g/m*3 3.3 C 0 km/h
1495 19-01-2009 11:00:01 3.3 C 5.28 g/m*3 3.3 C 0 km/h
1496 19-01-2009 11:12:59 3.3 C 5.28 g/m*3 3.3 C 0 km/h
1497 19-01-2009 11:24:59 3.4 C 5.31 g/m*3 3.4 C 0 km/h
1498 19-01-2009 11:36:00 3.4 C 5.31 g/m*3 3.4 C 0 km/h
1499 19-01-2009 11:48:59 3.5 C 5.35 g/m*3 3.5 C 0 km/h
1500 19-01-2009 12:00:59 3.6 C 5.39 g/m*3 3.6 C 0 km/h
Sensor: Nr:Datum:Temp:Abs-Feuchte:Windchill:Wind:
Aussen-T/F 1501 19-01-2009 12:12:59 3.6 C 5.45 g/m*3 3.6 C 0 km/h
1502 19-01-2009 12:24:59 3.7 C 5.48 g/m*3 3.7 C 0 km/h
1503 19-01-2009 12:36:59 4.2 C 5.67 g/m*3 4.2 C 0 km/h
1504 19-01-2009 12:48:58 4.5 C 5.78 g/m*3 4.5 C 0 km/h
1505 19-01-2009 13:00:58 4.5 C 5.72 g/m*3 4.5 C 0 km/h
1506 19-01-2009 13:12:59 4.5 C 5.72 g/m*3 4.5 C 0 km/h
1507 19-01-2009 13:24:58 4.5 C 5.72 g/m*3 4.5 C 0 km/h
1508 19-01-2009 13:36:58 4.7 C 5.86 g/m*3 4.7 C 0 km/h
1509 19-01-2009 13:48:57 5.2 C 6.06 g/m*3 5.2 C 0 km/h
1510 19-01-2009 14:00:58 5.5 C 6.18 g/m*3 5.5 C 0 km/h
1511 19-01-2009 14:12:58 5.8 C 6.3 g/m*3 5.8 C 0 km/h
1512 19-01-2009 14:24:58 6.2 C 6.47 g/m*3 6.2 C 0 km/h
1513 19-01-2009 14:36:57 6.6 C 6.64 g/m*3 6.6 C 0 km/h
1514 19-01-2009 14:48:58 7 C 6.82 g/m*3 7 C 0 km/h
1515 19-01-2009 15:00:57 7.3 C 6.95 g/m*3 7.3 C 0 km/h
1516 19-01-2009 15:12:57 8.1 C 7.24 g/m*3 8.1 C 0 km/h
1517 19-01-2009 15:24:57 8.4 C 7.04 g/m*3 8.4 C 0 km/h
1518 19-01-2009 15:36:56 8.6 C 6.87 g/m*3 8.6 C 0 km/h
1519 19-01-2009 15:48:57 8.9 C 6.75 g/m*3 8.9 C 0 km/h
1520 19-01-2009 16:00:57 9.1 C 6.48 g/m*3 9.1 C 0 km/h
1521 19-01-2009 16:12:57 9.1 C 6.39 g/m*3 9.1 C 0 km/h
1522 19-01-2009 16:24:56 9.2 C 6.25 g/m*3 9.2 C 0 km/h
1523 19-01-2009 16:36:57 9.3 C 6.11 g/m*3 9.3 C 0 km/h
1524 19-01-2009 16:48:56 9.3 C 5.93 g/m*3 9.3 C 0 km/h
1525 19-01-2009 17:00:56 9.4 C 5.88 g/m*3 9.4 C 0 km/h
Sensor: Nr:Datum:Temp:Abs-Feuchte:Windchill:Wind:
Aussen-T/F 1526 19-01-2009 17:12:56 9.3 C 5.84 g/m*3 9.3 C 0 km/h
1527 19-01-2009 17:24:56 9 C 5.82 g/m*3 9 C 0 km/h
1528 19-01-2009 17:36:02 9 C 5.82 g/m*3 9 C 0 km/h
1529 19-01-2009 17:48:02 8.7 C 5.71 g/m*3 8.7 C 0 km/h
1530 19-01-2009 18:00:02 8.2 C 5.61 g/m*3 8.2 C 0 km/h
1531 19-01-2009 18:12:02 8.3 C 5.65 g/m*3 8.3 C 0 km/h
1532 19-01-2009 18:24:01 8.4 C 5.51 g/m*3 8.4 C 0 km/h
1533 19-01-2009 18:36:02 8.2 C 5.44 g/m*3 8.2 C 0 km/h
1534 19-01-2009 18:48:01 8.2 C 5.44 g/m*3 8.2 C 0 km/h
1535 19-01-2009 19:00:01 8 C 5.46 g/m*3 8 C 0 km/h
1536 19-01-2009 19:12:01 7.8 C 5.47 g/m*3 7.8 C 0 km/h
1537 19-01-2009 19:24:01 7.8 C 5.47 g/m*3 7.8 C 0 km/h
1538 19-01-2009 19:36:01 8.2 C 5.44 g/m*3 8.2 C 0 km/h
1539 19-01-2009 19:48:02 8.2 C 5.36 g/m*3 8.2 C 0 km/h
1540 19-01-2009 20:00:02 8.6 C 5.41 g/m*3 8.6 C 0 km/h
1541 19-01-2009 20:12:02 8.6 C 5.41 g/m*3 8.6 C 0 km/h
1542 19-01-2009 20:24:01 8.6 C 5.5 g/m*3 8.6 C 0 km/h
1543 19-01-2009 20:36:01 8.6 C 5.41 g/m*3 8.6 C 0 km/h
1544 19-01-2009 20:48:01 8.9 C 5.52 g/m*3 8.9 C 0 km/h
1545 19-01-2009 21:00:01 9.4 C 5.43 g/m*3 9.4 C 0 km/h
1546 19-01-2009 21:12:01 9.3 C 5.39 g/m*3 9.3 C 0 km/h
1547 19-01-2009 21:24:01 8.9 C 5.43 g/m*3 8.9 C 0 km/h
1548 19-01-2009 21:36:01 8.7 C 5.1 g/m*3 8.7 C 0 km/h
1549 19-01-2009 21:48:00 8.6 C 5.16 g/m*3 8.6 C 0 km/h
1550 19-01-2009 22:00:00 8.4 C 5.09 g/m*3 8.4 C 0 km/h
Sensor: Nr:Datum:Temp:Abs-Feuchte:Windchill:Wind:
Aussen-T/F 1551 19-01-2009 22:12:01 8.3 C 5.14 g/m*3 8.3 C 0 km/h
1552 19-01-2009 22:24:01 8.3 C 5.14 g/m*3 8.3 C 0 km/h
1553 19-01-2009 22:36:00 8.2 C 5.19 g/m*3 8.2 C 0 km/h
1554 19-01-2009 22:48:01 8.2 C 5.19 g/m*3 8.2 C 0 km/h
1555 19-01-2009 23:00:01 8.3 C 5.23 g/m*3 8.3 C 0 km/h
1556 19-01-2009 23:12:00 8.1 C 5.16 g/m*3 8.1 C 0 km/h
1557 19-01-2009 23:24:00 8.1 C 5.24 g/m*3 8.1 C 0 km/h
1558 19-01-2009 23:36:59 8 C 5.21 g/m*3 8 C 0 km/h
1559 19-01-2009 23:48:00 7.2 C 4.95 g/m*3 7.2 C 0 km/h
1560 20-01-2009 00:00:01 6.2 C 5.22 g/m*3 6.2 C 0 km/h
1561 20-01-2009 00:12:59 5.7 C 5.41 g/m*3 5.7 C 0 km/h
1562 20-01-2009 00:24:00 5.4 C 5.44 g/m*3 5.4 C 0 km/h
1563 20-01-2009 00:36:59 5.2 C 5.44 g/m*3 5.2 C 0 km/h
1564 20-01-2009 00:48:59 5.2 C 5.51 g/m*3 5.2 C 0 km/h
1565 20-01-2009 01:00:59 5.1 C 5.47 g/m*3 5.1 C 0 km/h
1566 20-01-2009 01:12:59 5 C 5.23 g/m*3 5 C 0 km/h
1567 20-01-2009 01:24:59 5 C 4.89 g/m*3 5 C 0 km/h
1568 20-01-2009 01:36:59 5.1 C 4.65 g/m*3 5.1 C 0 km/h
1569 20-01-2009 01:48:59 4.9 C 4.46 g/m*3 4.9 C 0 km/h
1570 20-01-2009 02:00:59 5.2 C 4.34 g/m*3 5.2 C 0 km/h
1571 20-01-2009 02:12:59 5.4 C 4.33 g/m*3 5.4 C 0 km/h
1572 20-01-2009 02:24:58 5.4 C 4.26 g/m*3 5.4 C 0 km/h
1573 20-01-2009 02:36:58 5.3 C 4.23 g/m*3 5.3 C 0 km/h
1574 20-01-2009 02:49:59 5.4 C 4.19 g/m*3 5.4 C 0 km/h
1575 20-01-2009 03:01:59 5.5 C 4.21 g/m*3 5.5 C 0 km/h
Sensor: Nr:Datum:Temp:Abs-Feuchte:Windchill:Wind:
Aussen-T/F 1576 20-01-2009 03:12:59 5.5 C 4.21 g/m*3 5.5 C 0 km/h
1577 20-01-2009 03:24:59 5.3 C 4.16 g/m*3 5.3 C 0 km/h
1578 20-01-2009 03:37:59 5.1 C 4.17 g/m*3 5.1 C 0 km/h
1579 20-01-2009 03:49:59 4.7 C 4.2 g/m*3 4.7 C 0 km/h
1580 20-01-2009 04:01:59 5 C 4.28 g/m*3 5 C 0 km/h
1581 20-01-2009 04:13:59 5.2 C 4.48 g/m*3 5.2 C 0 km/h
1582 20-01-2009 04:25:58 3.9 C 4.67 g/m*3 3.9 C 0 km/h
1583 20-01-2009 04:37:59 3.5 C 4.86 g/m*3 3.5 C 0 km/h
1584 20-01-2009 04:49:58 3.3 C 4.91 g/m*3 3.3 C 0 km/h
1585 20-01-2009 05:01:58 3.1 C 4.97 g/m*3 3.1 C 0 km/h
1586 20-01-2009 05:13:58 3 C 4.99 g/m*3 3 C 0 km/h
1587 20-01-2009 05:25:58 2.9 C 4.96 g/m*3 2.9 C 0 km/h
1588 20-01-2009 05:37:58 2.9 C 4.96 g/m*3 2.9 C 0 km/h
1589 20-01-2009 05:49:58 2.8 C 4.87 g/m*3 2.8 C 0 km/h
1590 20-01-2009 06:01:57 2.7 C 4.84 g/m*3 2.7 C 0 km/h
1591 20-01-2009 06:13:57 2.7 C 4.78 g/m*3 2.7 C 0 km/h
1592 20-01-2009 06:25:58 2.5 C 4.6 g/m*3 2.5 C 0 km/h
1593 20-01-2009 06:37:57 2.1 C 4.48 g/m*3 2.1 C 0 km/h
1594 20-01-2009 06:49:57 2.5 C 4.66 g/m*3 2.5 C 0 km/h
1595 20-01-2009 07:01:57 2.6 C 4.63 g/m*3 2.6 C 0 km/h
1596 20-01-2009 07:13:57 2.8 C 4.63 g/m*3 2.8 C 0 km/h
1597 20-01-2009 07:25:57 2.6 C 4.51 g/m*3 2.6 C 0 km/h
1598 20-01-2009 07:37:57 2.4 C 4.51 g/m*3 2.4 C 0 km/h
1599 20-01-2009 07:49:57 2.4 C 4.45 g/m*3 2.4 C 0 km/h
1600 20-01-2009 08:01:57 2.6 C 4.46 g/m*3 2.6 C 0 km/h
Sensor: Nr:Datum:Temp:Abs-Feuchte:Windchill:Wind:
Aussen-T/F 1601 20-01-2009 08:13:57 2.6 C 4.34 g/m*3 2.6 C 0 km/h
1602 20-01-2009 08:25:56 2.7 C 4.2 g/m*3 2.7 C 0 km/h
1603 20-01-2009 08:37:56 2.9 C 4.07 g/m*3 2.9 C 0 km/h
1604 20-01-2009 08:49:56 2.9 C 4.02 g/m*3 2.9 C 0 km/h
1605 20-01-2009 09:01:56 3 C 4.04 g/m*3 3 C 0 km/h
1606 20-01-2009 09:13:56 3.1 C 3.95 g/m*3 3.1 C 0 km/h
1607 20-01-2009 09:25:55 3.1 C 3.83 g/m*3 3.1 C 0 km/h
1608 20-01-2009 09:37:56 3.1 C 3.89 g/m*3 3.1 C 0 km/h
1609 20-01-2009 09:49:55 3.1 C 3.89 g/m*3 3.1 C 0 km/h
1610 20-01-2009 10:01:55 3.2 C 3.92 g/m*3 3.2 C 0 km/h
1611 20-01-2009 10:13:55 3.2 C 3.86 g/m*3 3.2 C 0 km/h
1612 20-01-2009 10:25:55 3.3 C 3.82 g/m*3 3.3 C 0 km/h
1613 20-01-2009 10:37:55 3.5 C 3.75 g/m*3 3.5 C 0 km/h
1614 20-01-2009 10:49:55 3.5 C 3.75 g/m*3 3.5 C 0 km/h
1615 20-01-2009 11:01:55 3.6 C 3.84 g/m*3 3.6 C 0 km/h
1616 20-01-2009 11:13:55 3.7 C 3.86 g/m*3 3.7 C 0 km/h
1617 20-01-2009 11:25:55 3.7 C 3.86 g/m*3 3.7 C 0 km/h
1618 20-01-2009 11:37:54 3.8 C 3.83 g/m*3 3.8 C 0 km/h
1619 20-01-2009 11:49:54 4 C 3.81 g/m*3 4 C 0 km/h
1620 20-01-2009 12:01:54 4.2 C 3.87 g/m*3 4.2 C 0 km/h
1621 20-01-2009 12:13:54 4.3 C 3.89 g/m*3 4.3 C 0 km/h
1622 20-01-2009 12:25:54 4.3 C 3.89 g/m*3 4.3 C 0 km/h
1623 20-01-2009 12:37:54 4.4 C 3.92 g/m*3 4.4 C 0 km/h
1624 20-01-2009 12:49:54 4.5 C 3.94 g/m*3 4.5 C 0 km/h
1625 20-01-2009 13:01:54 4.7 C 3.93 g/m*3 4.7 C 0 km/h
Sensor: Nr:Datum:Temp:Abs-Feuchte:Windchill:Wind:
Aussen-T/F 1626 20-01-2009 13:13:54 4.8 C 3.96 g/m*3 4.8 C 0 km/h
1627 20-01-2009 13:25:53 5.2 C 3.86 g/m*3 5.2 C 0 km/h
1628 20-01-2009 13:37:54 5.2 C 3.79 g/m*3 5.2 C 0 km/h
1629 20-01-2009 13:49:53 5.2 C 3.79 g/m*3 5.2 C 0 km/h
1630 20-01-2009 14:01:53 5.3 C 3.81 g/m*3 5.3 C 0 km/h
1631 20-01-2009 14:13:53 5.4 C 3.84 g/m*3 5.4 C 0 km/h
1632 20-01-2009 14:25:52 5.6 C 3.82 g/m*3 5.6 C 0 km/h
1633 20-01-2009 14:37:53 5.8 C 3.94 g/m*3 5.8 C 0 km/h
1634 20-01-2009 14:49:52 5.7 C 3.77 g/m*3 5.7 C 0 km/h
1635 20-01-2009 15:01:52 5.5 C 3.79 g/m*3 5.5 C 0 km/h
1636 20-01-2009 15:13:52 5.7 C 3.91 g/m*3 5.7 C 0 km/h
1637 20-01-2009 15:25:53 5.8 C 3.87 g/m*3 5.8 C 0 km/h
1638 20-01-2009 15:37:52 5.7 C 3.84 g/m*3 5.7 C 0 km/h
1639 20-01-2009 15:49:52 5.6 C 3.89 g/m*3 5.6 C 0 km/h
1640 20-01-2009 16:01:52 5.5 C 3.93 g/m*3 5.5 C 0 km/h
1641 20-01-2009 16:13:52 5.5 C 3.93 g/m*3 5.5 C 0 km/h
1642 20-01-2009 16:25:52 5.4 C 3.91 g/m*3 5.4 C 0 km/h
1643 20-01-2009 16:37:51 5.3 C 3.95 g/m*3 5.3 C 0 km/h
1644 20-01-2009 16:49:52 5.1 C 3.83 g/m*3 5.1 C 0 km/h
1645 20-01-2009 17:01:52 5 C 3.74 g/m*3 5 C 0 km/h
1646 20-01-2009 17:13:52 4.8 C 3.82 g/m*3 4.8 C 0 km/h
1647 20-01-2009 17:25:51 4.6 C 3.84 g/m*3 4.6 C 0 km/h
1648 20-01-2009 17:37:51 4.6 C 3.71 g/m*3 4.6 C 0 km/h
1649 20-01-2009 17:49:51 4.6 C 3.71 g/m*3 4.6 C 0 km/h
1650 20-01-2009 18:01:51 4.4 C 3.72 g/m*3 4.4 C 0 km/h
Sensor: Nr:Datum:Temp:Abs-Feuchte:Windchill:Wind:
Aussen-T/F 1651 20-01-2009 18:13:51 4.3 C 3.83 g/m*3 4.3 C 0 km/h
1652 20-01-2009 18:25:50 4 C 3.88 g/m*3 4 C 0 km/h
1653 20-01-2009 18:37:51 3.8 C 3.89 g/m*3 3.8 C 0 km/h
1654 20-01-2009 18:49:50 3.6 C 3.9 g/m*3 3.6 C 0 km/h
1655 20-01-2009 19:01:50 3.4 C 3.91 g/m*3 3.4 C 0 km/h
1656 20-01-2009 19:13:50 3.1 C 3.95 g/m*3 3.1 C 0 km/h
1657 20-01-2009 19:25:50 3 C 3.92 g/m*3 3 C 0 km/h
1658 20-01-2009 19:37:50 2.9 C 3.96 g/m*3 2.9 C 0 km/h
1659 20-01-2009 19:49:49 3 C 3.98 g/m*3 3 C 0 km/h
1660 20-01-2009 20:01:50 2.9 C 4.02 g/m*3 2.9 C 0 km/h
1661 20-01-2009 20:13:50 2.5 C 3.97 g/m*3 2.5 C 0 km/h
1662 20-01-2009 20:25:50 2.1 C 3.86 g/m*3 2.1 C 0 km/h
1663 20-01-2009 20:37:49 1.8 C 3.84 g/m*3 1.8 C 0 km/h
1664 20-01-2009 20:49:50 1.6 C 3.84 g/m*3 1.6 C 0 km/h
1665 20-01-2009 21:01:49 1.4 C 3.89 g/m*3 1.4 C 0 km/h
1666 20-01-2009 21:13:49 1.3 C 3.87 g/m*3 1.3 C 0 km/h
1667 20-01-2009 21:25:49 1.3 C 3.97 g/m*3 1.3 C 0 km/h
1668 20-01-2009 21:37:49 1.3 C 4.03 g/m*3 1.3 C 0 km/h
1669 20-01-2009 21:49:49 1.1 C 3.97 g/m*3 1.1 C 0 km/h
1670 20-01-2009 22:01:48 0.7 C 3.97 g/m*3 0.7 C 0 km/h
1671 20-01-2009 22:13:48 0.6 C 3.94 g/m*3 0.6 C 0 km/h
1672 20-01-2009 22:25:48 0.6 C 4.04 g/m*3 0.6 C 0 km/h
1673 20-01-2009 22:37:48 0.4 C 3.98 g/m*3 0.4 C 0 km/h
1674 20-01-2009 22:49:48 0.2 C 3.93 g/m*3 0.2 C 0 km/h
1675 20-01-2009 23:01:48 -0.1 C 3.9 g/m*3 -0.1 C 0 km/h
Sensor: Nr:Datum:Temp:Abs-Feuchte:Windchill:Wind:
Aussen-T/F 1676 20-01-2009 23:13:48 -0.2 C 3.87 g/m*3 -0.2 C 0 km/h
1677 20-01-2009 23:25:48 -0.3 C 3.89 g/m*3 -0.3 C 0 km/h
1678 20-01-2009 23:37:48 -0.6 C 3.81 g/m*3 -0.6 C 0 km/h
1679 20-01-2009 23:49:47 -0.8 C 3.76 g/m*3 -0.8 C 0 km/h
1680 21-01-2009 00:01:48 -1 C 3.71 g/m*3 -1 C 0 km/h
1681 21-01-2009 00:13:48 -1 C 3.75 g/m*3 -1 C 0 km/h
1682 21-01-2009 00:25:47 -1.1 C 3.73 g/m*3 -1.1 C 0 km/h
1683 21-01-2009 00:37:47 -1.4 C 3.65 g/m*3 -1.4 C 0 km/h
1684 21-01-2009 00:49:47 -1.4 C 3.65 g/m*3 -1.4 C 0 km/h
1685 21-01-2009 01:01:47 -1.6 C 3.64 g/m*3 -1.6 C 0 km/h
1686 21-01-2009 01:13:47 -1.6 C 3.68 g/m*3 -1.6 C 0 km/h
1687 21-01-2009 01:25:46 -1.5 C 3.71 g/m*3 -1.5 C 0 km/h
1688 21-01-2009 01:37:47 -1.6 C 3.68 g/m*3 -1.6 C 0 km/h
1689 21-01-2009 01:49:46 -1.7 C 3.66 g/m*3 -1.7 C 0 km/h
1690 21-01-2009 02:01:46 -1.7 C 3.7 g/m*3 -1.7 C 0 km/h
1691 21-01-2009 02:13:46 -1.8 C 3.72 g/m*3 -1.8 C 0 km/h
1692 21-01-2009 02:25:46 -1.9 C 3.69 g/m*3 -1.9 C 0 km/h
1693 21-01-2009 02:37:46 -1.8 C 3.72 g/m*3 -1.8 C 0 km/h
1694 21-01-2009 02:50:02 -1.9 C 3.69 g/m*3 -1.9 C 0 km/h
1695 21-01-2009 03:02:02 -2.1 C 3.64 g/m*3 -2.1 C 0 km/h
1696 21-01-2009 03:14:01 -2.3 C 3.59 g/m*3 -2.3 C 0 km/h
1697 21-01-2009 03:26:01 -2.2 C 3.62 g/m*3 -2.2 C 0 km/h
1698 21-01-2009 03:38:01 -2.1 C 3.68 g/m*3 -2.1 C 0 km/h
1699 21-01-2009 03:50:01 -2.1 C 3.68 g/m*3 -2.1 C 0 km/h
1700 21-01-2009 04:02:01 -2.3 C 3.59 g/m*3 -2.3 C 0 km/h
Sensor: Nr:Datum:Temp:Abs-Feuchte:Windchill:Wind:
Aussen-T/F 1701 21-01-2009 04:14:01 -2.3 C 3.63 g/m*3 -2.3 C 0 km/h
1702 21-01-2009 04:26:01 -2.3 C 3.63 g/m*3 -2.3 C 0 km/h
1703 21-01-2009 04:38:01 -2.4 C 3.61 g/m*3 -2.4 C 0 km/h
1704 21-01-2009 04:50:01 -2.6 C 3.56 g/m*3 -2.6 C 0 km/h
1705 21-01-2009 05:02:02 -2.5 C 3.58 g/m*3 -2.5 C 0 km/h
1706 21-01-2009 05:14:02 -2.7 C 3.53 g/m*3 -2.7 C 0 km/h
1707 21-01-2009 05:26:01 -2.8 C 3.51 g/m*3 -2.8 C 0 km/h
1708 21-01-2009 05:38:02 -2.9 C 3.48 g/m*3 -2.9 C 0 km/h
1709 21-01-2009 05:50:01 -3 C 3.46 g/m*3 -3 C 0 km/h
1710 21-01-2009 06:02:01 -2.9 C 3.52 g/m*3 -2.9 C 0 km/h
1711 21-01-2009 06:14:01 -2.9 C 3.52 g/m*3 -2.9 C 0 km/h
1712 21-01-2009 06:26:01 -3 C 3.5 g/m*3 -3 C 0 km/h
1713 21-01-2009 06:38:02 -2.9 C 3.52 g/m*3 -2.9 C 0 km/h
1714 21-01-2009 06:50:01 -3.1 C 3.47 g/m*3 -3.1 C 0 km/h
1715 21-01-2009 07:02:02 -3 C 3.5 g/m*3 -3 C 0 km/h
1716 21-01-2009 07:14:02 -2.7 C 3.61 g/m*3 -2.7 C 0 km/h
1717 21-01-2009 07:26:01 -2.8 C 3.59 g/m*3 -2.8 C 0 km/h
1718 21-01-2009 07:38:02 -3 C 3.54 g/m*3 -3 C 0 km/h
1719 21-01-2009 07:50:01 -3 C 3.54 g/m*3 -3 C 0 km/h
1720 21-01-2009 08:02:02 -2.8 C 3.59 g/m*3 -2.8 C 0 km/h
1721 21-01-2009 08:14:02 -2.7 C 3.61 g/m*3 -2.7 C 0 km/h
1722 21-01-2009 08:26:01 -2.2 C 3.78 g/m*3 -2.2 C 0 km/h
1723 21-01-2009 08:38:01 -2.1 C 3.81 g/m*3 -2.1 C 0 km/h
1724 21-01-2009 08:50:01 -2.1 C 3.81 g/m*3 -2.1 C 0 km/h
1725 21-01-2009 09:02:01 -2 C 3.84 g/m*3 -2 C 0 km/h
Sensor: Nr:Datum:Temp:Abs-Feuchte:Windchill:Wind:
Aussen-T/F 1726 21-01-2009 09:14:01 -2.2 C 3.78 g/m*3 -2.2 C 0 km/h
1727 21-01-2009 09:26:01 -2.3 C 3.76 g/m*3 -2.3 C 0 km/h
1728 21-01-2009 09:38:01 -2.4 C 3.69 g/m*3 -2.4 C 0 km/h
1729 21-01-2009 09:50:01 -2.3 C 3.71 g/m*3 -2.3 C 0 km/h
1730 21-01-2009 10:02:01 -2.3 C 3.71 g/m*3 -2.3 C 0 km/h
1731 21-01-2009 10:14:01 -2.2 C 3.74 g/m*3 -2.2 C 0 km/h
1732 21-01-2009 10:26:02 -2.1 C 3.77 g/m*3 -2.1 C 0 km/h
1733 21-01-2009 10:38:01 -1.9 C 3.82 g/m*3 -1.9 C 0 km/h
1734 21-01-2009 10:50:02 -1.5 C 3.97 g/m*3 -1.5 C 0 km/h
1735 21-01-2009 11:02:01 -0.9 C 4.19 g/m*3 -0.9 C 0 km/h
1736 21-01-2009 11:14:01 -0.4 C 4.34 g/m*3 -0.4 C 0 km/h
1737 21-01-2009 11:26:02 0.1 C 4.49 g/m*3 0.1 C 0 km/h
1738 21-01-2009 11:38:01 0.4 C 4.58 g/m*3 0.4 C 0 km/h
1739 21-01-2009 11:50:02 0.8 C 4.71 g/m*3 0.8 C 0 km/h
1740 21-01-2009 12:02:01 1 C 4.67 g/m*3 1 C 0 km/h
1741 21-01-2009 12:14:01 1.4 C 4.75 g/m*3 1.4 C 0 km/h
1742 21-01-2009 12:26:01 1.5 C 4.67 g/m*3 1.5 C 0 km/h
1743 21-01-2009 12:38:02 1.8 C 4.66 g/m*3 1.8 C 0 km/h
1744 21-01-2009 12:50:01 2.1 C 4.64 g/m*3 2.1 C 0 km/h
1745 21-01-2009 13:02:02 2.3 C 4.65 g/m*3 2.3 C 0 km/h
1746 21-01-2009 13:14:02 2.5 C 4.71 g/m*3 2.5 C 0 km/h
1747 21-01-2009 13:26:01 2.8 C 4.75 g/m*3 2.8 C 0 km/h
1748 21-01-2009 13:38:02 3.1 C 4.73 g/m*3 3.1 C 0 km/h
1749 21-01-2009 13:50:01 3.3 C 4.67 g/m*3 3.3 C 0 km/h
1750 21-01-2009 14:02:01 3.5 C 4.61 g/m*3 3.5 C 0 km/h
Sensor: Nr:Datum:Temp:Abs-Feuchte:Windchill:Wind:
Aussen-T/F 1751 21-01-2009 14:14:02 3.6 C 4.58 g/m*3 3.6 C 0 km/h
1752 21-01-2009 14:26:01 3.6 C 4.58 g/m*3 3.6 C 0 km/h
1753 21-01-2009 14:38:01 3.8 C 4.45 g/m*3 3.8 C 0 km/h
1754 21-01-2009 14:50:01 3.8 C 4.45 g/m*3 3.8 C 0 km/h
1755 21-01-2009 15:02:01 4 C 4.45 g/m*3 4 C 0 km/h
1756 21-01-2009 15:14:01 4 C 4.39 g/m*3 4 C 0 km/h
1757 21-01-2009 15:26:02 4.1 C 4.42 g/m*3 4.1 C 0 km/h
1758 21-01-2009 15:38:01 4.4 C 4.44 g/m*3 4.4 C 0 km/h
1759 21-01-2009 15:50:02 3.9 C 4.42 g/m*3 3.9 C 0 km/h
1760 21-01-2009 16:02:01 3.6 C 4.46 g/m*3 3.6 C 0 km/h
1761 21-01-2009 16:14:01 3.3 C 4.43 g/m*3 3.3 C 0 km/h
1762 21-01-2009 16:26:01 3.2 C 4.4 g/m*3 3.2 C 0 km/h
1763 21-01-2009 16:38:01 3.3 C 4.43 g/m*3 3.3 C 0 km/h
1764 21-01-2009 16:50:01 3.2 C 4.34 g/m*3 3.2 C 0 km/h
1765 21-01-2009 17:02:01 3.2 C 4.34 g/m*3 3.2 C 0 km/h
1766 21-01-2009 17:14:01 3.2 C 4.34 g/m*3 3.2 C 0 km/h
1767 21-01-2009 17:26:01 3.1 C 4.31 g/m*3 3.1 C 0 km/h
1768 21-01-2009 17:38:02 2.9 C 4.37 g/m*3 2.9 C 0 km/h
1769 21-01-2009 17:50:01 2.8 C 4.34 g/m*3 2.8 C 0 km/h
1770 21-01-2009 18:02:01 2.6 C 4.34 g/m*3 2.6 C 0 km/h
1771 21-01-2009 18:14:01 2.4 C 4.34 g/m*3 2.4 C 0 km/h
1772 21-01-2009 18:26:02 2.4 C 4.4 g/m*3 2.4 C 0 km/h
1773 21-01-2009 18:38:01 2.3 C 4.42 g/m*3 2.3 C 0 km/h
1774 21-01-2009 18:50:02 2.2 C 4.39 g/m*3 2.2 C 0 km/h
1775 21-01-2009 19:02:01 2.1 C 4.42 g/m*3 2.1 C 0 km/h
Sensor: Nr:Datum:Temp:Abs-Feuchte:Windchill:Wind:
Aussen-T/F 1776 21-01-2009 19:14:01 2 C 4.39 g/m*3 2 C 0 km/h
1777 21-01-2009 19:26:01 2 C 4.45 g/m*3 2 C 0 km/h
1778 21-01-2009 19:38:01 2.4 C 4.62 g/m*3 2.4 C 0 km/h
1779 21-01-2009 19:50:01 2.8 C 4.69 g/m*3 2.8 C 0 km/h
1780 21-01-2009 20:02:02 2.9 C 4.61 g/m*3 2.9 C 0 km/h
1781 21-01-2009 20:14:02 3 C 4.58 g/m*3 3 C 0 km/h
1782 21-01-2009 20:26:01 2.9 C 4.55 g/m*3 2.9 C 0 km/h
1783 21-01-2009 20:38:02 2.8 C 4.52 g/m*3 2.8 C 0 km/h
1784 21-01-2009 20:50:01 2.7 C 4.54 g/m*3 2.7 C 0 km/h
1785 21-01-2009 21:02:02 2.7 C 4.54 g/m*3 2.7 C 0 km/h
1786 21-01-2009 21:14:02 2.6 C 4.51 g/m*3 2.6 C 0 km/h
1787 21-01-2009 21:26:01 2.5 C 4.48 g/m*3 2.5 C 0 km/h
1788 21-01-2009 21:38:01 2.3 C 4.42 g/m*3 2.3 C 0 km/h
1789 21-01-2009 21:50:01 2 C 4.39 g/m*3 2 C 0 km/h
1790 21-01-2009 22:02:01 1.8 C 4.39 g/m*3 1.8 C 0 km/h
1791 21-01-2009 22:14:01 1.8 C 4.44 g/m*3 1.8 C 0 km/h
1792 21-01-2009 22:26:01 1.9 C 4.53 g/m*3 1.9 C 0 km/h
1793 21-01-2009 22:38:01 1.9 C 4.53 g/m*3 1.9 C 0 km/h
1794 21-01-2009 22:50:01 2 C 4.5 g/m*3 2 C 0 km/h
1795 21-01-2009 23:02:01 2 C 4.5 g/m*3 2 C 0 km/h
1796 21-01-2009 23:14:01 1.9 C 4.53 g/m*3 1.9 C 0 km/h
1797 21-01-2009 23:26:02 1.9 C 4.53 g/m*3 1.9 C 0 km/h
1798 21-01-2009 23:38:01 1.8 C 4.49 g/m*3 1.8 C 0 km/h
1799 21-01-2009 23:50:02 1.5 C 4.4 g/m*3 1.5 C 0 km/h
1800 22-01-2009 00:02:01 1 C 4.26 g/m*3 1 C 0 km/h
Sensor: Nr:Datum:Temp:Abs-Feuchte:Windchill:Wind:
Aussen-T/F 1801 22-01-2009 00:14:01 0.7 C 4.22 g/m*3 0.7 C 0 km/h
1802 22-01-2009 00:26:01 0.4 C 4.18 g/m*3 0.4 C 0 km/h
1803 22-01-2009 00:38:02 0.4 C 4.23 g/m*3 0.4 C 0 km/h
1804 22-01-2009 00:50:01 0.5 C 4.26 g/m*3 0.5 C 0 km/h
1805 22-01-2009 01:02:02 0.3 C 4.2 g/m*3 0.3 C 0 km/h
1806 22-01-2009 01:14:02 0.3 C 4.2 g/m*3 0.3 C 0 km/h
1807 22-01-2009 01:26:01 0.2 C 4.22 g/m*3 0.2 C 0 km/h
1808 22-01-2009 01:38:01 0.2 C 4.22 g/m*3 0.2 C 0 km/h
1809 22-01-2009 01:50:01 0.6 C 4.39 g/m*3 0.6 C 0 km/h
1810 22-01-2009 02:02:01 1 C 4.46 g/m*3 1 C 0 km/h
1811 22-01-2009 02:14:02 1.3 C 4.45 g/m*3 1.3 C 0 km/h
1812 22-01-2009 02:26:01 1.6 C 4.33 g/m*3 1.6 C 0 km/h
1813 22-01-2009 02:38:01 1.6 C 4.22 g/m*3 1.6 C 0 km/h
1814 22-01-2009 02:50:35 1.3 C 4.08 g/m*3 1.3 C 0 km/h
1815 22-01-2009 03:02:35 1.2 C 4.05 g/m*3 1.2 C 0 km/h
1816 22-01-2009 03:14:35 1.1 C 4.08 g/m*3 1.1 C 0 km/h
1817 22-01-2009 03:26:35 0.9 C 4.02 g/m*3 0.9 C 0 km/h
1818 22-01-2009 03:38:35 0.8 C 4.04 g/m*3 0.8 C 0 km/h
1819 22-01-2009 03:50:35 0.8 C 4.04 g/m*3 0.8 C 0 km/h
1820 22-01-2009 04:02:35 0.6 C 3.99 g/m*3 0.6 C 0 km/h
1821 22-01-2009 04:14:34 0.5 C 3.96 g/m*3 0.5 C 0 km/h
1822 22-01-2009 04:26:34 0.5 C 4.01 g/m*3 0.5 C 0 km/h
1823 22-01-2009 04:38:35 0.5 C 4.01 g/m*3 0.5 C 0 km/h
1824 22-01-2009 04:50:35 0.4 C 4.03 g/m*3 0.4 C 0 km/h
1825 22-01-2009 05:02:34 0.4 C 4.03 g/m*3 0.4 C 0 km/h
Sensor: Nr:Datum:Temp:Abs-Feuchte:Windchill:Wind:
Aussen-T/F 1826 22-01-2009 05:14:34 0.6 C 4.09 g/m*3 0.6 C 0 km/h
1827 22-01-2009 05:26:35 0.5 C 4.06 g/m*3 0.5 C 0 km/h
1828 22-01-2009 05:38:34 0.2 C 3.98 g/m*3 0.2 C 0 km/h
1829 22-01-2009 05:50:34 -0.2 C 3.87 g/m*3 -0.2 C 0 km/h
1830 22-01-2009 06:02:34 -0.2 C 3.92 g/m*3 -0.2 C 0 km/h
1831 22-01-2009 06:14:34 -0.2 C 3.97 g/m*3 -0.2 C 0 km/h
1832 22-01-2009 06:26:34 -0.5 C 3.88 g/m*3 -0.5 C 0 km/h
1833 22-01-2009 06:38:33 -0.5 C 3.88 g/m*3 -0.5 C 0 km/h
1834 22-01-2009 06:50:34 -0.3 C 4.03 g/m*3 -0.3 C 0 km/h
1835 22-01-2009 07:02:33 -0.3 C 4.03 g/m*3 -0.3 C 0 km/h
1836 22-01-2009 07:14:33 -0.4 C 4.01 g/m*3 -0.4 C 0 km/h
1837 22-01-2009 07:26:33 -0.6 C 3.95 g/m*3 -0.6 C 0 km/h
1838 22-01-2009 07:38:33 -0.5 C 4.03 g/m*3 -0.5 C 0 km/h
1839 22-01-2009 07:50:33 -0.6 C 4 g/m*3 -0.6 C 0 km/h
1840 22-01-2009 08:02:32 -0.6 C 4.04 g/m*3 -0.6 C 0 km/h
1841 22-01-2009 08:14:33 -0.6 C 4.04 g/m*3 -0.6 C 0 km/h
1842 22-01-2009 08:26:33 -0.4 C 4.15 g/m*3 -0.4 C 0 km/h
1843 22-01-2009 08:38:32 -0.4 C 4.15 g/m*3 -0.4 C 0 km/h
1844 22-01-2009 08:50:32 -0.3 C 4.18 g/m*3 -0.3 C 0 km/h
1845 22-01-2009 09:02:33 0 C 4.26 g/m*3 0 C 0 km/h
1846 22-01-2009 09:14:32 0.2 C 4.37 g/m*3 0.2 C 0 km/h
1847 22-01-2009 09:26:32 0.3 C 4.35 g/m*3 0.3 C 0 km/h
1848 22-01-2009 09:38:32 0.3 C 4.35 g/m*3 0.3 C 0 km/h
1849 22-01-2009 09:50:32 0.5 C 4.41 g/m*3 0.5 C 0 km/h
1850 22-01-2009 10:02:32 1.5 C 4.51 g/m*3 1.5 C 0 km/h
Sensor: Nr:Datum:Temp:Abs-Feuchte:Windchill:Wind:
Aussen-T/F 1851 22-01-2009 10:14:31 1.9 C 4.36 g/m*3 1.9 C 0 km/h
1852 22-01-2009 10:26:31 2.6 C 4.17 g/m*3 2.6 C 0 km/h
1853 22-01-2009 10:38:31 2.9 C 4.02 g/m*3 2.9 C 0 km/h
1854 22-01-2009 10:50:31 3.1 C 3.89 g/m*3 3.1 C 0 km/h
1855 22-01-2009 11:02:31 3.2 C 3.86 g/m*3 3.2 C 0 km/h
1856 22-01-2009 11:14:30 3.5 C 3.81 g/m*3 3.5 C 0 km/h
1857 22-01-2009 11:26:30 3.9 C 3.85 g/m*3 3.9 C 0 km/h
1858 22-01-2009 11:38:31 4.1 C 3.71 g/m*3 4.1 C 0 km/h
1859 22-01-2009 11:50:30 4.2 C 3.74 g/m*3 4.2 C 0 km/h
1860 22-01-2009 12:02:30 4.1 C 3.71 g/m*3 4.1 C 0 km/h
1861 22-01-2009 12:14:31 4.3 C 3.83 g/m*3 4.3 C 0 km/h
1862 22-01-2009 12:26:31 4.7 C 3.66 g/m*3 4.7 C 0 km/h
1863 22-01-2009 12:38:30 4.9 C 3.71 g/m*3 4.9 C 0 km/h
1864 22-01-2009 12:50:30 5.3 C 3.53 g/m*3 5.3 C 0 km/h
1865 22-01-2009 13:02:30 5.6 C 3.61 g/m*3 5.6 C 0 km/h
1866 22-01-2009 13:14:30 5.5 C 3.37 g/m*3 5.5 C 0 km/h
1867 22-01-2009 13:26:30 5.6 C 3.39 g/m*3 5.6 C 0 km/h
1868 22-01-2009 13:38:29 5.6 C 3.39 g/m*3 5.6 C 0 km/h
1869 22-01-2009 13:50:30 5.8 C 3.37 g/m*3 5.8 C 0 km/h
1870 22-01-2009 14:02:29 6 C 3.34 g/m*3 6 C 0 km/h
1871 22-01-2009 14:14:29 6.1 C 3.36 g/m*3 6.1 C 0 km/h
1872 22-01-2009 14:26:29 6.3 C 3.41 g/m*3 6.3 C 0 km/h
1873 22-01-2009 14:38:29 6.7 C 3.42 g/m*3 6.7 C 0 km/h
1874 22-01-2009 14:50:29 7 C 3.18 g/m*3 7 C 0 km/h
1875 22-01-2009 15:02:29 6.8 C 3.06 g/m*3 6.8 C 0 km/h
Sensor: Nr:Datum:Temp:Abs-Feuchte:Windchill:Wind:
Aussen-T/F 1876 22-01-2009 15:14:28 6.4 C 3.05 g/m*3 6.4 C 0 km/h
1877 22-01-2009 15:26:28 6.2 C 3.09 g/m*3 6.2 C 0 km/h
1878 22-01-2009 15:38:29 6.2 C 3.09 g/m*3 6.2 C 0 km/h
1879 22-01-2009 15:50:28 6 C 2.98 g/m*3 6 C 0 km/h
1880 22-01-2009 16:02:28 5.9 C 3.1 g/m*3 5.9 C 0 km/h
1881 22-01-2009 16:14:28 5.7 C 3.06 g/m*3 5.7 C 0 km/h
1882 22-01-2009 16:26:28 5.6 C 3.11 g/m*3 5.6 C 0 km/h
1883 22-01-2009 16:38:28 5.5 C 3.02 g/m*3 5.5 C 0 km/h
1884 22-01-2009 16:50:27 5.3 C 3.12 g/m*3 5.3 C 0 km/h
1885 22-01-2009 17:02:28 5.2 C 3.03 g/m*3 5.2 C 0 km/h
1886 22-01-2009 17:14:02 5.3 C 2.91 g/m*3 5.3 C 0 km/h
1887 22-01-2009 17:26:02 5.3 C 2.98 g/m*3 5.3 C 0 km/h
1888 22-01-2009 17:38:01 5.2 C 3.1 g/m*3 5.2 C 0 km/h
1889 22-01-2009 17:50:01 5.2 C 2.96 g/m*3 5.2 C 0 km/h
1890 22-01-2009 18:02:01 5.2 C 3.03 g/m*3 5.2 C 0 km/h
1891 22-01-2009 18:14:01 5.2 C 3.1 g/m*3 5.2 C 0 km/h
1892 22-01-2009 18:26:01 5.1 C 3.15 g/m*3 5.1 C 0 km/h
1893 22-01-2009 18:38:01 5.2 C 3.24 g/m*3 5.2 C 0 km/h
1894 22-01-2009 18:50:01 5 C 3.26 g/m*3 5 C 0 km/h
1895 22-01-2009 19:02:01 5 C 3.33 g/m*3 5 C 0 km/h
1896 22-01-2009 19:14:01 5 C 3.4 g/m*3 5 C 0 km/h
1897 22-01-2009 19:26:00 5 C 3.6 g/m*3 5 C 0 km/h
1898 22-01-2009 19:38:01 4.9 C 3.85 g/m*3 4.9 C 0 km/h
1899 22-01-2009 19:50:00 4.8 C 3.96 g/m*3 4.8 C 0 km/h
1900 22-01-2009 20:02:00 4.7 C 4 g/m*3 4.7 C 0 km/h
Sensor: Nr:Datum:Temp:Abs-Feuchte:Windchill:Wind:
Aussen-T/F 1901 22-01-2009 20:14:01 4.6 C 4.1 g/m*3 4.6 C 0 km/h
1902 22-01-2009 20:26:00 4.5 C 4.14 g/m*3 4.5 C 0 km/h
1903 22-01-2009 20:38:00 4.4 C 4.24 g/m*3 4.4 C 0 km/h
1904 22-01-2009 20:50:00 4.1 C 4.35 g/m*3 4.1 C 0 km/h
1905 22-01-2009 21:02:00 3.8 C 4.45 g/m*3 3.8 C 0 km/h
1906 22-01-2009 21:14:00 3.6 C 4.52 g/m*3 3.6 C 0 km/h
1907 22-01-2009 21:26:59 3.5 C 4.67 g/m*3 3.5 C 0 km/h
1908 22-01-2009 21:38:59 3.3 C 4.67 g/m*3 3.3 C 0 km/h
1909 22-01-2009 21:50:59 3.2 C 4.7 g/m*3 3.2 C 0 km/h
1910 22-01-2009 22:02:59 3.2 C 4.82 g/m*3 3.2 C 0 km/h
1911 22-01-2009 22:14:58 3.1 C 4.79 g/m*3 3.1 C 0 km/h
1912 22-01-2009 22:26:58 3.1 C 4.79 g/m*3 3.1 C 0 km/h
1913 22-01-2009 22:38:59 3.1 C 4.85 g/m*3 3.1 C 0 km/h
1914 22-01-2009 22:50:58 3.2 C 4.88 g/m*3 3.2 C 0 km/h
1915 22-01-2009 23:02:58 3.2 C 4.94 g/m*3 3.2 C 0 km/h
1916 22-01-2009 23:14:59 3.4 C 4.95 g/m*3 3.4 C 0 km/h
1917 22-01-2009 23:26:59 3.6 C 4.83 g/m*3 3.6 C 0 km/h
1918 22-01-2009 23:38:58 3.8 C 4.77 g/m*3 3.8 C 0 km/h
1919 22-01-2009 23:50:58 3.9 C 4.74 g/m*3 3.9 C 0 km/h
1920 23-01-2009 00:02:58 4 C 4.7 g/m*3 4 C 0 km/h
1921 23-01-2009 00:14:58 4 C 4.7 g/m*3 4 C 0 km/h
1922 23-01-2009 00:26:58 4 C 4.7 g/m*3 4 C 0 km/h
1923 23-01-2009 00:38:57 4 C 4.7 g/m*3 4 C 0 km/h
1924 23-01-2009 00:50:58 4 C 4.7 g/m*3 4 C 0 km/h
1925 23-01-2009 01:02:57 4 C 4.7 g/m*3 4 C 0 km/h
Sensor: Nr:Datum:Temp:Abs-Feuchte:Windchill:Wind:
Aussen-T/F 1926 23-01-2009 01:14:57 4 C 4.77 g/m*3 4 C 0 km/h
1927 23-01-2009 01:26:57 4 C 4.77 g/m*3 4 C 0 km/h
1928 23-01-2009 01:38:58 3.9 C 4.8 g/m*3 3.9 C 0 km/h
1929 23-01-2009 01:50:57 3.8 C 4.77 g/m*3 3.8 C 0 km/h
1930 23-01-2009 02:02:57 3.7 C 4.74 g/m*3 3.7 C 0 km/h
1931 23-01-2009 02:14:56 3.8 C 4.77 g/m*3 3.8 C 0 km/h
1932 23-01-2009 02:26:56 3.8 C 4.77 g/m*3 3.8 C 0 km/h
1933 23-01-2009 02:38:57 3.6 C 4.7 g/m*3 3.6 C 0 km/h
1934 23-01-2009 02:51:58 3.7 C 4.74 g/m*3 3.7 C 0 km/h
1935 23-01-2009 03:03:58 3.7 C 4.74 g/m*3 3.7 C 0 km/h
1936 23-01-2009 03:15:58 3.9 C 4.8 g/m*3 3.9 C 0 km/h
1937 23-01-2009 03:27:58 3.9 C 4.8 g/m*3 3.9 C 0 km/h
1938 23-01-2009 03:39:57 3.9 C 4.8 g/m*3 3.9 C 0 km/h
1939 23-01-2009 03:51:57 3.9 C 4.8 g/m*3 3.9 C 0 km/h
1940 23-01-2009 04:03:58 3.8 C 4.83 g/m*3 3.8 C 0 km/h
1941 23-01-2009 04:15:57 3.8 C 4.83 g/m*3 3.8 C 0 km/h
1942 23-01-2009 04:27:57 3.7 C 4.8 g/m*3 3.7 C 0 km/h
1943 23-01-2009 04:39:57 3.7 C 4.86 g/m*3 3.7 C 0 km/h
1944 23-01-2009 04:51:57 3.7 C 4.86 g/m*3 3.7 C 0 km/h
1945 23-01-2009 05:03:57 3.7 C 4.92 g/m*3 3.7 C 0 km/h
1946 23-01-2009 05:15:56 3.8 C 4.96 g/m*3 3.8 C 0 km/h
1947 23-01-2009 05:27:56 3.8 C 4.96 g/m*3 3.8 C 0 km/h
1948 23-01-2009 05:39:56 3.8 C 4.96 g/m*3 3.8 C 0 km/h
1949 23-01-2009 05:51:56 3.8 C 5.02 g/m*3 3.8 C 0 km/h
1950 23-01-2009 06:03:57 3.9 C 4.93 g/m*3 3.9 C 0 km/h
Sensor: Nr:Datum:Temp:Abs-Feuchte:Windchill:Wind:
Aussen-T/F 1951 23-01-2009 06:15:56 3.7 C 4.8 g/m*3 3.7 C 0 km/h
1952 23-01-2009 06:27:56 3.4 C 4.76 g/m*3 3.4 C 0 km/h
1953 23-01-2009 06:39:56 3.1 C 4.73 g/m*3 3.1 C 0 km/h
1954 23-01-2009 06:51:56 2.9 C 4.9 g/m*3 2.9 C 0 km/h
1955 23-01-2009 07:03:56 2.7 C 4.95 g/m*3 2.7 C 0 km/h
1956 23-01-2009 07:15:55 2.5 C 4.94 g/m*3 2.5 C 0 km/h
1957 23-01-2009 07:27:55 2.5 C 5 g/m*3 2.5 C 0 km/h
1958 23-01-2009 07:39:55 2.4 C 4.97 g/m*3 2.4 C 0 km/h
1959 23-01-2009 07:51:55 2.5 C 5.06 g/m*3 2.5 C 0 km/h
1960 23-01-2009 08:03:55 2.7 C 5.13 g/m*3 2.7 C 0 km/h
1961 23-01-2009 08:15:54 2.7 C 5.13 g/m*3 2.7 C 0 km/h
1962 23-01-2009 08:27:54 2.7 C 5.19 g/m*3 2.7 C 0 km/h
1963 23-01-2009 08:39:55 2.9 C 5.26 g/m*3 2.9 C 0 km/h
1964 23-01-2009 08:51:54 2.9 C 5.26 g/m*3 2.9 C 0 km/h
1965 23-01-2009 09:03:54 2.9 C 5.32 g/m*3 2.9 C 0 km/h
1966 23-01-2009 09:15:55 2.9 C 5.32 g/m*3 2.9 C 0 km/h
1967 23-01-2009 09:27:55 3 C 5.29 g/m*3 3 C 0 km/h
1968 23-01-2009 09:39:54 3 C 5.35 g/m*3 3 C 0 km/h
1969 23-01-2009 09:51:54 3 C 5.35 g/m*3 3 C 0 km/h
1970 23-01-2009 10:03:54 3.1 C 5.39 g/m*3 3.1 C 0 km/h
1971 23-01-2009 10:15:54 3.1 C 5.39 g/m*3 3.1 C 0 km/h
1972 23-01-2009 10:27:54 3.4 C 5.5 g/m*3 3.4 C 0 km/h
1973 23-01-2009 10:39:53 3.5 C 5.53 g/m*3 3.5 C 0 km/h
1974 23-01-2009 10:51:54 3.4 C 5.5 g/m*3 3.4 C 0 km/h
1975 23-01-2009 11:03:54 3.6 C 5.63 g/m*3 3.6 C 0 km/h
Sensor: Nr:Datum:Temp:Abs-Feuchte:Windchill:Wind:
Aussen-T/F 1976 23-01-2009 11:15:53 4 C 5.72 g/m*3 4 C 0 km/h
1977 23-01-2009 11:27:53 4.2 C 5.73 g/m*3 4.2 C 0 km/h
1978 23-01-2009 11:39:53 4.1 C 5.7 g/m*3 4.1 C 0 km/h
1979 23-01-2009 11:51:53 4.2 C 5.8 g/m*3 4.2 C 0 km/h
1980 23-01-2009 12:03:53 4.4 C 5.94 g/m*3 4.4 C 0 km/h
1981 23-01-2009 12:15:52 4.6 C 6.02 g/m*3 4.6 C 0 km/h
1982 23-01-2009 12:27:52 5.2 C 6.27 g/m*3 5.2 C 0 km/h
1983 23-01-2009 12:39:53 5.4 C 6.35 g/m*3 5.4 C 0 km/h
1984 23-01-2009 12:51:52 5.5 C 6.39 g/m*3 5.5 C 0 km/h
1985 23-01-2009 13:03:52 5.5 C 6.39 g/m*3 5.5 C 0 km/h
1986 23-01-2009 13:15:52 5.4 C 6.35 g/m*3 5.4 C 0 km/h
1987 23-01-2009 13:27:52 5.6 C 6.5 g/m*3 5.6 C 0 km/h
1988 23-01-2009 13:39:52 5.6 C 6.5 g/m*3 5.6 C 0 km/h
1989 23-01-2009 13:51:51 5.6 C 6.5 g/m*3 5.6 C 0 km/h
1990 23-01-2009 14:03:52 5.7 C 6.62 g/m*3 5.7 C 0 km/h
1991 23-01-2009 14:15:52 5.7 C 6.62 g/m*3 5.7 C 0 km/h
1992 23-01-2009 14:27:52 5.5 C 6.53 g/m*3 5.5 C 0 km/h
1993 23-01-2009 14:39:51 5.4 C 6.49 g/m*3 5.4 C 0 km/h
1994 23-01-2009 14:51:52 5.9 C 6.78 g/m*3 5.9 C 0 km/h
1995 23-01-2009 15:03:51 6.5 C 7.05 g/m*3 6.5 C 0 km/h
1996 23-01-2009 15:15:51 6.5 C 7.12 g/m*3 6.5 C 0 km/h
1997 23-01-2009 15:27:51 6.6 C 7.17 g/m*3 6.6 C 0 km/h
1998 23-01-2009 15:39:50 6.5 C 7.05 g/m*3 6.5 C 0 km/h
1999 23-01-2009 15:51:51 6.6 C 7.1 g/m*3 6.6 C 0 km/h
2000 23-01-2009 16:03:50 6.7 C 7.14 g/m*3 6.7 C 0 km/h
Sensor: Nr:Datum:Temp:Abs-Feuchte:Windchill:Wind:
Aussen-T/F 2001 23-01-2009 16:15:50 7.1 C 7.18 g/m*3 7.1 C 0 km/h
2002 23-01-2009 16:27:50 7.3 C 7.11 g/m*3 7.3 C 0 km/h
2003 23-01-2009 16:39:51 7.4 C 6.92 g/m*3 7.4 C 0 km/h
2004 23-01-2009 16:51:50 7.3 C 6.56 g/m*3 7.3 C 0 km/h
2005 23-01-2009 17:03:50 7.1 C 6.08 g/m*3 7.1 C 0 km/h
2006 23-01-2009 17:15:50 7.2 C 5.81 g/m*3 7.2 C 0 km/h
2007 23-01-2009 17:27:50 7 C 5.73 g/m*3 7 C 0 km/h
2008 23-01-2009 17:39:50 6.9 C 5.77 g/m*3 6.9 C 0 km/h
2009 23-01-2009 17:51:49 6.3 C 5.55 g/m*3 6.3 C 0 km/h
2010 23-01-2009 18:03:50 6.2 C 5 g/m*3 6.2 C 0 km/h
2011 23-01-2009 18:15:49 6 C 4.72 g/m*3 6 C 0 km/h
2012 23-01-2009 18:27:49 5.9 C 4.69 g/m*3 5.9 C 0 km/h
2013 23-01-2009 18:39:49 5.6 C 4.52 g/m*3 5.6 C 0 km/h
2014 23-01-2009 18:51:49 5.2 C 4.27 g/m*3 5.2 C 0 km/h
2015 23-01-2009 19:03:49 5 C 4.28 g/m*3 5 C 0 km/h
2016 23-01-2009 19:15:49 4.8 C 4.43 g/m*3 4.8 C 0 km/h
2017 23-01-2009 19:27:49 4.5 C 4.47 g/m*3 4.5 C 0 km/h
2018 23-01-2009 19:39:48 4.3 C 4.61 g/m*3 4.3 C 0 km/h
2019 23-01-2009 19:51:48 4 C 4.58 g/m*3 4 C 0 km/h
2020 23-01-2009 20:03:48 3.8 C 4.77 g/m*3 3.8 C 0 km/h
2021 23-01-2009 20:15:48 3.5 C 4.8 g/m*3 3.5 C 0 km/h
2022 23-01-2009 20:27:48 3.3 C 4.91 g/m*3 3.3 C 0 km/h
2023 23-01-2009 20:39:48 3.2 C 4.94 g/m*3 3.2 C 0 km/h
2024 23-01-2009 20:51:48 3.3 C 5.04 g/m*3 3.3 C 0 km/h
2025 23-01-2009 21:03:48 3.5 C 5.1 g/m*3 3.5 C 0 km/h
Sensor: Nr:Datum:Temp:Abs-Feuchte:Windchill:Wind:
Aussen-T/F 2026 23-01-2009 21:15:47 3.5 C 4.98 g/m*3 3.5 C 0 km/h
2027 23-01-2009 21:27:47 3.5 C 4.92 g/m*3 3.5 C 0 km/h
2028 23-01-2009 21:39:48 3.8 C 4.89 g/m*3 3.8 C 0 km/h
2029 23-01-2009 21:51:48 3.8 C 4.77 g/m*3 3.8 C 0 km/h
2030 23-01-2009 22:03:47 3.8 C 4.77 g/m*3 3.8 C 0 km/h
2031 23-01-2009 22:15:47 4 C 4.64 g/m*3 4 C 0 km/h
2032 23-01-2009 22:27:47 4.1 C 4.61 g/m*3 4.1 C 0 km/h
2033 23-01-2009 22:39:47 4 C 4.58 g/m*3 4 C 0 km/h
2034 23-01-2009 22:51:47 4.1 C 4.61 g/m*3 4.1 C 0 km/h
2035 23-01-2009 23:03:46 4.1 C 4.54 g/m*3 4.1 C 0 km/h
2036 23-01-2009 23:15:47 4.1 C 4.54 g/m*3 4.1 C 0 km/h
2037 23-01-2009 23:27:47 4.1 C 4.48 g/m*3 4.1 C 0 km/h
2038 23-01-2009 23:39:46 4.2 C 4.45 g/m*3 4.2 C 0 km/h
2039 23-01-2009 23:51:46 4.1 C 4.35 g/m*3 4.1 C 0 km/h
2040 24-01-2009 00:03:46 4.2 C 4.25 g/m*3 4.2 C 0 km/h
2041 24-01-2009 00:15:46 4.1 C 4.22 g/m*3 4.1 C 0 km/h
2042 24-01-2009 00:27:46 4.2 C 4.12 g/m*3 4.2 C 0 km/h
2043 24-01-2009 00:39:46 4.2 C 4.06 g/m*3 4.2 C 0 km/h
2044 24-01-2009 00:51:45 4.2 C 4.06 g/m*3 4.2 C 0 km/h
2045 24-01-2009 01:03:45 4.2 C 3.99 g/m*3 4.2 C 0 km/h
2046 24-01-2009 01:15:46 4.2 C 3.99 g/m*3 4.2 C 0 km/h
2047 24-01-2009 01:27:46 4.2 C 3.99 g/m*3 4.2 C 0 km/h
2048 24-01-2009 01:39:45 4.2 C 3.93 g/m*3 4.2 C 0 km/h
2049 24-01-2009 01:51:45 4.1 C 3.97 g/m*3 4.1 C 0 km/h
2050 24-01-2009 02:03:45 4.1 C 3.97 g/m*3 4.1 C 0 km/h
Sensor: Nr:Datum:Temp:Abs-Feuchte:Windchill:Wind:
Aussen-T/F 2051 24-01-2009 02:15:45 4 C 3.94 g/m*3 4 C 0 km/h
2052 24-01-2009 02:27:45 3.8 C 4.08 g/m*3 3.8 C 0 km/h
2053 24-01-2009 02:39:44 3.8 C 4.08 g/m*3 3.8 C 0 km/h
2054 24-01-2009 02:52:46 3.9 C 4.17 g/m*3 3.9 C 0 km/h
2055 24-01-2009 03:04:46 3.8 C 4.2 g/m*3 3.8 C 0 km/h
2056 24-01-2009 03:16:46 3.6 C 4.27 g/m*3 3.6 C 0 km/h
2057 24-01-2009 03:28:46 3.5 C 4.24 g/m*3 3.5 C 0 km/h
2058 24-01-2009 03:40:46 3.5 C 4.3 g/m*3 3.5 C 0 km/h
2059 24-01-2009 03:52:46 3.4 C 4.28 g/m*3 3.4 C 0 km/h
2060 24-01-2009 04:04:45 3.3 C 4.25 g/m*3 3.3 C 0 km/h
2061 24-01-2009 04:16:45 3.2 C 4.28 g/m*3 3.2 C 0 km/h
2062 24-01-2009 04:28:45 2.8 C 4.22 g/m*3 2.8 C 0 km/h
2063 24-01-2009 04:40:45 2.7 C 4.25 g/m*3 2.7 C 0 km/h
2064 24-01-2009 04:52:45 2.7 C 4.2 g/m*3 2.7 C 0 km/h
2065 24-01-2009 05:04:45 2.7 C 4.2 g/m*3 2.7 C 0 km/h
2066 24-01-2009 05:16:45 2.8 C 4.16 g/m*3 2.8 C 0 km/h
2067 24-01-2009 05:28:45 2.7 C 4.2 g/m*3 2.7 C 0 km/h
2068 24-01-2009 05:40:44 2.7 C 4.2 g/m*3 2.7 C 0 km/h
2069 24-01-2009 05:52:44 2.1 C 4.08 g/m*3 2.1 C 0 km/h
2070 24-01-2009 06:04:44 1.8 C 4.17 g/m*3 1.8 C 0 km/h
2071 24-01-2009 06:16:44 1.5 C 4.14 g/m*3 1.5 C 0 km/h
2072 24-01-2009 06:28:44 1.6 C 4.27 g/m*3 1.6 C 0 km/h
2073 24-01-2009 06:40:44 1.6 C 4.27 g/m*3 1.6 C 0 km/h
2074 24-01-2009 06:52:43 1.4 C 4.21 g/m*3 1.4 C 0 km/h
2075 24-01-2009 07:04:44 1 C 4.15 g/m*3 1 C 0 km/h
Sensor: Nr:Datum:Temp:Abs-Feuchte:Windchill:Wind:
Aussen-T/F 2076 24-01-2009 07:16:44 0.8 C 4.2 g/m*3 0.8 C 0 km/h
2077 24-01-2009 07:28:44 0.7 C 4.22 g/m*3 0.7 C 0 km/h
2078 24-01-2009 07:40:43 0.7 C 4.27 g/m*3 0.7 C 0 km/h
2079 24-01-2009 07:52:44 0.5 C 4.21 g/m*3 0.5 C 0 km/h
2080 24-01-2009 08:04:43 0.5 C 4.26 g/m*3 0.5 C 0 km/h
2081 24-01-2009 08:16:43 0.5 C 4.26 g/m*3 0.5 C 0 km/h
2082 24-01-2009 08:28:43 0.6 C 4.29 g/m*3 0.6 C 0 km/h
2083 24-01-2009 08:40:43 0.8 C 4.35 g/m*3 0.8 C 0 km/h
2084 24-01-2009 08:52:43 0.8 C 4.35 g/m*3 0.8 C 0 km/h
2085 24-01-2009 09:04:43 0.8 C 4.35 g/m*3 0.8 C 0 km/h
2086 24-01-2009 09:16:43 0.9 C 4.38 g/m*3 0.9 C 0 km/h
2087 24-01-2009 09:28:43 0.8 C 4.35 g/m*3 0.8 C 0 km/h
2088 24-01-2009 09:40:42 0.7 C 4.32 g/m*3 0.7 C 0 km/h
2089 24-01-2009 09:52:43 0.7 C 4.32 g/m*3 0.7 C 0 km/h
2090 24-01-2009 10:04:42 0.7 C 4.37 g/m*3 0.7 C 0 km/h
2091 24-01-2009 10:16:42 0.9 C 4.43 g/m*3 0.9 C 0 km/h
2092 24-01-2009 10:28:42 1 C 4.46 g/m*3 1 C 0 km/h
2093 24-01-2009 10:40:41 1.3 C 4.56 g/m*3 1.3 C 0 km/h
2094 24-01-2009 10:52:42 1.4 C 4.59 g/m*3 1.4 C 0 km/h
2095 24-01-2009 11:04:41 1.6 C 4.65 g/m*3 1.6 C 0 km/h
2096 24-01-2009 11:16:41 1.9 C 4.69 g/m*3 1.9 C 0 km/h
2097 24-01-2009 11:28:42 2.2 C 4.62 g/m*3 2.2 C 0 km/h
2098 24-01-2009 11:40:41 2.4 C 4.45 g/m*3 2.4 C 0 km/h
2099 24-01-2009 11:52:41 2.7 C 4.43 g/m*3 2.7 C 0 km/h
2100 24-01-2009 12:04:41 3.1 C 4.37 g/m*3 3.1 C 0 km/h
Sensor: Nr:Datum:Temp:Abs-Feuchte:Windchill:Wind:
Aussen-T/F 2101 24-01-2009 12:16:41 3.7 C 4.42 g/m*3 3.7 C 0 km/h
2102 24-01-2009 12:28:41 4.4 C 4.24 g/m*3 4.4 C 0 km/h
2103 24-01-2009 12:40:40 4.6 C 3.97 g/m*3 4.6 C 0 km/h
2104 24-01-2009 12:52:41 4.6 C 3.9 g/m*3 4.6 C 0 km/h
2105 24-01-2009 13:04:40 4.8 C 3.96 g/m*3 4.8 C 0 km/h
2106 24-01-2009 13:16:40 5.3 C 3.95 g/m*3 5.3 C 0 km/h
2107 24-01-2009 13:28:40 4.9 C 4.05 g/m*3 4.9 C 0 km/h
2108 24-01-2009 13:40:40 4.7 C 4.06 g/m*3 4.7 C 0 km/h
2109 24-01-2009 13:52:40 4.8 C 4.16 g/m*3 4.8 C 0 km/h
2110 24-01-2009 14:04:40 4.7 C 4.13 g/m*3 4.7 C 0 km/h
2111 24-01-2009 14:16:39 4.7 C 4.2 g/m*3 4.7 C 0 km/h
2112 24-01-2009 14:28:39 4.6 C 4.1 g/m*3 4.6 C 0 km/h
2113 24-01-2009 14:40:40 4.6 C 4.1 g/m*3 4.6 C 0 km/h
2114 24-01-2009 14:52:39 4.7 C 4.2 g/m*3 4.7 C 0 km/h
2115 24-01-2009 15:04:39 4.8 C 4.16 g/m*3 4.8 C 0 km/h
2116 24-01-2009 15:16:40 5.1 C 4.17 g/m*3 5.1 C 0 km/h
2117 24-01-2009 15:28:40 5.4 C 4.26 g/m*3 5.4 C 0 km/h
2118 24-01-2009 15:40:40 5.4 C 3.84 g/m*3 5.4 C 0 km/h
2119 24-01-2009 15:52:40 5.1 C 3.83 g/m*3 5.1 C 0 km/h
2120 24-01-2009 16:04:42 4.9 C 3.92 g/m*3 4.9 C 0 km/h
2121 24-01-2009 16:16:39 4.7 C 3.93 g/m*3 4.7 C 0 km/h
2122 24-01-2009 16:28:39 4.6 C 4.04 g/m*3 4.6 C 0 km/h
2123 24-01-2009 16:40:38 4.4 C 4.11 g/m*3 4.4 C 0 km/h
2124 24-01-2009 16:52:04 4.3 C 4.15 g/m*3 4.3 C 0 km/h
2125 24-01-2009 17:04:04 4.2 C 4.19 g/m*3 4.2 C 0 km/h
Sensor: Nr:Datum:Temp:Abs-Feuchte:Windchill:Wind:
Aussen-T/F 2126 24-01-2009 17:16:01 4.1 C 4.22 g/m*3 4.1 C 0 km/h
2127 24-01-2009 17:28:01 4 C 4.26 g/m*3 4 C 0 km/h
2128 24-01-2009 17:40:02 4 C 4.32 g/m*3 4 C 0 km/h
2129 24-01-2009 17:52:01 3.9 C 4.36 g/m*3 3.9 C 0 km/h
2130 24-01-2009 18:04:01 3.9 C 4.42 g/m*3 3.9 C 0 km/h
2131 24-01-2009 18:16:01 3.8 C 4.45 g/m*3 3.8 C 0 km/h
2132 24-01-2009 18:28:01 3.8 C 4.45 g/m*3 3.8 C 0 km/h
2133 24-01-2009 18:40:01 3.8 C 4.45 g/m*3 3.8 C 0 km/h
2134 24-01-2009 18:52:00 3.8 C 4.45 g/m*3 3.8 C 0 km/h
2135 24-01-2009 19:04:01 3.8 C 4.39 g/m*3 3.8 C 0 km/h
2136 24-01-2009 19:16:00 3.7 C 4.42 g/m*3 3.7 C 0 km/h
2137 24-01-2009 19:28:00 3.7 C 4.49 g/m*3 3.7 C 0 km/h
2138 24-01-2009 19:40:00 3.6 C 4.46 g/m*3 3.6 C 0 km/h
2139 24-01-2009 19:52:00 3.3 C 4.31 g/m*3 3.3 C 0 km/h
2140 24-01-2009 20:04:00 3 C 4.34 g/m*3 3 C 0 km/h
2141 24-01-2009 20:15:59 2.8 C 4.4 g/m*3 2.8 C 0 km/h
2142 24-01-2009 20:27:59 3 C 4.46 g/m*3 3 C 0 km/h
2143 24-01-2009 20:40:00 3.1 C 4.49 g/m*3 3.1 C 0 km/h
2144 24-01-2009 20:52:59 3.2 C 4.46 g/m*3 3.2 C 0 km/h
2145 24-01-2009 21:04:00 3.2 C 4.46 g/m*3 3.2 C 0 km/h
2146 24-01-2009 21:16:59 3 C 4.4 g/m*3 3 C 0 km/h
2147 24-01-2009 21:28:59 3.1 C 4.43 g/m*3 3.1 C 0 km/h
2148 24-01-2009 21:40:59 3.2 C 4.4 g/m*3 3.2 C 0 km/h
2149 24-01-2009 21:52:59 3.3 C 4.43 g/m*3 3.3 C 0 km/h
2150 24-01-2009 22:05:00 3.2 C 4.4 g/m*3 3.2 C 0 km/h
Sensor: Nr:Datum:Temp:Abs-Feuchte:Windchill:Wind:
Aussen-T/F 2151 24-01-2009 22:17:00 3 C 4.34 g/m*3 3 C 0 km/h
2152 24-01-2009 22:29:00 3 C 4.4 g/m*3 3 C 0 km/h
2153 24-01-2009 22:41:00 3 C 4.4 g/m*3 3 C 0 km/h
2154 24-01-2009 22:53:00 3 C 4.4 g/m*3 3 C 0 km/h
2155 24-01-2009 23:05:00 2.8 C 4.4 g/m*3 2.8 C 0 km/h
2156 24-01-2009 23:17:00 2.8 C 4.46 g/m*3 2.8 C 0 km/h
2157 24-01-2009 23:29:00 2.7 C 4.43 g/m*3 2.7 C 0 km/h
2158 24-01-2009 23:41:00 2.6 C 4.4 g/m*3 2.6 C 0 km/h
2159 24-01-2009 23:53:00 2.6 C 4.4 g/m*3 2.6 C 0 km/h
2160 25-01-2009 00:05:00 2.4 C 4.34 g/m*3 2.4 C 0 km/h
2161 25-01-2009 00:17:00 2.2 C 4.34 g/m*3 2.2 C 0 km/h
2162 25-01-2009 00:29:00 2.1 C 4.31 g/m*3 2.1 C 0 km/h
2163 25-01-2009 00:41:00 1.8 C 4.33 g/m*3 1.8 C 0 km/h
2164 25-01-2009 00:53:00 1.6 C 4.33 g/m*3 1.6 C 0 km/h
2165 25-01-2009 01:05:00 1.4 C 4.32 g/m*3 1.4 C 0 km/h
2166 25-01-2009 01:17:00 1.2 C 4.37 g/m*3 1.2 C 0 km/h
2167 25-01-2009 01:29:01 1 C 4.31 g/m*3 1 C 0 km/h
2168 25-01-2009 01:41:01 0.7 C 4.27 g/m*3 0.7 C 0 km/h
2169 25-01-2009 01:53:01 0.7 C 4.32 g/m*3 0.7 C 0 km/h
2170 25-01-2009 02:05:01 0.6 C 4.34 g/m*3 0.6 C 0 km/h
2171 25-01-2009 02:17:01 0.5 C 4.31 g/m*3 0.5 C 0 km/h
2172 25-01-2009 02:29:01 0.3 C 4.25 g/m*3 0.3 C 0 km/h
2173 25-01-2009 02:41:01 0.3 C 4.3 g/m*3 0.3 C 0 km/h
2174 25-01-2009 02:53:01 0.3 C 4.3 g/m*3 0.3 C 0 km/h
2175 25-01-2009 03:05:01 0.3 C 4.3 g/m*3 0.3 C 0 km/h
Sensor: Nr:Datum:Temp:Abs-Feuchte:Windchill:Wind:
Aussen-T/F 2176 25-01-2009 03:17:01 0.2 C 4.32 g/m*3 0.2 C 0 km/h
2177 25-01-2009 03:29:01 0.2 C 4.32 g/m*3 0.2 C 0 km/h
2178 25-01-2009 03:41:01 0.1 C 4.29 g/m*3 0.1 C 0 km/h
2179 25-01-2009 03:53:01 -0.1 C 4.23 g/m*3 -0.1 C 0 km/h
2180 25-01-2009 04:05:01 -0.2 C 4.21 g/m*3 -0.2 C 0 km/h
2181 25-01-2009 04:17:01 -0.7 C 4.06 g/m*3 -0.7 C 0 km/h
2182 25-01-2009 04:29:01 -0.9 C 4.01 g/m*3 -0.9 C 0 km/h
2183 25-01-2009 04:41:01 -1.2 C 3.92 g/m*3 -1.2 C 0 km/h
2184 25-01-2009 04:53:01 -1.5 C 3.84 g/m*3 -1.5 C 0 km/h
2185 25-01-2009 05:05:01 -1.4 C 3.87 g/m*3 -1.4 C 0 km/h
2186 25-01-2009 05:17:02 -1.6 C 3.86 g/m*3 -1.6 C 0 km/h
2187 25-01-2009 05:29:02 -1.7 C 3.83 g/m*3 -1.7 C 0 km/h
2188 25-01-2009 05:41:02 -1.8 C 3.8 g/m*3 -1.8 C 0 km/h
2189 25-01-2009 05:53:02 -1.2 C 4.01 g/m*3 -1.2 C 0 km/h
2190 25-01-2009 06:05:02 -1.1 C 4.09 g/m*3 -1.1 C 0 km/h
2191 25-01-2009 06:17:02 -1 C 4.11 g/m*3 -1 C 0 km/h
2192 25-01-2009 06:29:02 -0.9 C 4.19 g/m*3 -0.9 C 0 km/h
2193 25-01-2009 06:41:02 -0.8 C 4.22 g/m*3 -0.8 C 0 km/h
2194 25-01-2009 06:53:02 -1 C 4.16 g/m*3 -1 C 0 km/h
2195 25-01-2009 07:05:02 -1.1 C 4.09 g/m*3 -1.1 C 0 km/h
2196 25-01-2009 07:17:02 -1.2 C 4.06 g/m*3 -1.2 C 0 km/h
2197 25-01-2009 07:29:02 -1.4 C 4 g/m*3 -1.4 C 0 km/h
2198 25-01-2009 07:41:02 -1.5 C 3.97 g/m*3 -1.5 C 0 km/h
2199 25-01-2009 07:53:02 -1.7 C 3.92 g/m*3 -1.7 C 0 km/h
2200 25-01-2009 08:05:02 -1.8 C 3.89 g/m*3 -1.8 C 0 km/h
Sensor: Nr:Datum:Temp:Abs-Feuchte:Windchill:Wind:
Aussen-T/F 2201 25-01-2009 08:17:02 -1.6 C 3.99 g/m*3 -1.6 C 0 km/h
2202 25-01-2009 08:29:02 -1.9 C 3.86 g/m*3 -1.9 C 0 km/h
2203 25-01-2009 08:41:02 -1.8 C 3.93 g/m*3 -1.8 C 0 km/h
2204 25-01-2009 08:53:59 -1.7 C 3.96 g/m*3 -1.7 C 0 km/h
2205 25-01-2009 09:05:59 -1.7 C 3.96 g/m*3 -1.7 C 0 km/h
2206 25-01-2009 09:17:58 -1.6 C 3.99 g/m*3 -1.6 C 0 km/h
2207 25-01-2009 09:29:58 -1.5 C 4.02 g/m*3 -1.5 C 0 km/h
2208 25-01-2009 09:41:59 -1.3 C 4.07 g/m*3 -1.3 C 0 km/h
2209 25-01-2009 09:53:58 -1.5 C 4.02 g/m*3 -1.5 C 0 km/h
2210 25-01-2009 10:05:59 -1.4 C 4.04 g/m*3 -1.4 C 0 km/h
2211 25-01-2009 10:17:59 -1.3 C 4.07 g/m*3 -1.3 C 0 km/h
2212 25-01-2009 10:29:59 -1.2 C 4.1 g/m*3 -1.2 C 0 km/h
2213 25-01-2009 10:41:58 -1 C 4.16 g/m*3 -1 C 0 km/h
2214 25-01-2009 10:53:59 -0.8 C 4.26 g/m*3 -0.8 C 0 km/h
2215 25-01-2009 11:05:58 -0.6 C 4.32 g/m*3 -0.6 C 0 km/h
2216 25-01-2009 11:17:58 -0.5 C 4.31 g/m*3 -0.5 C 0 km/h
2217 25-01-2009 11:29:58 -0.4 C 4.34 g/m*3 -0.4 C 0 km/h
2218 25-01-2009 11:41:57 -0.2 C 4.44 g/m*3 -0.2 C 0 km/h
2219 25-01-2009 11:53:58 0.3 C 4.6 g/m*3 0.3 C 0 km/h
2220 25-01-2009 12:05:57 0.5 C 4.66 g/m*3 0.5 C 0 km/h
2221 25-01-2009 12:17:57 1 C 4.78 g/m*3 1 C 0 km/h
2222 25-01-2009 12:29:57 1.5 C 4.89 g/m*3 1.5 C 0 km/h
2223 25-01-2009 12:41:57 1.9 C 4.91 g/m*3 1.9 C 0 km/h
2224 25-01-2009 12:53:57 2.4 C 4.97 g/m*3 2.4 C 0 km/h
2225 25-01-2009 13:05:57 3 C 4.93 g/m*3 3 C 0 km/h
Sensor: Nr:Datum:Temp:Abs-Feuchte:Windchill:Wind:
Aussen-T/F 2226 25-01-2009 13:17:56 3.1 C 4.67 g/m*3 3.1 C 0 km/h
2227 25-01-2009 13:29:56 3 C 4.34 g/m*3 3 C 0 km/h
2228 25-01-2009 13:41:57 3.4 C 4.46 g/m*3 3.4 C 0 km/h
2229 25-01-2009 13:53:56 3.9 C 4.29 g/m*3 3.9 C 0 km/h
2230 25-01-2009 14:05:56 4.2 C 3.99 g/m*3 4.2 C 0 km/h
2231 25-01-2009 14:17:57 4.5 C 3.94 g/m*3 4.5 C 0 km/h
2232 25-01-2009 14:29:57 5 C 3.87 g/m*3 5 C 0 km/h
2233 25-01-2009 14:41:56 5.4 C 3.7 g/m*3 5.4 C 0 km/h
2234 25-01-2009 14:53:56 5.4 C 3.56 g/m*3 5.4 C 0 km/h
2235 25-01-2009 15:05:56 5.2 C 3.51 g/m*3 5.2 C 0 km/h
2236 25-01-2009 15:17:56 5.3 C 3.53 g/m*3 5.3 C 0 km/h
2237 25-01-2009 15:29:56 4.6 C 3.57 g/m*3 4.6 C 0 km/h
2238 25-01-2009 15:41:55 3.6 C 3.65 g/m*3 3.6 C 0 km/h
2239 25-01-2009 15:53:55 3.2 C 3.74 g/m*3 3.2 C 0 km/h
2240 25-01-2009 16:05:55 2.8 C 3.81 g/m*3 2.8 C 0 km/h
2241 25-01-2009 16:17:55 2.6 C 3.82 g/m*3 2.6 C 0 km/h
2242 25-01-2009 16:29:55 2.3 C 3.8 g/m*3 2.3 C 0 km/h
2243 25-01-2009 16:41:55 2.1 C 3.8 g/m*3 2.1 C 0 km/h
2244 25-01-2009 16:53:55 1.8 C 3.89 g/m*3 1.8 C 0 km/h
2245 25-01-2009 17:05:54 1.6 C 3.89 g/m*3 1.6 C 0 km/h
2246 25-01-2009 17:17:55 1.3 C 3.87 g/m*3 1.3 C 0 km/h
2247 25-01-2009 17:29:55 1 C 3.89 g/m*3 1 C 0 km/h
2248 25-01-2009 17:41:54 0.7 C 3.92 g/m*3 0.7 C 0 km/h
2249 25-01-2009 17:53:55 0.4 C 3.88 g/m*3 0.4 C 0 km/h
2250 25-01-2009 18:05:54 0 C 3.78 g/m*3 0 C 0 km/h
Sensor: Nr:Datum:Temp:Abs-Feuchte:Windchill:Wind:
Aussen-T/F 2251 25-01-2009 18:17:54 -0.3 C 3.8 g/m*3 -0.3 C 0 km/h
2252 25-01-2009 18:29:54 -0.4 C 3.82 g/m*3 -0.4 C 0 km/h
2253 25-01-2009 18:41:54 -0.5 C 3.79 g/m*3 -0.5 C 0 km/h
2254 25-01-2009 18:53:53 -0.5 C 3.88 g/m*3 -0.5 C 0 km/h
2255 25-01-2009 19:05:54 -0.6 C 3.86 g/m*3 -0.6 C 0 km/h
2256 25-01-2009 19:17:53 -0.7 C 3.88 g/m*3 -0.7 C 0 km/h
2257 25-01-2009 19:29:53 -0.8 C 3.85 g/m*3 -0.8 C 0 km/h
2258 25-01-2009 19:41:53 -0.9 C 3.82 g/m*3 -0.9 C 0 km/h
2259 25-01-2009 19:53:53 -1.1 C 3.82 g/m*3 -1.1 C 0 km/h
2260 25-01-2009 20:05:53 -1.2 C 3.79 g/m*3 -1.2 C 0 km/h
2261 25-01-2009 20:17:53 -1.3 C 3.81 g/m*3 -1.3 C 0 km/h
2262 25-01-2009 20:29:53 -1.3 C 3.85 g/m*3 -1.3 C 0 km/h
2263 25-01-2009 20:41:53 -1.3 C 3.85 g/m*3 -1.3 C 0 km/h
2264 25-01-2009 20:53:53 -1.3 C 3.85 g/m*3 -1.3 C 0 km/h
2265 25-01-2009 21:05:52 -1.5 C 3.84 g/m*3 -1.5 C 0 km/h
2266 25-01-2009 21:17:53 -1.5 C 3.84 g/m*3 -1.5 C 0 km/h
2267 25-01-2009 21:29:53 -1.6 C 3.81 g/m*3 -1.6 C 0 km/h
2268 25-01-2009 21:41:52 -1.7 C 3.79 g/m*3 -1.7 C 0 km/h
2269 25-01-2009 21:53:52 -1.6 C 3.81 g/m*3 -1.6 C 0 km/h
2270 25-01-2009 22:05:52 -1.7 C 3.83 g/m*3 -1.7 C 0 km/h
2271 25-01-2009 22:17:52 -1.8 C 3.8 g/m*3 -1.8 C 0 km/h
2272 25-01-2009 22:29:52 -1.9 C 3.78 g/m*3 -1.9 C 0 km/h
2273 25-01-2009 22:41:51 -1.8 C 3.8 g/m*3 -1.8 C 0 km/h
2274 25-01-2009 22:54:53 -1.9 C 3.78 g/m*3 -1.9 C 0 km/h
2275 25-01-2009 23:06:53 -1.8 C 3.85 g/m*3 -1.8 C 0 km/h
Sensor: Nr:Datum:Temp:Abs-Feuchte:Windchill:Wind:
Aussen-T/F 2276 25-01-2009 23:18:53 -1.9 C 3.82 g/m*3 -1.9 C 0 km/h
2277 25-01-2009 23:30:53 -1.9 C 3.82 g/m*3 -1.9 C 0 km/h
2278 25-01-2009 23:42:53 -2 C 3.79 g/m*3 -2 C 0 km/h
2279 25-01-2009 23:54:53 -2.1 C 3.77 g/m*3 -2.1 C 0 km/h
2280 26-01-2009 00:06:53 -2.2 C 3.74 g/m*3 -2.2 C 0 km/h
2281 26-01-2009 00:18:53 -2.4 C 3.69 g/m*3 -2.4 C 0 km/h
2282 26-01-2009 00:30:53 -2.4 C 3.69 g/m*3 -2.4 C 0 km/h
2283 26-01-2009 00:42:53 -2.5 C 3.62 g/m*3 -2.5 C 0 km/h
2284 26-01-2009 00:54:53 -2.5 C 3.66 g/m*3 -2.5 C 0 km/h
2285 26-01-2009 01:06:53 -2.5 C 3.66 g/m*3 -2.5 C 0 km/h
2286 26-01-2009 01:18:53 -2.7 C 3.57 g/m*3 -2.7 C 0 km/h
2287 26-01-2009 01:30:53 -2.9 C 3.52 g/m*3 -2.9 C 0 km/h
2288 26-01-2009 01:42:53 -3 C 3.5 g/m*3 -3 C 0 km/h
2289 26-01-2009 01:54:53 -3.1 C 3.47 g/m*3 -3.1 C 0 km/h
2290 26-01-2009 02:06:53 -3.2 C 3.45 g/m*3 -3.2 C 0 km/h
2291 26-01-2009 02:18:53 -3.2 C 3.45 g/m*3 -3.2 C 0 km/h
2292 26-01-2009 02:30:54 -3.3 C 3.42 g/m*3 -3.3 C 0 km/h
2293 26-01-2009 02:42:54 -3.2 C 3.49 g/m*3 -3.2 C 0 km/h
2294 26-01-2009 02:54:54 -3.2 C 3.49 g/m*3 -3.2 C 0 km/h
2295 26-01-2009 03:06:54 -3.2 C 3.49 g/m*3 -3.2 C 0 km/h
2296 26-01-2009 03:18:54 -3.3 C 3.46 g/m*3 -3.3 C 0 km/h
2297 26-01-2009 03:30:54 -3.4 C 3.47 g/m*3 -3.4 C 0 km/h
2298 26-01-2009 03:42:54 -3.4 C 3.47 g/m*3 -3.4 C 0 km/h
2299 26-01-2009 03:54:54 -3.4 C 3.47 g/m*3 -3.4 C 0 km/h
2300 26-01-2009 04:06:54 -3.5 C 3.45 g/m*3 -3.5 C 0 km/h
Sensor: Nr:Datum:Temp:Abs-Feuchte:Windchill:Wind:
Aussen-T/F 2301 26-01-2009 04:18:54 -3.8 C 3.38 g/m*3 -3.8 C 0 km/h
2302 26-01-2009 04:30:54 -3.7 C 3.4 g/m*3 -3.7 C 0 km/h
2303 26-01-2009 04:42:54 -3.8 C 3.38 g/m*3 -3.8 C 0 km/h
2304 26-01-2009 04:54:54 -3.8 C 3.38 g/m*3 -3.8 C 0 km/h
2305 26-01-2009 05:06:54 -3.8 C 3.38 g/m*3 -3.8 C 0 km/h
2306 26-01-2009 05:18:54 -3.9 C 3.39 g/m*3 -3.9 C 0 km/h
2307 26-01-2009 05:30:54 -3.7 C 3.44 g/m*3 -3.7 C 0 km/h
2308 26-01-2009 05:42:54 -3.7 C 3.44 g/m*3 -3.7 C 0 km/h
2309 26-01-2009 05:54:54 -3.6 C 3.46 g/m*3 -3.6 C 0 km/h
2310 26-01-2009 06:06:54 -3.5 C 3.49 g/m*3 -3.5 C 0 km/h
2311 26-01-2009 06:18:55 -3.4 C 3.55 g/m*3 -3.4 C 0 km/h
2312 26-01-2009 06:30:55 -3.4 C 3.55 g/m*3 -3.4 C 0 km/h
2313 26-01-2009 06:42:55 -3.4 C 3.55 g/m*3 -3.4 C 0 km/h
2314 26-01-2009 06:54:55 -3.3 C 3.58 g/m*3 -3.3 C 0 km/h
2315 26-01-2009 07:06:52 -3.4 C 3.55 g/m*3 -3.4 C 0 km/h
2316 26-01-2009 07:18:53 -3.3 C 3.58 g/m*3 -3.3 C 0 km/h
2317 26-01-2009 07:30:52 -3.4 C 3.55 g/m*3 -3.4 C 0 km/h
2318 26-01-2009 07:42:52 -3.5 C 3.53 g/m*3 -3.5 C 0 km/h
2319 26-01-2009 07:54:52 -3.5 C 3.53 g/m*3 -3.5 C 0 km/h
2320 26-01-2009 08:06:52 -3.4 C 3.59 g/m*3 -3.4 C 0 km/h
2321 26-01-2009 08:18:52 -3.3 C 3.61 g/m*3 -3.3 C 0 km/h
2322 26-01-2009 08:30:52 -3.4 C 3.59 g/m*3 -3.4 C 0 km/h
2323 26-01-2009 08:42:52 -3.4 C 3.59 g/m*3 -3.4 C 0 km/h
2324 26-01-2009 08:54:52 -3.4 C 3.59 g/m*3 -3.4 C 0 km/h
2325 26-01-2009 09:06:52 -3.1 C 3.67 g/m*3 -3.1 C 0 km/h
Sensor: Nr:Datum:Temp:Abs-Feuchte:Windchill:Wind:
Aussen-T/F 2326 26-01-2009 09:18:51 -3.1 C 3.67 g/m*3 -3.1 C 0 km/h
2327 26-01-2009 09:30:51 -3.1 C 3.67 g/m*3 -3.1 C 0 km/h
2328 26-01-2009 09:42:51 -3.1 C 3.67 g/m*3 -3.1 C 0 km/h
2329 26-01-2009 09:54:51 -2.9 C 3.72 g/m*3 -2.9 C 0 km/h
2330 26-01-2009 10:06:51 -2.6 C 3.8 g/m*3 -2.6 C 0 km/h
2331 26-01-2009 10:18:50 -2.2 C 3.91 g/m*3 -2.2 C 0 km/h
2332 26-01-2009 10:30:51 -2 C 3.96 g/m*3 -2 C 0 km/h
2333 26-01-2009 10:42:51 -1.7 C 4.05 g/m*3 -1.7 C 0 km/h
2334 26-01-2009 10:54:50 -1.5 C 4.1 g/m*3 -1.5 C 0 km/h
2335 26-01-2009 11:06:50 -1.6 C 4.03 g/m*3 -1.6 C 0 km/h
2336 26-01-2009 11:18:51 -1.8 C 3.93 g/m*3 -1.8 C 0 km/h
2337 26-01-2009 11:30:50 -1.9 C 3.82 g/m*3 -1.9 C 0 km/h
2338 26-01-2009 11:42:50 -1.6 C 3.9 g/m*3 -1.6 C 0 km/h
2339 26-01-2009 11:54:50 -1.1 C 4.04 g/m*3 -1.1 C 0 km/h
2340 26-01-2009 12:06:50 -0.4 C 4.19 g/m*3 -0.4 C 0 km/h
2341 26-01-2009 12:18:50 -0.1 C 4.23 g/m*3 -0.1 C 0 km/h
2342 26-01-2009 12:30:49 0.3 C 4.3 g/m*3 0.3 C 0 km/h
2343 26-01-2009 12:42:49 0 C 4.07 g/m*3 0 C 0 km/h
2344 26-01-2009 12:54:50 0.1 C 4.05 g/m*3 0.1 C 0 km/h
2345 26-01-2009 13:06:50 0.5 C 4.16 g/m*3 0.5 C 0 km/h
2346 26-01-2009 13:18:50 0.7 C 4.17 g/m*3 0.7 C 0 km/h
2347 26-01-2009 13:30:52 0.6 C 4.14 g/m*3 0.6 C 0 km/h
2348 26-01-2009 13:42:52 0.6 C 4.14 g/m*3 0.6 C 0 km/h
2349 26-01-2009 13:54:49 1 C 4.26 g/m*3 1 C 0 km/h
2350 26-01-2009 14:06:48 1.3 C 4.34 g/m*3 1.3 C 0 km/h
Sensor: Nr:Datum:Temp:Abs-Feuchte:Windchill:Wind:
Aussen-T/F 2351 26-01-2009 14:18:49 1.3 C 4.24 g/m*3 1.3 C 0 km/h
2352 26-01-2009 14:30:49 1.2 C 4.21 g/m*3 1.2 C 0 km/h
2353 26-01-2009 14:42:49 1.1 C 4.18 g/m*3 1.1 C 0 km/h
2354 26-01-2009 14:54:48 1.2 C 4.21 g/m*3 1.2 C 0 km/h
2355 26-01-2009 15:06:49 1.3 C 4.24 g/m*3 1.3 C 0 km/h
2356 26-01-2009 15:18:48 1.2 C 4.21 g/m*3 1.2 C 0 km/h
2357 26-01-2009 15:30:48 1.1 C 4.18 g/m*3 1.1 C 0 km/h
2358 26-01-2009 15:42:48 1 C 4.2 g/m*3 1 C 0 km/h
2359 26-01-2009 15:54:48 0.9 C 4.23 g/m*3 0.9 C 0 km/h
2360 26-01-2009 16:06:47 0.7 C 4.17 g/m*3 0.7 C 0 km/h
2361 26-01-2009 16:18:48 0.4 C 4.08 g/m*3 0.4 C 0 km/h
2362 26-01-2009 16:30:47 0.2 C 4.03 g/m*3 0.2 C 0 km/h
2363 26-01-2009 16:42:47 -0.2 C 3.92 g/m*3 -0.2 C 0 km/h
2364 26-01-2009 16:54:27 -0.5 C 3.84 g/m*3 -0.5 C 0 km/h
2365 26-01-2009 17:06:02 -0.8 C 3.76 g/m*3 -0.8 C 0 km/h
2366 26-01-2009 17:18:02 -1 C 3.75 g/m*3 -1 C 0 km/h
2367 26-01-2009 17:30:02 -1.4 C 3.69 g/m*3 -1.4 C 0 km/h
2368 26-01-2009 17:42:02 -1.7 C 3.62 g/m*3 -1.7 C 0 km/h
2369 26-01-2009 17:54:02 -1.8 C 3.63 g/m*3 -1.8 C 0 km/h
2370 26-01-2009 18:06:01 -1.8 C 3.72 g/m*3 -1.8 C 0 km/h
2371 26-01-2009 18:18:01 -1.9 C 3.69 g/m*3 -1.9 C 0 km/h
2372 26-01-2009 18:30:01 -2 C 3.67 g/m*3 -2 C 0 km/h
2373 26-01-2009 18:42:01 -2 C 3.71 g/m*3 -2 C 0 km/h
2374 26-01-2009 18:54:01 -2.1 C 3.68 g/m*3 -2.1 C 0 km/h
2375 26-01-2009 19:06:00 -2.1 C 3.68 g/m*3 -2.1 C 0 km/h
Sensor: Nr:Datum:Temp:Abs-Feuchte:Windchill:Wind:
Aussen-T/F 2376 26-01-2009 19:18:01 -2.3 C 3.63 g/m*3 -2.3 C 0 km/h
2377 26-01-2009 19:30:02 -2.4 C 3.61 g/m*3 -2.4 C 0 km/h
2378 26-01-2009 19:42:00 -2.3 C 3.63 g/m*3 -2.3 C 0 km/h
2379 26-01-2009 19:54:00 -2.6 C 3.56 g/m*3 -2.6 C 0 km/h
2380 26-01-2009 20:06:00 -2.6 C 3.56 g/m*3 -2.6 C 0 km/h
2381 26-01-2009 20:18:00 -2.6 C 3.56 g/m*3 -2.6 C 0 km/h
2382 26-01-2009 20:30:00 -2.8 C 3.51 g/m*3 -2.8 C 0 km/h
2383 26-01-2009 20:42:00 -3 C 3.46 g/m*3 -3 C 0 km/h
2384 26-01-2009 20:54:00 -2.9 C 3.48 g/m*3 -2.9 C 0 km/h
2385 26-01-2009 21:06:00 -3.1 C 3.43 g/m*3 -3.1 C 0 km/h
2386 26-01-2009 21:18:59 -3.3 C 3.38 g/m*3 -3.3 C 0 km/h
2387 26-01-2009 21:29:59 -3.2 C 3.41 g/m*3 -3.2 C 0 km/h
2388 26-01-2009 21:41:59 -3.3 C 3.38 g/m*3 -3.3 C 0 km/h
2389 26-01-2009 21:55:00 -3.3 C 3.42 g/m*3 -3.3 C 0 km/h
2390 26-01-2009 22:07:00 -3.2 C 3.45 g/m*3 -3.2 C 0 km/h
2391 26-01-2009 22:19:00 -3.4 C 3.4 g/m*3 -3.4 C 0 km/h
2392 26-01-2009 22:31:00 -3.7 C 3.33 g/m*3 -3.7 C 0 km/h
2393 26-01-2009 22:43:00 -3.8 C 3.3 g/m*3 -3.8 C 0 km/h
2394 26-01-2009 22:55:00 -3.9 C 3.28 g/m*3 -3.9 C 0 km/h
2395 26-01-2009 23:07:00 -3.8 C 3.3 g/m*3 -3.8 C 0 km/h
2396 26-01-2009 23:19:01 -3.8 C 3.3 g/m*3 -3.8 C 0 km/h
2397 26-01-2009 23:31:01 -3.7 C 3.33 g/m*3 -3.7 C 0 km/h
2398 26-01-2009 23:43:01 -3.8 C 3.3 g/m*3 -3.8 C 0 km/h
2399 26-01-2009 23:55:01 -3.8 C 3.34 g/m*3 -3.8 C 0 km/h
2400 27-01-2009 00:07:01 -3.8 C 3.34 g/m*3 -3.8 C 0 km/h
Sensor: Nr:Datum:Temp:Abs-Feuchte:Windchill:Wind:
Aussen-T/F 2401 27-01-2009 00:19:01 -3.9 C 3.32 g/m*3 -3.9 C 0 km/h
2402 27-01-2009 00:31:01 -3.8 C 3.34 g/m*3 -3.8 C 0 km/h
2403 27-01-2009 00:43:01 -3.8 C 3.34 g/m*3 -3.8 C 0 km/h
2404 27-01-2009 00:55:01 -3.7 C 3.36 g/m*3 -3.7 C 0 km/h
2405 27-01-2009 01:07:01 -3.7 C 3.4 g/m*3 -3.7 C 0 km/h
2406 27-01-2009 01:19:01 -3.6 C 3.43 g/m*3 -3.6 C 0 km/h
2407 27-01-2009 01:31:01 -3.6 C 3.43 g/m*3 -3.6 C 0 km/h
2408 27-01-2009 01:43:01 -3.7 C 3.4 g/m*3 -3.7 C 0 km/h
2409 27-01-2009 01:55:01 -3.8 C 3.38 g/m*3 -3.8 C 0 km/h
2410 27-01-2009 02:07:01 -3.8 C 3.38 g/m*3 -3.8 C 0 km/h
2411 27-01-2009 02:19:01 -3.8 C 3.38 g/m*3 -3.8 C 0 km/h
2412 27-01-2009 02:31:01 -3.7 C 3.44 g/m*3 -3.7 C 0 km/h
2413 27-01-2009 02:43:01 -3.6 C 3.46 g/m*3 -3.6 C 0 km/h
2414 27-01-2009 02:55:01 -3.5 C 3.49 g/m*3 -3.5 C 0 km/h
2415 27-01-2009 03:07:02 -3.4 C 3.51 g/m*3 -3.4 C 0 km/h
2416 27-01-2009 03:19:02 -3.2 C 3.6 g/m*3 -3.2 C 0 km/h
2417 27-01-2009 03:31:02 -3.1 C 3.63 g/m*3 -3.1 C 0 km/h
2418 27-01-2009 03:43:02 -3 C 3.65 g/m*3 -3 C 0 km/h
2419 27-01-2009 03:55:02 -3 C 3.65 g/m*3 -3 C 0 km/h
2420 27-01-2009 04:07:02 -2.9 C 3.68 g/m*3 -2.9 C 0 km/h
2421 27-01-2009 04:19:02 -2.7 C 3.73 g/m*3 -2.7 C 0 km/h
2422 27-01-2009 04:31:02 -2.7 C 3.73 g/m*3 -2.7 C 0 km/h
2423 27-01-2009 04:43:02 -2.7 C 3.73 g/m*3 -2.7 C 0 km/h
2424 27-01-2009 04:55:02 -2.8 C 3.71 g/m*3 -2.8 C 0 km/h
2425 27-01-2009 05:07:02 -2.7 C 3.73 g/m*3 -2.7 C 0 km/h
Sensor: Nr:Datum:Temp:Abs-Feuchte:Windchill:Wind:
Aussen-T/F 2426 27-01-2009 05:19:02 -2.5 C 3.78 g/m*3 -2.5 C 0 km/h
2427 27-01-2009 05:31:02 -2.5 C 3.78 g/m*3 -2.5 C 0 km/h
2428 27-01-2009 05:43:02 -2.4 C 3.81 g/m*3 -2.4 C 0 km/h
2429 27-01-2009 05:55:02 -2.5 C 3.78 g/m*3 -2.5 C 0 km/h
2430 27-01-2009 06:07:02 -2.4 C 3.81 g/m*3 -2.4 C 0 km/h
2431 27-01-2009 06:19:02 -2.6 C 3.72 g/m*3 -2.6 C 0 km/h
2432 27-01-2009 06:31:00 -2.6 C 3.72 g/m*3 -2.6 C 0 km/h
2433 27-01-2009 06:43:00 -2.5 C 3.7 g/m*3 -2.5 C 0 km/h
2434 27-01-2009 06:55:00 -2.5 C 3.66 g/m*3 -2.5 C 0 km/h
2435 27-01-2009 07:07:00 -2.5 C 3.66 g/m*3 -2.5 C 0 km/h
2436 27-01-2009 07:19:59 -2.4 C 3.69 g/m*3 -2.4 C 0 km/h
2437 27-01-2009 07:31:59 -2.3 C 3.71 g/m*3 -2.3 C 0 km/h
2438 27-01-2009 07:42:59 -2.3 C 3.67 g/m*3 -2.3 C 0 km/h
2439 27-01-2009 07:55:59 -2.2 C 3.7 g/m*3 -2.2 C 0 km/h
2440 27-01-2009 08:07:59 -2.1 C 3.73 g/m*3 -2.1 C 0 km/h
2441 27-01-2009 08:19:58 -2.1 C 3.73 g/m*3 -2.1 C 0 km/h
2442 27-01-2009 08:31:59 -2.1 C 3.73 g/m*3 -2.1 C 0 km/h
2443 27-01-2009 08:43:59 -2.1 C 3.73 g/m*3 -2.1 C 0 km/h
2444 27-01-2009 08:55:00 -2 C 3.75 g/m*3 -2 C 0 km/h
2445 27-01-2009 09:07:59 -2 C 3.75 g/m*3 -2 C 0 km/h
2446 27-01-2009 09:19:58 -1.9 C 3.78 g/m*3 -1.9 C 0 km/h
2447 27-01-2009 09:31:58 -1.8 C 3.8 g/m*3 -1.8 C 0 km/h
2448 27-01-2009 09:43:58 -1.7 C 3.79 g/m*3 -1.7 C 0 km/h
2449 27-01-2009 09:55:58 -1.6 C 3.81 g/m*3 -1.6 C 0 km/h
2450 27-01-2009 10:07:57 -1.5 C 3.84 g/m*3 -1.5 C 0 km/h
Sensor: Nr:Datum:Temp:Abs-Feuchte:Windchill:Wind:
Aussen-T/F 2451 27-01-2009 10:19:58 -1.5 C 3.84 g/m*3 -1.5 C 0 km/h
2452 27-01-2009 10:30:59 -1.4 C 3.82 g/m*3 -1.4 C 0 km/h
2453 27-01-2009 10:42:59 -1.2 C 3.88 g/m*3 -1.2 C 0 km/h
2454 27-01-2009 10:55:57 -1 C 3.93 g/m*3 -1 C 0 km/h
2455 27-01-2009 11:07:57 -0.9 C 3.91 g/m*3 -0.9 C 0 km/h
2456 27-01-2009 11:19:57 -0.8 C 3.94 g/m*3 -0.8 C 0 km/h
2457 27-01-2009 11:31:57 -0.5 C 3.98 g/m*3 -0.5 C 0 km/h
2458 27-01-2009 11:43:58 -0.4 C 3.96 g/m*3 -0.4 C 0 km/h
2459 27-01-2009 11:55:56 -0.3 C 3.99 g/m*3 -0.3 C 0 km/h
2460 27-01-2009 12:07:57 -0.1 C 3.99 g/m*3 -0.1 C 0 km/h
2461 27-01-2009 12:19:56 0.1 C 4.05 g/m*3 0.1 C 0 km/h
2462 27-01-2009 12:31:56 0.4 C 4.08 g/m*3 0.4 C 0 km/h
2463 27-01-2009 12:43:56 0.7 C 4.17 g/m*3 0.7 C 0 km/h
2464 27-01-2009 12:55:56 0.8 C 4.15 g/m*3 0.8 C 0 km/h
2465 27-01-2009 13:07:56 1 C 4.15 g/m*3 1 C 0 km/h
2466 27-01-2009 13:19:56 1.2 C 4.21 g/m*3 1.2 C 0 km/h
2467 27-01-2009 13:31:55 1.2 C 4.1 g/m*3 1.2 C 0 km/h
2468 27-01-2009 13:43:55 1.4 C 4.16 g/m*3 1.4 C 0 km/h
2469 27-01-2009 13:55:56 1.4 C 4.11 g/m*3 1.4 C 0 km/h
2470 27-01-2009 14:07:55 1.5 C 4.14 g/m*3 1.5 C 0 km/h
2471 27-01-2009 14:19:55 1.6 C 4.16 g/m*3 1.6 C 0 km/h
2472 27-01-2009 14:31:55 1.7 C 4.19 g/m*3 1.7 C 0 km/h
2473 27-01-2009 14:43:55 1.7 C 4.25 g/m*3 1.7 C 0 km/h
2474 27-01-2009 14:55:56 1.8 C 4.28 g/m*3 1.8 C 0 km/h
2475 27-01-2009 15:07:55 1.8 C 4.28 g/m*3 1.8 C 0 km/h
Sensor: Nr:Datum:Temp:Abs-Feuchte:Windchill:Wind:
Aussen-T/F 2476 27-01-2009 15:19:54 1.8 C 4.28 g/m*3 1.8 C 0 km/h
2477 27-01-2009 15:31:54 1.8 C 4.28 g/m*3 1.8 C 0 km/h
2478 27-01-2009 15:43:54 1.7 C 4.25 g/m*3 1.7 C 0 km/h
2479 27-01-2009 15:55:54 1.5 C 4.24 g/m*3 1.5 C 0 km/h
2480 27-01-2009 16:07:54 1.4 C 4.21 g/m*3 1.4 C 0 km/h
2481 27-01-2009 16:19:54 1.2 C 4.16 g/m*3 1.2 C 0 km/h
2482 27-01-2009 16:31:54 1 C 4.1 g/m*3 1 C 0 km/h
2483 27-01-2009 16:43:54 0.8 C 4.15 g/m*3 0.8 C 0 km/h
2484 27-01-2009 16:55:54 0.6 C 4.09 g/m*3 0.6 C 0 km/h
2485 27-01-2009 17:07:54 0.5 C 4.06 g/m*3 0.5 C 0 km/h
2486 27-01-2009 17:19:53 0.4 C 4.08 g/m*3 0.4 C 0 km/h
2487 27-01-2009 17:31:54 0.3 C 4.06 g/m*3 0.3 C 0 km/h
2488 27-01-2009 17:43:54 0.3 C 4.06 g/m*3 0.3 C 0 km/h
2489 27-01-2009 17:55:53 0.3 C 4.11 g/m*3 0.3 C 0 km/h
2490 27-01-2009 18:07:53 0.3 C 4.11 g/m*3 0.3 C 0 km/h
2491 27-01-2009 18:19:53 0.1 C 4.05 g/m*3 0.1 C 0 km/h
2492 27-01-2009 18:31:53 0.1 C 4.1 g/m*3 0.1 C 0 km/h
2493 27-01-2009 18:43:54 0.1 C 4.1 g/m*3 0.1 C 0 km/h
2494 27-01-2009 18:55:52 0.1 C 4.1 g/m*3 0.1 C 0 km/h
2495 27-01-2009 19:07:53 0.1 C 4.15 g/m*3 0.1 C 0 km/h
2496 27-01-2009 19:19:52 0.1 C 4.15 g/m*3 0.1 C 0 km/h
2497 27-01-2009 19:31:52 0.2 C 4.18 g/m*3 0.2 C 0 km/h
2498 27-01-2009 19:43:52 0.3 C 4.25 g/m*3 0.3 C 0 km/h
2499 27-01-2009 19:55:52 0.2 C 4.22 g/m*3 0.2 C 0 km/h
2500 27-01-2009 20:07:52 0.3 C 4.25 g/m*3 0.3 C 0 km/h
Sensor: Nr:Datum:Temp:Abs-Feuchte:Windchill:Wind:
Aussen-T/F 2501 27-01-2009 20:19:52 0.3 C 4.25 g/m*3 0.3 C 0 km/h
2502 27-01-2009 20:31:52 0.3 C 4.25 g/m*3 0.3 C 0 km/h
2503 27-01-2009 20:43:52 0.3 C 4.25 g/m*3 0.3 C 0 km/h
2504 27-01-2009 20:55:51 0.3 C 4.25 g/m*3 0.3 C 0 km/h
2505 27-01-2009 21:07:51 0.3 C 4.25 g/m*3 0.3 C 0 km/h
2506 27-01-2009 21:19:52 0.3 C 4.3 g/m*3 0.3 C 0 km/h
2507 27-01-2009 21:31:51 0.3 C 4.3 g/m*3 0.3 C 0 km/h
2508 27-01-2009 21:43:51 0.3 C 4.3 g/m*3 0.3 C 0 km/h
2509 27-01-2009 21:55:51 0.2 C 4.27 g/m*3 0.2 C 0 km/h
2510 27-01-2009 22:08:51 0.3 C 4.3 g/m*3 0.3 C 0 km/h
2511 27-01-2009 22:20:51 0.3 C 4.3 g/m*3 0.3 C 0 km/h
2512 27-01-2009 22:32:51 0.3 C 4.35 g/m*3 0.3 C 0 km/h
2513 27-01-2009 22:44:51 0.3 C 4.35 g/m*3 0.3 C 0 km/h
2514 27-01-2009 22:56:51 0.3 C 4.35 g/m*3 0.3 C 0 km/h
2515 27-01-2009 23:08:51 0.3 C 4.35 g/m*3 0.3 C 0 km/h
2516 27-01-2009 23:20:51 0.3 C 4.35 g/m*3 0.3 C 0 km/h
2517 27-01-2009 23:32:51 0.3 C 4.35 g/m*3 0.3 C 0 km/h
2518 27-01-2009 23:44:52 0.3 C 4.35 g/m*3 0.3 C 0 km/h
2519 27-01-2009 23:56:52 0.3 C 4.35 g/m*3 0.3 C 0 km/h
2520 28-01-2009 00:08:52 0.2 C 4.32 g/m*3 0.2 C 0 km/h
2521 28-01-2009 00:20:52 0.2 C 4.32 g/m*3 0.2 C 0 km/h
2522 28-01-2009 00:32:52 0.2 C 4.32 g/m*3 0.2 C 0 km/h
2523 28-01-2009 00:44:52 0.2 C 4.32 g/m*3 0.2 C 0 km/h
2524 28-01-2009 00:56:52 0.1 C 4.29 g/m*3 0.1 C 0 km/h
2525 28-01-2009 01:08:52 0 C 4.26 g/m*3 0 C 0 km/h
Sensor: Nr:Datum:Temp:Abs-Feuchte:Windchill:Wind:
Aussen-T/F 2526 28-01-2009 01:20:52 0.1 C 4.29 g/m*3 0.1 C 0 km/h
2527 28-01-2009 01:32:52 0.1 C 4.29 g/m*3 0.1 C 0 km/h
2528 28-01-2009 01:44:52 0.1 C 4.29 g/m*3 0.1 C 0 km/h
2529 28-01-2009 01:56:52 0.1 C 4.29 g/m*3 0.1 C 0 km/h
2530 28-01-2009 02:08:52 0.1 C 4.29 g/m*3 0.1 C 0 km/h
2531 28-01-2009 02:20:52 0 C 4.22 g/m*3 0 C 0 km/h
2532 28-01-2009 02:32:52 0 C 4.22 g/m*3 0 C 0 km/h
2533 28-01-2009 02:44:52 0 C 4.22 g/m*3 0 C 0 km/h
2534 28-01-2009 02:56:52 0 C 4.22 g/m*3 0 C 0 km/h
2535 28-01-2009 03:08:52 0 C 4.22 g/m*3 0 C 0 km/h
2536 28-01-2009 03:20:52 -0.2 C 4.16 g/m*3 -0.2 C 0 km/h
2537 28-01-2009 03:32:53 -0.2 C 4.16 g/m*3 -0.2 C 0 km/h
2538 28-01-2009 03:44:53 -0.2 C 4.16 g/m*3 -0.2 C 0 km/h
2539 28-01-2009 03:56:53 -0.2 C 4.16 g/m*3 -0.2 C 0 km/h
2540 28-01-2009 04:08:53 -0.3 C 4.13 g/m*3 -0.3 C 0 km/h
2541 28-01-2009 04:20:53 -0.3 C 4.13 g/m*3 -0.3 C 0 km/h
2542 28-01-2009 04:32:53 -0.4 C 4.05 g/m*3 -0.4 C 0 km/h
2543 28-01-2009 04:44:53 -0.6 C 4 g/m*3 -0.6 C 0 km/h
2544 28-01-2009 04:56:53 -0.8 C 3.94 g/m*3 -0.8 C 0 km/h
2545 28-01-2009 05:08:53 -1 C 3.89 g/m*3 -1 C 0 km/h
2546 28-01-2009 05:20:53 -0.9 C 3.91 g/m*3 -0.9 C 0 km/h
2547 28-01-2009 05:32:53 -0.6 C 4.04 g/m*3 -0.6 C 0 km/h
2548 28-01-2009 05:44:53 -0.6 C 4 g/m*3 -0.6 C 0 km/h
2549 28-01-2009 05:56:53 -0.6 C 4 g/m*3 -0.6 C 0 km/h
2550 28-01-2009 06:08:53 -0.6 C 4 g/m*3 -0.6 C 0 km/h
Sensor: Nr:Datum:Temp:Abs-Feuchte:Windchill:Wind:
Aussen-T/F 2551 28-01-2009 06:20:53 -0.7 C 3.97 g/m*3 -0.7 C 0 km/h
2552 28-01-2009 06:32:53 -0.7 C 3.97 g/m*3 -0.7 C 0 km/h
2553 28-01-2009 06:44:53 -0.7 C 3.92 g/m*3 -0.7 C 0 km/h
2554 28-01-2009 06:56:53 -0.6 C 3.95 g/m*3 -0.6 C 0 km/h
2555 28-01-2009 07:08:52 -0.6 C 3.95 g/m*3 -0.6 C 0 km/h
2556 28-01-2009 07:20:51 -0.6 C 3.95 g/m*3 -0.6 C 0 km/h
2557 28-01-2009 07:32:51 -0.5 C 3.98 g/m*3 -0.5 C 0 km/h
2558 28-01-2009 07:44:51 -0.5 C 3.98 g/m*3 -0.5 C 0 km/h
2559 28-01-2009 07:56:51 -0.5 C 3.98 g/m*3 -0.5 C 0 km/h
2560 28-01-2009 08:08:51 -0.4 C 4.01 g/m*3 -0.4 C 0 km/h
2561 28-01-2009 08:20:50 -0.5 C 3.93 g/m*3 -0.5 C 0 km/h
2562 28-01-2009 08:32:50 -0.5 C 3.93 g/m*3 -0.5 C 0 km/h
2563 28-01-2009 08:44:50 -0.4 C 3.96 g/m*3 -0.4 C 0 km/h
2564 28-01-2009 08:56:50 -0.5 C 3.93 g/m*3 -0.5 C 0 km/h
2565 28-01-2009 09:08:50 -0.4 C 3.96 g/m*3 -0.4 C 0 km/h
2566 28-01-2009 09:20:49 -0.3 C 3.99 g/m*3 -0.3 C 0 km/h
2567 28-01-2009 09:32:50 -0.3 C 3.94 g/m*3 -0.3 C 0 km/h
2568 28-01-2009 09:44:50 -0.1 C 3.99 g/m*3 -0.1 C 0 km/h
2569 28-01-2009 09:56:50 0.1 C 4.05 g/m*3 0.1 C 0 km/h
2570 28-01-2009 10:08:49 0.2 C 4.08 g/m*3 0.2 C 0 km/h
2571 28-01-2009 10:20:50 0.3 C 4.06 g/m*3 0.3 C 0 km/h
2572 28-01-2009 10:32:49 0.4 C 4.03 g/m*3 0.4 C 0 km/h
2573 28-01-2009 10:44:49 0.6 C 4.09 g/m*3 0.6 C 0 km/h
2574 28-01-2009 10:56:49 0.7 C 4.07 g/m*3 0.7 C 0 km/h
2575 28-01-2009 11:08:48 0.8 C 3.99 g/m*3 0.8 C 0 km/h
Sensor: Nr:Datum:Temp:Abs-Feuchte:Windchill:Wind:
Aussen-T/F 2576 28-01-2009 11:20:49 0.8 C 3.94 g/m*3 0.8 C 0 km/h
2577 28-01-2009 11:32:48 1 C 3.94 g/m*3 1 C 0 km/h
2578 28-01-2009 11:44:48 1.3 C 3.92 g/m*3 1.3 C 0 km/h
2579 28-01-2009 11:56:48 1.4 C 3.89 g/m*3 1.4 C 0 km/h
2580 28-01-2009 12:08:48 1.7 C 3.92 g/m*3 1.7 C 0 km/h
2581 28-01-2009 12:20:48 2.2 C 4 g/m*3 2.2 C 0 km/h
2582 28-01-2009 12:32:48 2.3 C 3.86 g/m*3 2.3 C 0 km/h
2583 28-01-2009 12:44:48 2.5 C 3.91 g/m*3 2.5 C 0 km/h
2584 28-01-2009 12:56:48 2.7 C 3.96 g/m*3 2.7 C 0 km/h
2585 28-01-2009 13:08:48 2.6 C 3.88 g/m*3 2.6 C 0 km/h
2586 28-01-2009 13:20:47 2.6 C 3.94 g/m*3 2.6 C 0 km/h
2587 28-01-2009 13:32:48 2.6 C 3.94 g/m*3 2.6 C 0 km/h
2588 28-01-2009 13:44:47 2.9 C 4.07 g/m*3 2.9 C 0 km/h
2589 28-01-2009 13:56:47 3.2 C 4.1 g/m*3 3.2 C 0 km/h
2590 28-01-2009 14:08:47 3.1 C 4.01 g/m*3 3.1 C 0 km/h
2591 28-01-2009 14:20:46 3.1 C 4.07 g/m*3 3.1 C 0 km/h
2592 28-01-2009 14:32:47 2.7 C 4.08 g/m*3 2.7 C 0 km/h
2593 28-01-2009 14:44:46 2.8 C 4.11 g/m*3 2.8 C 0 km/h
2594 28-01-2009 14:56:46 2.7 C 4.14 g/m*3 2.7 C 0 km/h
2595 28-01-2009 15:08:46 2.6 C 4.17 g/m*3 2.6 C 0 km/h
2596 28-01-2009 15:20:47 2.4 C 4.11 g/m*3 2.4 C 0 km/h
2597 28-01-2009 15:32:46 2 C 4 g/m*3 2 C 0 km/h
2598 28-01-2009 15:44:46 1.6 C 3.95 g/m*3 1.6 C 0 km/h
2599 28-01-2009 15:56:46 1.3 C 3.92 g/m*3 1.3 C 0 km/h
2600 28-01-2009 16:08:46 1.1 C 3.92 g/m*3 1.1 C 0 km/h
Sensor: Nr:Datum:Temp:Abs-Feuchte:Windchill:Wind:
Aussen-T/F 2601 28-01-2009 16:20:46 1 C 3.89 g/m*3 1 C 0 km/h
2602 28-01-2009 16:32:46 0.7 C 3.86 g/m*3 0.7 C 0 km/h
2603 28-01-2009 16:44:45 0.5 C 3.86 g/m*3 0.5 C 0 km/h
2604 28-01-2009 16:56:45 0.4 C 3.88 g/m*3 0.4 C 0 km/h
2605 28-01-2009 17:08:46 0.2 C 3.83 g/m*3 0.2 C 0 km/h
2606 28-01-2009 17:20:45 0 C 3.78 g/m*3 0 C 0 km/h
2607 28-01-2009 17:32:45 -0.3 C 3.75 g/m*3 -0.3 C 0 km/h
2608 28-01-2009 17:44:47 -0.4 C 3.77 g/m*3 -0.4 C 0 km/h
2609 28-01-2009 17:56:47 -0.7 C 3.69 g/m*3 -0.7 C 0 km/h
2610 28-01-2009 18:08:45 -0.8 C 3.67 g/m*3 -0.8 C 0 km/h
2611 28-01-2009 18:20:45 -0.4 C 3.86 g/m*3 -0.4 C 0 km/h
2612 28-01-2009 18:32:45 0 C 4.02 g/m*3 0 C 0 km/h
2613 28-01-2009 18:44:44 0.2 C 4.08 g/m*3 0.2 C 0 km/h
2614 28-01-2009 18:56:44 0.3 C 4.06 g/m*3 0.3 C 0 km/h
2615 28-01-2009 19:08:45 0.4 C 4.08 g/m*3 0.4 C 0 km/h
2616 28-01-2009 19:20:44 0.4 C 4.08 g/m*3 0.4 C 0 km/h
2617 28-01-2009 19:32:44 0.5 C 4.11 g/m*3 0.5 C 0 km/h
2618 28-01-2009 19:44:44 0.5 C 4.11 g/m*3 0.5 C 0 km/h
2619 28-01-2009 19:56:44 0.6 C 4.14 g/m*3 0.6 C 0 km/h
2620 28-01-2009 20:08:44 0.6 C 4.09 g/m*3 0.6 C 0 km/h
2621 28-01-2009 20:20:43 0.6 C 4.09 g/m*3 0.6 C 0 km/h
2622 28-01-2009 20:32:43 0.7 C 4.12 g/m*3 0.7 C 0 km/h
2623 28-01-2009 20:44:43 0.8 C 4.15 g/m*3 0.8 C 0 km/h
2624 28-01-2009 20:56:43 0.8 C 4.1 g/m*3 0.8 C 0 km/h
2625 28-01-2009 21:08:43 0.8 C 4.1 g/m*3 0.8 C 0 km/h
Sensor: Nr:Datum:Temp:Abs-Feuchte:Windchill:Wind:
Aussen-T/F 2626 28-01-2009 21:20:43 0.7 C 4.12 g/m*3 0.7 C 0 km/h
2627 28-01-2009 21:32:43 0.7 C 4.07 g/m*3 0.7 C 0 km/h
2628 28-01-2009 21:44:42 0.7 C 4.02 g/m*3 0.7 C 0 km/h
2629 28-01-2009 21:56:42 0.8 C 4.04 g/m*3 0.8 C 0 km/h
2630 28-01-2009 22:09:44 0.8 C 3.94 g/m*3 0.8 C 0 km/h
2631 28-01-2009 22:21:44 0.7 C 3.81 g/m*3 0.7 C 0 km/h
2632 28-01-2009 22:33:44 0.7 C 3.76 g/m*3 0.7 C 0 km/h
2633 28-01-2009 22:45:44 0.7 C 3.71 g/m*3 0.7 C 0 km/h
2634 28-01-2009 22:57:44 0.7 C 3.66 g/m*3 0.7 C 0 km/h
2635 28-01-2009 23:09:44 0.7 C 3.61 g/m*3 0.7 C 0 km/h
2636 28-01-2009 23:21:44 0.7 C 3.56 g/m*3 0.7 C 0 km/h
2637 28-01-2009 23:33:44 0.7 C 3.51 g/m*3 0.7 C 0 km/h
2638 28-01-2009 23:45:44 0.8 C 3.53 g/m*3 0.8 C 0 km/h
2639 28-01-2009 23:57:44 0.8 C 3.48 g/m*3 0.8 C 0 km/h
2640 29-01-2009 00:09:44 0.7 C 3.46 g/m*3 0.7 C 0 km/h
2641 29-01-2009 00:21:44 0.7 C 3.46 g/m*3 0.7 C 0 km/h
2642 29-01-2009 00:33:44 0.7 C 3.46 g/m*3 0.7 C 0 km/h
2643 29-01-2009 00:45:44 0.7 C 3.46 g/m*3 0.7 C 0 km/h
2644 29-01-2009 00:57:44 0.7 C 3.46 g/m*3 0.7 C 0 km/h
2645 29-01-2009 01:09:44 0.7 C 3.41 g/m*3 0.7 C 0 km/h
2646 29-01-2009 01:21:44 0.7 C 3.36 g/m*3 0.7 C 0 km/h
2647 29-01-2009 01:33:44 0.6 C 3.38 g/m*3 0.6 C 0 km/h
2648 29-01-2009 01:45:44 0.5 C 3.36 g/m*3 0.5 C 0 km/h
2649 29-01-2009 01:57:44 0.4 C 3.34 g/m*3 0.4 C 0 km/h
2650 29-01-2009 02:09:45 0.4 C 3.19 g/m*3 0.4 C 0 km/h
Sensor: Nr:Datum:Temp:Abs-Feuchte:Windchill:Wind:
Aussen-T/F 2651 29-01-2009 02:21:45 0.5 C 3.21 g/m*3 0.5 C 0 km/h
2652 29-01-2009 02:33:45 0.6 C 3.13 g/m*3 0.6 C 0 km/h
2653 29-01-2009 02:45:45 0.6 C 3.08 g/m*3 0.6 C 0 km/h
2654 29-01-2009 02:57:45 0.5 C 3.11 g/m*3 0.5 C 0 km/h
2655 29-01-2009 03:09:45 0.5 C 3.16 g/m*3 0.5 C 0 km/h
2656 29-01-2009 03:21:45 0.5 C 3.11 g/m*3 0.5 C 0 km/h
2657 29-01-2009 03:33:45 0.6 C 3.13 g/m*3 0.6 C 0 km/h
2658 29-01-2009 03:45:45 0.6 C 3.18 g/m*3 0.6 C 0 km/h
2659 29-01-2009 03:57:45 0.7 C 3.05 g/m*3 0.7 C 0 km/h
2660 29-01-2009 04:09:45 0.6 C 3.13 g/m*3 0.6 C 0 km/h
2661 29-01-2009 04:21:45 0.7 C 3.15 g/m*3 0.7 C 0 km/h
2662 29-01-2009 04:33:45 0.7 C 3.15 g/m*3 0.7 C 0 km/h
2663 29-01-2009 04:45:45 0.6 C 3.18 g/m*3 0.6 C 0 km/h
2664 29-01-2009 04:57:45 0.6 C 3.18 g/m*3 0.6 C 0 km/h
2665 29-01-2009 05:09:45 0.8 C 3.12 g/m*3 0.8 C 0 km/h
2666 29-01-2009 05:21:45 0.8 C 3.17 g/m*3 0.8 C 0 km/h
2667 29-01-2009 05:33:45 0.7 C 3.2 g/m*3 0.7 C 0 km/h
2668 29-01-2009 05:45:45 0.7 C 3.25 g/m*3 0.7 C 0 km/h
2669 29-01-2009 05:57:45 0.7 C 3.3 g/m*3 0.7 C 0 km/h
2670 29-01-2009 06:09:46 0.7 C 3.36 g/m*3 0.7 C 0 km/h
2671 29-01-2009 06:21:46 0.8 C 3.33 g/m*3 0.8 C 0 km/h
2672 29-01-2009 06:33:46 0.8 C 3.28 g/m*3 0.8 C 0 km/h
2673 29-01-2009 06:45:44 0.8 C 3.28 g/m*3 0.8 C 0 km/h
2674 29-01-2009 06:57:44 0.8 C 3.23 g/m*3 0.8 C 0 km/h
2675 29-01-2009 07:09:44 0.9 C 3.25 g/m*3 0.9 C 0 km/h
Sensor: Nr:Datum:Temp:Abs-Feuchte:Windchill:Wind:
Aussen-T/F 2676 29-01-2009 07:21:43 0.8 C 3.23 g/m*3 0.8 C 0 km/h
2677 29-01-2009 07:33:43 0.8 C 3.17 g/m*3 0.8 C 0 km/h
2678 29-01-2009 07:45:43 0.8 C 3.17 g/m*3 0.8 C 0 km/h
2679 29-01-2009 07:57:43 0.8 C 3.17 g/m*3 0.8 C 0 km/h
2680 29-01-2009 08:09:43 0.8 C 3.23 g/m*3 0.8 C 0 km/h
2681 29-01-2009 08:21:42 0.8 C 3.23 g/m*3 0.8 C 0 km/h
2682 29-01-2009 08:33:43 0.8 C 3.17 g/m*3 0.8 C 0 km/h
2683 29-01-2009 08:45:42 0.8 C 3.17 g/m*3 0.8 C 0 km/h
2684 29-01-2009 08:57:42 0.8 C 3.12 g/m*3 0.8 C 0 km/h
2685 29-01-2009 09:09:42 0.9 C 3.14 g/m*3 0.9 C 0 km/h
2686 29-01-2009 09:21:43 1 C 3.06 g/m*3 1 C 0 km/h
2687 29-01-2009 09:33:42 1.1 C 2.98 g/m*3 1.1 C 0 km/h
2688 29-01-2009 09:45:42 1.2 C 3 g/m*3 1.2 C 0 km/h
2689 29-01-2009 09:57:42 1.4 C 3.04 g/m*3 1.4 C 0 km/h
2690 29-01-2009 10:09:42 1.6 C 3.03 g/m*3 1.6 C 0 km/h
2691 29-01-2009 10:21:42 1.5 C 2.95 g/m*3 1.5 C 0 km/h
2692 29-01-2009 10:33:41 1.2 C 2.89 g/m*3 1.2 C 0 km/h
2693 29-01-2009 10:45:41 1 C 2.96 g/m*3 1 C 0 km/h
2694 29-01-2009 10:57:42 1 C 3.01 g/m*3 1 C 0 km/h
2695 29-01-2009 11:09:41 1 C 3.11 g/m*3 1 C 0 km/h
2696 29-01-2009 11:21:41 1.4 C 3.04 g/m*3 1.4 C 0 km/h
2697 29-01-2009 11:33:41 1.6 C 3.03 g/m*3 1.6 C 0 km/h
2698 29-01-2009 11:45:41 1.7 C 2.99 g/m*3 1.7 C 0 km/h
2699 29-01-2009 11:57:41 2 C 3 g/m*3 2 C 0 km/h
2700 29-01-2009 12:09:41 2.2 C 2.99 g/m*3 2.2 C 0 km/h
Sensor: Nr:Datum:Temp:Abs-Feuchte:Windchill:Wind:
Aussen-T/F 2701 29-01-2009 12:21:40 2.6 C 3.01 g/m*3 2.6 C 0 km/h
2702 29-01-2009 12:33:40 2.9 C 3.01 g/m*3 2.9 C 0 km/h
2703 29-01-2009 12:45:40 3.3 C 2.97 g/m*3 3.3 C 0 km/h
2704 29-01-2009 12:57:40 3.9 C 2.97 g/m*3 3.9 C 0 km/h
2705 29-01-2009 13:09:40 4.2 C 2.9 g/m*3 4.2 C 0 km/h
2706 29-01-2009 13:21:39 4.4 C 2.81 g/m*3 4.4 C 0 km/h
2707 29-01-2009 13:33:40 4.8 C 2.82 g/m*3 4.8 C 0 km/h
2708 29-01-2009 13:45:40 5.1 C 2.74 g/m*3 5.1 C 0 km/h
2709 29-01-2009 13:57:40 5.3 C 2.77 g/m*3 5.3 C 0 km/h
2710 29-01-2009 14:09:39 5.5 C 2.67 g/m*3 5.5 C 0 km/h
2711 29-01-2009 14:21:40 5.8 C 2.72 g/m*3 5.8 C 0 km/h
2712 29-01-2009 14:33:39 6.1 C 2.63 g/m*3 6.1 C 0 km/h
2713 29-01-2009 14:45:39 6.2 C 2.65 g/m*3 6.2 C 0 km/h
2714 29-01-2009 14:57:39 6.4 C 2.61 g/m*3 6.4 C 0 km/h
2715 29-01-2009 15:09:39 6.6 C 2.64 g/m*3 6.6 C 0 km/h
2716 29-01-2009 15:21:39 6.8 C 2.68 g/m*3 6.8 C 0 km/h
2717 29-01-2009 15:33:39 6.5 C 2.62 g/m*3 6.5 C 0 km/h
2718 29-01-2009 15:45:39 6.4 C 2.61 g/m*3 6.4 C 0 km/h
2719 29-01-2009 15:57:39 5.6 C 2.55 g/m*3 5.6 C 0 km/h
2720 29-01-2009 16:09:39 4.7 C 2.66 g/m*3 4.7 C 0 km/h
2721 29-01-2009 16:21:38 4 C 2.61 g/m*3 4 C 0 km/h
2722 29-01-2009 16:33:38 3.5 C 2.77 g/m*3 3.5 C 0 km/h
2723 29-01-2009 16:45:38 3 C 2.73 g/m*3 3 C 0 km/h
2724 29-01-2009 16:57:38 2.5 C 2.82 g/m*3 2.5 C 0 km/h
2725 29-01-2009 17:09:38 2.1 C 2.85 g/m*3 2.1 C 0 km/h
Sensor: Nr:Datum:Temp:Abs-Feuchte:Windchill:Wind:
Aussen-T/F 2726 29-01-2009 17:21:37 1.7 C 2.89 g/m*3 1.7 C 0 km/h
2727 29-01-2009 17:33:37 1.2 C 2.95 g/m*3 1.2 C 0 km/h
2728 29-01-2009 17:45:37 1 C 2.96 g/m*3 1 C 0 km/h
2729 29-01-2009 17:57:37 0.7 C 3.05 g/m*3 0.7 C 0 km/h
2730 29-01-2009 18:09:37 0.5 C 3.06 g/m*3 0.5 C 0 km/h
2731 29-01-2009 18:21:38 0.4 C 3.09 g/m*3 0.4 C 0 km/h
2732 29-01-2009 18:33:37 0.3 C 3.12 g/m*3 0.3 C 0 km/h
2733 29-01-2009 18:45:37 0.2 C 3.09 g/m*3 0.2 C 0 km/h
2734 29-01-2009 18:57:37 0.1 C 3.12 g/m*3 0.1 C 0 km/h
2735 29-01-2009 19:09:37 -0.1 C 3.13 g/m*3 -0.1 C 0 km/h
2736 29-01-2009 19:21:36 -0.3 C 3.13 g/m*3 -0.3 C 0 km/h
2737 29-01-2009 19:33:36 -0.4 C 3.11 g/m*3 -0.4 C 0 km/h
2738 29-01-2009 19:45:36 -0.6 C 3.11 g/m*3 -0.6 C 0 km/h
2739 29-01-2009 19:57:37 -0.8 C 3.12 g/m*3 -0.8 C 0 km/h
2740 29-01-2009 20:09:36 -0.9 C 3.14 g/m*3 -0.9 C 0 km/h
2741 29-01-2009 20:21:36 -0.9 C 3.14 g/m*3 -0.9 C 0 km/h
2742 29-01-2009 20:33:36 -1.1 C 3.14 g/m*3 -1.1 C 0 km/h
2743 29-01-2009 20:45:36 -1.1 C 3.14 g/m*3 -1.1 C 0 km/h
2744 29-01-2009 20:57:36 -1.2 C 3.12 g/m*3 -1.2 C 0 km/h
2745 29-01-2009 21:09:35 -1.4 C 3.08 g/m*3 -1.4 C 0 km/h
2746 29-01-2009 21:21:35 -1.5 C 3.1 g/m*3 -1.5 C 0 km/h
2747 29-01-2009 21:34:36 -1.6 C 3.12 g/m*3 -1.6 C 0 km/h
2748 29-01-2009 21:46:36 -1.7 C 3.14 g/m*3 -1.7 C 0 km/h
2749 29-01-2009 21:58:36 -1.8 C 3.12 g/m*3 -1.8 C 0 km/h
2750 29-01-2009 22:10:36 -2 C 3.08 g/m*3 -2 C 0 km/h
Sensor: Nr:Datum:Temp:Abs-Feuchte:Windchill:Wind:
Aussen-T/F 2751 29-01-2009 22:22:36 -1.9 C 3.14 g/m*3 -1.9 C 0 km/h
2752 29-01-2009 22:34:36 -2 C 3.12 g/m*3 -2 C 0 km/h
2753 29-01-2009 22:46:36 -2.2 C 3.08 g/m*3 -2.2 C 0 km/h
2754 29-01-2009 22:58:36 -2.4 C 3.03 g/m*3 -2.4 C 0 km/h
2755 29-01-2009 23:10:36 -2.3 C 3.1 g/m*3 -2.3 C 0 km/h
2756 29-01-2009 23:22:36 -2.4 C 3.07 g/m*3 -2.4 C 0 km/h
2757 29-01-2009 23:34:36 -2.5 C 3.05 g/m*3 -2.5 C 0 km/h
2758 29-01-2009 23:46:36 -2.5 C 3.09 g/m*3 -2.5 C 0 km/h
2759 29-01-2009 23:58:36 -2.5 C 3.09 g/m*3 -2.5 C 0 km/h
2760 30-01-2009 00:10:36 -2.5 C 3.13 g/m*3 -2.5 C 0 km/h
2761 30-01-2009 00:22:37 -2.5 C 3.13 g/m*3 -2.5 C 0 km/h
2762 30-01-2009 00:34:37 -2.5 C 3.13 g/m*3 -2.5 C 0 km/h
2763 30-01-2009 00:46:37 -2.6 C 3.11 g/m*3 -2.6 C 0 km/h
2764 30-01-2009 00:58:37 -2.7 C 3.09 g/m*3 -2.7 C 0 km/h
2765 30-01-2009 01:10:37 -2.7 C 3.09 g/m*3 -2.7 C 0 km/h
2766 30-01-2009 01:22:37 -2.9 C 3.05 g/m*3 -2.9 C 0 km/h
2767 30-01-2009 01:34:37 -2.8 C 3.11 g/m*3 -2.8 C 0 km/h
2768 30-01-2009 01:46:37 -3 C 3.06 g/m*3 -3 C 0 km/h
2769 30-01-2009 01:58:37 -3.1 C 3 g/m*3 -3.1 C 0 km/h
2770 30-01-2009 02:10:37 -3.2 C 3.02 g/m*3 -3.2 C 0 km/h
2771 30-01-2009 02:22:37 -3.2 C 3.02 g/m*3 -3.2 C 0 km/h
2772 30-01-2009 02:34:37 -3.5 C 2.96 g/m*3 -3.5 C 0 km/h
2773 30-01-2009 02:46:37 -3.5 C 2.96 g/m*3 -3.5 C 0 km/h
2774 30-01-2009 02:58:37 -3.5 C 2.96 g/m*3 -3.5 C 0 km/h
2775 30-01-2009 03:10:37 -3.6 C 2.94 g/m*3 -3.6 C 0 km/h
Sensor: Nr:Datum:Temp:Abs-Feuchte:Windchill:Wind:
Aussen-T/F 2776 30-01-2009 03:22:37 -3.7 C 2.95 g/m*3 -3.7 C 0 km/h
2777 30-01-2009 03:34:37 -3.8 C 2.93 g/m*3 -3.8 C 0 km/h
2778 30-01-2009 03:46:37 -3.6 C 3.01 g/m*3 -3.6 C 0 km/h
2779 30-01-2009 03:58:37 -3.7 C 2.99 g/m*3 -3.7 C 0 km/h
2780 30-01-2009 04:10:37 -3.8 C 2.97 g/m*3 -3.8 C 0 km/h
2781 30-01-2009 04:22:37 -3.8 C 2.97 g/m*3 -3.8 C 0 km/h
2782 30-01-2009 04:34:38 -3.9 C 2.95 g/m*3 -3.9 C 0 km/h
2783 30-01-2009 04:46:38 -3.9 C 2.98 g/m*3 -3.9 C 0 km/h
2784 30-01-2009 04:58:38 -3.9 C 2.98 g/m*3 -3.9 C 0 km/h
2785 30-01-2009 05:10:38 -3.9 C 2.98 g/m*3 -3.9 C 0 km/h
2786 30-01-2009 05:22:38 -3.8 C 3.04 g/m*3 -3.8 C 0 km/h
2787 30-01-2009 05:34:38 -3.8 C 3.04 g/m*3 -3.8 C 0 km/h
2788 30-01-2009 05:46:38 -3.8 C 3.04 g/m*3 -3.8 C 0 km/h
2789 30-01-2009 05:58:38 -3.9 C 3.02 g/m*3 -3.9 C 0 km/h
2790 30-01-2009 06:10:38 -3.9 C 3.02 g/m*3 -3.9 C 0 km/h
2791 30-01-2009 06:22:38 -4.1 C 2.98 g/m*3 -4.1 C 0 km/h
2792 30-01-2009 06:34:35 -4.1 C 2.98 g/m*3 -4.1 C 0 km/h
2793 30-01-2009 06:46:35 -4.3 C 2.94 g/m*3 -4.3 C 0 km/h
2794 30-01-2009 06:58:35 -4.3 C 2.94 g/m*3 -4.3 C 0 km/h
2795 30-01-2009 07:10:35 -4.4 C 2.92 g/m*3 -4.4 C 0 km/h
2796 30-01-2009 07:22:35 -4.6 C 2.87 g/m*3 -4.6 C 0 km/h
2797 30-01-2009 07:34:34 -4.8 C 2.83 g/m*3 -4.8 C 0 km/h
2798 30-01-2009 07:46:35 -4.8 C 2.83 g/m*3 -4.8 C 0 km/h
2799 30-01-2009 07:58:35 -4.7 C 2.85 g/m*3 -4.7 C 0 km/h
2800 30-01-2009 08:10:34 -4.7 C 2.89 g/m*3 -4.7 C 0 km/h
Sensor: Nr:Datum:Temp:Abs-Feuchte:Windchill:Wind:
Aussen-T/F 2801 30-01-2009 08:22:34 -4.6 C 2.91 g/m*3 -4.6 C 0 km/h
2802 30-01-2009 08:34:34 -4.2 C 3.03 g/m*3 -4.2 C 0 km/h
2803 30-01-2009 08:46:34 -3.6 C 3.2 g/m*3 -3.6 C 0 km/h
2804 30-01-2009 08:58:34 -3.3 C 3.31 g/m*3 -3.3 C 0 km/h
2805 30-01-2009 09:10:33 -3 C 3.38 g/m*3 -3 C 0 km/h
2806 30-01-2009 09:22:34 -2.7 C 3.45 g/m*3 -2.7 C 0 km/h
2807 30-01-2009 09:34:34 -2.5 C 3.46 g/m*3 -2.5 C 0 km/h
2808 30-01-2009 09:46:33 -2.2 C 3.49 g/m*3 -2.2 C 0 km/h
2809 30-01-2009 09:58:33 -1.8 C 3.55 g/m*3 -1.8 C 0 km/h
2810 30-01-2009 10:10:34 -1.5 C 3.54 g/m*3 -1.5 C 0 km/h
2811 30-01-2009 10:22:33 -1.2 C 3.43 g/m*3 -1.2 C 0 km/h
2812 30-01-2009 10:34:33 -1 C 3.25 g/m*3 -1 C 0 km/h
2813 30-01-2009 10:46:32 -0.8 C 3.21 g/m*3 -0.8 C 0 km/h
2814 30-01-2009 10:58:32 -0.7 C 3.18 g/m*3 -0.7 C 0 km/h
2815 30-01-2009 11:10:33 -0.5 C 3.14 g/m*3 -0.5 C 0 km/h
2816 30-01-2009 11:22:32 -0.3 C 3.08 g/m*3 -0.3 C 0 km/h
2817 30-01-2009 11:34:32 0 C 3.1 g/m*3 0 C 0 km/h
2818 30-01-2009 11:46:32 0.2 C 3.09 g/m*3 0.2 C 0 km/h
2819 30-01-2009 11:58:32 0.5 C 3.16 g/m*3 0.5 C 0 km/h
2820 30-01-2009 12:10:32 0.4 C 2.99 g/m*3 0.4 C 0 km/h
2821 30-01-2009 12:22:32 0.4 C 2.99 g/m*3 0.4 C 0 km/h
2822 30-01-2009 12:34:31 0.4 C 2.99 g/m*3 0.4 C 0 km/h
2823 30-01-2009 12:46:32 0.6 C 3.03 g/m*3 0.6 C 0 km/h
2824 30-01-2009 12:58:32 1.1 C 3.03 g/m*3 1.1 C 0 km/h
2825 30-01-2009 13:10:31 1.4 C 2.99 g/m*3 1.4 C 0 km/h
Sensor: Nr:Datum:Temp:Abs-Feuchte:Windchill:Wind:
Aussen-T/F 2826 30-01-2009 13:22:31 2 C 2.95 g/m*3 2 C 0 km/h
2827 30-01-2009 13:34:31 2.5 C 2.93 g/m*3 2.5 C 0 km/h
2828 30-01-2009 13:46:31 2.8 C 2.93 g/m*3 2.8 C 0 km/h
2829 30-01-2009 13:58:31 3 C 2.73 g/m*3 3 C 0 km/h
2830 30-01-2009 14:10:30 3.3 C 2.79 g/m*3 3.3 C 0 km/h
2831 30-01-2009 14:22:31 3.4 C 2.75 g/m*3 3.4 C 0 km/h
2832 30-01-2009 14:34:30 3.6 C 2.79 g/m*3 3.6 C 0 km/h
2833 30-01-2009 14:46:30 3.8 C 2.82 g/m*3 3.8 C 0 km/h
2834 30-01-2009 14:58:30 3.8 C 2.76 g/m*3 3.8 C 0 km/h
2835 30-01-2009 15:10:30 3.9 C 2.72 g/m*3 3.9 C 0 km/h
2836 30-01-2009 15:22:30 4.2 C 2.71 g/m*3 4.2 C 0 km/h
2837 30-01-2009 15:34:30 3.9 C 2.72 g/m*3 3.9 C 0 km/h
2838 30-01-2009 15:46:30 3.7 C 2.68 g/m*3 3.7 C 0 km/h
2839 30-01-2009 15:58:30 3.6 C 2.72 g/m*3 3.6 C 0 km/h
2840 30-01-2009 16:10:30 2.8 C 2.7 g/m*3 2.8 C 0 km/h
2841 30-01-2009 16:22:29 2 C 2.72 g/m*3 2 C 0 km/h
2842 30-01-2009 16:34:29 1.5 C 2.79 g/m*3 1.5 C 0 km/h
2843 30-01-2009 16:46:29 0.8 C 2.87 g/m*3 0.8 C 0 km/h
2844 30-01-2009 16:58:29 0.4 C 2.89 g/m*3 0.4 C 0 km/h
2845 30-01-2009 17:10:29 0 C 2.91 g/m*3 0 C 0 km/h
2846 30-01-2009 17:22:29 -0.2 C 2.87 g/m*3 -0.2 C 0 km/h
2847 30-01-2009 17:34:29 -0.5 C 2.9 g/m*3 -0.5 C 0 km/h
2848 30-01-2009 17:46:28 -0.8 C 2.89 g/m*3 -0.8 C 0 km/h
2849 30-01-2009 17:58:28 -0.9 C 2.91 g/m*3 -0.9 C 0 km/h
2850 30-01-2009 18:10:29 -1 C 2.94 g/m*3 -1 C 0 km/h
Sensor: Nr:Datum:Temp:Abs-Feuchte:Windchill:Wind:
Aussen-T/F 2851 30-01-2009 18:22:29 -1 C 2.98 g/m*3 -1 C 0 km/h
2852 30-01-2009 18:34:28 -1.1 C 2.96 g/m*3 -1.1 C 0 km/h
2853 30-01-2009 18:46:29 -1.1 C 3.01 g/m*3 -1.1 C 0 km/h
2854 30-01-2009 18:58:29 -1.2 C 2.99 g/m*3 -1.2 C 0 km/h
2855 30-01-2009 19:10:28 -1.2 C 3.03 g/m*3 -1.2 C 0 km/h
2856 30-01-2009 19:22:28 -1.2 C 3.03 g/m*3 -1.2 C 0 km/h
2857 30-01-2009 19:34:27 -1.3 C 3.05 g/m*3 -1.3 C 0 km/h
2858 30-01-2009 19:46:28 -1.5 C 3.06 g/m*3 -1.5 C 0 km/h
2859 30-01-2009 19:58:28 -1.5 C 3.06 g/m*3 -1.5 C 0 km/h
2860 30-01-2009 20:10:27 -1.5 C 3.1 g/m*3 -1.5 C 0 km/h
2861 30-01-2009 20:22:27 -1.7 C 3.06 g/m*3 -1.7 C 0 km/h
2862 30-01-2009 20:34:27 -1.7 C 3.1 g/m*3 -1.7 C 0 km/h
2863 30-01-2009 20:46:27 -1.7 C 3.1 g/m*3 -1.7 C 0 km/h
2864 30-01-2009 20:58:27 -1.8 C 3.08 g/m*3 -1.8 C 0 km/h
2865 30-01-2009 21:10:27 -1.8 C 3.12 g/m*3 -1.8 C 0 km/h
2866 30-01-2009 21:22:26 -1.8 C 3.12 g/m*3 -1.8 C 0 km/h
2867 30-01-2009 21:34:26 -2 C 3.08 g/m*3 -2 C 0 km/h
2868 30-01-2009 21:46:26 -2.1 C 3.1 g/m*3 -2.1 C 0 km/h
2869 30-01-2009 21:58:26 -2 C 3.12 g/m*3 -2 C 0 km/h
2870 30-01-2009 22:10:26 -2.1 C 3.06 g/m*3 -2.1 C 0 km/h
2871 30-01-2009 22:22:26 -2.2 C 3.03 g/m*3 -2.2 C 0 km/h
2872 30-01-2009 22:34:26 -2.3 C 3.01 g/m*3 -2.3 C 0 km/h
2873 30-01-2009 22:46:26 -2.4 C 2.99 g/m*3 -2.4 C 0 km/h
2874 30-01-2009 22:58:26 -2.4 C 2.99 g/m*3 -2.4 C 0 km/h
2875 30-01-2009 23:10:25 -2.4 C 2.99 g/m*3 -2.4 C 0 km/h
Sensor: Nr:Datum:Temp:Abs-Feuchte:Windchill:Wind:
Aussen-T/F 2876 30-01-2009 23:22:26 -2.6 C 2.95 g/m*3 -2.6 C 0 km/h
2877 30-01-2009 23:35:25 -2.8 C 2.91 g/m*3 -2.8 C 0 km/h
2878 30-01-2009 23:47:25 -2.8 C 2.95 g/m*3 -2.8 C 0 km/h
2879 30-01-2009 23:59:25 -2.8 C 2.99 g/m*3 -2.8 C 0 km/h
2880 31-01-2009 00:11:25 -2.7 C 3.01 g/m*3 -2.7 C 0 km/h
2881 31-01-2009 00:23:25 -2.3 C 3.1 g/m*3 -2.3 C 0 km/h
2882 31-01-2009 00:35:25 -2.1 C 3.1 g/m*3 -2.1 C 0 km/h
2883 31-01-2009 00:47:25 -1.8 C 3.12 g/m*3 -1.8 C 0 km/h
2884 31-01-2009 00:59:26 -1.7 C 3.06 g/m*3 -1.7 C 0 km/h
2885 31-01-2009 01:11:26 -1.6 C 3.03 g/m*3 -1.6 C 0 km/h
2886 31-01-2009 01:23:26 -1.5 C 2.97 g/m*3 -1.5 C 0 km/h
2887 31-01-2009 01:35:26 -1.4 C 2.99 g/m*3 -1.4 C 0 km/h
2888 31-01-2009 01:47:26 -1.3 C 2.97 g/m*3 -1.3 C 0 km/h
2889 31-01-2009 01:59:26 -1.2 C 2.9 g/m*3 -1.2 C 0 km/h
2890 31-01-2009 02:11:26 -1.2 C 2.85 g/m*3 -1.2 C 0 km/h
2891 31-01-2009 02:23:26 -1.2 C 2.81 g/m*3 -1.2 C 0 km/h
2892 31-01-2009 02:35:26 -1.2 C 2.81 g/m*3 -1.2 C 0 km/h
2893 31-01-2009 02:47:26 -1.1 C 2.78 g/m*3 -1.1 C 0 km/h
2894 31-01-2009 02:59:26 -1.1 C 2.78 g/m*3 -1.1 C 0 km/h
2895 31-01-2009 03:11:26 -1.1 C 2.74 g/m*3 -1.1 C 0 km/h
2896 31-01-2009 03:23:26 -1.1 C 2.74 g/m*3 -1.1 C 0 km/h
2897 31-01-2009 03:35:26 -1 C 2.71 g/m*3 -1 C 0 km/h
2898 31-01-2009 03:47:26 -1 C 2.76 g/m*3 -1 C 0 km/h
2899 31-01-2009 03:59:26 -1 C 2.71 g/m*3 -1 C 0 km/h
2900 31-01-2009 04:11:26 -0.9 C 2.73 g/m*3 -0.9 C 0 km/h
Sensor: Nr:Datum:Temp:Abs-Feuchte:Windchill:Wind:
Aussen-T/F 2901 31-01-2009 04:23:26 -0.9 C 2.73 g/m*3 -0.9 C 0 km/h
2902 31-01-2009 04:35:26 -0.9 C 2.73 g/m*3 -0.9 C 0 km/h
2903 31-01-2009 04:47:26 -0.9 C 2.78 g/m*3 -0.9 C 0 km/h
2904 31-01-2009 04:59:27 -0.9 C 2.73 g/m*3 -0.9 C 0 km/h
2905 31-01-2009 05:11:27 -0.9 C 2.73 g/m*3 -0.9 C 0 km/h
2906 31-01-2009 05:23:27 -0.8 C 2.7 g/m*3 -0.8 C 0 km/h
2907 31-01-2009 05:35:27 -0.8 C 2.66 g/m*3 -0.8 C 0 km/h
2908 31-01-2009 05:47:27 -0.7 C 2.68 g/m*3 -0.7 C 0 km/h
2909 31-01-2009 05:59:27 -0.7 C 2.72 g/m*3 -0.7 C 0 km/h
2910 31-01-2009 06:11:27 -0.7 C 2.68 g/m*3 -0.7 C 0 km/h
2911 31-01-2009 06:23:27 -0.7 C 2.68 g/m*3 -0.7 C 0 km/h
2912 31-01-2009 06:35:27 -0.6 C 2.65 g/m*3 -0.6 C 0 km/h
2913 31-01-2009 06:47:27 -0.6 C 2.6 g/m*3 -0.6 C 0 km/h
2914 31-01-2009 06:59:27 -0.6 C 2.6 g/m*3 -0.6 C 0 km/h
2915 31-01-2009 07:11:27 -0.6 C 2.6 g/m*3 -0.6 C 0 km/h
2916 31-01-2009 07:23:27 -0.6 C 2.6 g/m*3 -0.6 C 0 km/h
2917 31-01-2009 07:35:27 -0.6 C 2.6 g/m*3 -0.6 C 0 km/h
2918 31-01-2009 07:47:27 -0.6 C 2.6 g/m*3 -0.6 C 0 km/h
2919 31-01-2009 07:59:27 -0.5 C 2.57 g/m*3 -0.5 C 0 km/h
2920 31-01-2009 08:11:27 -0.6 C 2.56 g/m*3 -0.6 C 0 km/h
2921 31-01-2009 08:23:27 -0.5 C 2.57 g/m*3 -0.5 C 0 km/h
2922 31-01-2009 08:35:27 -0.5 C 2.57 g/m*3 -0.5 C 0 km/h
2923 31-01-2009 08:47:27 -0.4 C 2.59 g/m*3 -0.4 C 0 km/h
2924 31-01-2009 08:59:28 -0.4 C 2.59 g/m*3 -0.4 C 0 km/h
2925 31-01-2009 09:11:25 -0.4 C 2.59 g/m*3 -0.4 C 0 km/h
Sensor: Nr:Datum:Temp:Abs-Feuchte:Windchill:Wind:
Aussen-T/F 2926 31-01-2009 09:23:25 -0.3 C 2.61 g/m*3 -0.3 C 0 km/h
2927 31-01-2009 09:35:26 -0.3 C 2.56 g/m*3 -0.3 C 0 km/h
2928 31-01-2009 09:47:25 -0.2 C 2.53 g/m*3 -0.2 C 0 km/h
2929 31-01-2009 09:59:25 -0.2 C 2.53 g/m*3 -0.2 C 0 km/h
2930 31-01-2009 10:11:25 -0.1 C 2.55 g/m*3 -0.1 C 0 km/h
2931 31-01-2009 10:23:25 -0.1 C 2.55 g/m*3 -0.1 C 0 km/h
2932 31-01-2009 10:35:25 0 C 2.62 g/m*3 0 C 0 km/h
2933 31-01-2009 10:47:24 0.1 C 2.59 g/m*3 0.1 C 0 km/h
2934 31-01-2009 10:59:24 0.1 C 2.59 g/m*3 0.1 C 0 km/h
2935 31-01-2009 11:11:25 0.2 C 2.55 g/m*3 0.2 C 0 km/h
2936 31-01-2009 11:23:24 0.3 C 2.57 g/m*3 0.3 C 0 km/h
2937 31-01-2009 11:35:24 0.5 C 2.56 g/m*3 0.5 C 0 km/h
2938 31-01-2009 11:47:23 0.5 C 2.56 g/m*3 0.5 C 0 km/h
2939 31-01-2009 11:59:23 0.6 C 2.52 g/m*3 0.6 C 0 km/h
2940 31-01-2009 12:11:24 0.7 C 2.54 g/m*3 0.7 C 0 km/h
2941 31-01-2009 12:23:23 0.7 C 2.49 g/m*3 0.7 C 0 km/h
2942 31-01-2009 12:35:23 0.6 C 2.47 g/m*3 0.6 C 0 km/h
2943 31-01-2009 12:47:24 0.7 C 2.49 g/m*3 0.7 C 0 km/h
2944 31-01-2009 12:59:24 0.7 C 2.49 g/m*3 0.7 C 0 km/h
2945 31-01-2009 13:11:23 0.6 C 2.42 g/m*3 0.6 C 0 km/h
2946 31-01-2009 13:23:23 0.8 C 2.46 g/m*3 0.8 C 0 km/h
2947 31-01-2009 13:35:23 0.8 C 2.41 g/m*3 0.8 C 0 km/h
2948 31-01-2009 13:47:23 0.8 C 2.41 g/m*3 0.8 C 0 km/h
2949 31-01-2009 13:59:23 0.7 C 2.44 g/m*3 0.7 C 0 km/h
2950 31-01-2009 14:11:22 0.8 C 2.46 g/m*3 0.8 C 0 km/h
Sensor: Nr:Datum:Temp:Abs-Feuchte:Windchill:Wind:
Aussen-T/F 2951 31-01-2009 14:23:23 1 C 2.39 g/m*3 1 C 0 km/h
2952 31-01-2009 14:35:22 1.1 C 2.4 g/m*3 1.1 C 0 km/h
2953 31-01-2009 14:47:22 1.3 C 2.44 g/m*3 1.3 C 0 km/h
2954 31-01-2009 14:59:22 1.3 C 2.33 g/m*3 1.3 C 0 km/h
2955 31-01-2009 15:11:22 1.2 C 2.32 g/m*3 1.2 C 0 km/h
2956 31-01-2009 15:23:22 1.5 C 2.26 g/m*3 1.5 C 0 km/h
2957 31-01-2009 15:35:22 2.5 C 2.3 g/m*3 2.5 C 0 km/h
2958 31-01-2009 15:47:22 3.1 C 2.21 g/m*3 3.1 C 0 km/h
2959 31-01-2009 15:59:22 3.3 C 2.24 g/m*3 3.3 C 0 km/h
2960 31-01-2009 16:11:22 2.5 C 2.3 g/m*3 2.5 C 0 km/h
2961 31-01-2009 16:23:21 1.8 C 2.41 g/m*3 1.8 C 0 km/h
2962 31-01-2009 16:35:21 1.6 C 2.43 g/m*3 1.6 C 0 km/h
2963 31-01-2009 16:47:21 1.4 C 2.45 g/m*3 1.4 C 0 km/h
2964 31-01-2009 16:59:21 0.8 C 2.51 g/m*3 0.8 C 0 km/h
2965 31-01-2009 17:11:21 0.5 C 2.56 g/m*3 0.5 C 0 km/h
2966 31-01-2009 17:23:20 0.2 C 2.51 g/m*3 0.2 C 0 km/h
2967 31-01-2009 17:35:21 0.1 C 2.54 g/m*3 0.1 C 0 km/h
2968 31-01-2009 17:47:20 0.1 C 2.54 g/m*3 0.1 C 0 km/h
2969 31-01-2009 17:59:20 0.1 C 2.49 g/m*3 0.1 C 0 km/h
2970 31-01-2009 18:11:20 0.2 C 2.51 g/m*3 0.2 C 0 km/h
2971 31-01-2009 18:23:20 0.2 C 2.51 g/m*3 0.2 C 0 km/h
2972 31-01-2009 18:35:20 0.4 C 2.44 g/m*3 0.4 C 0 km/h
2973 31-01-2009 18:47:19 0.6 C 2.47 g/m*3 0.6 C 0 km/h
2974 31-01-2009 18:59:19 0.8 C 2.46 g/m*3 0.8 C 0 km/h
2975 31-01-2009 19:11:20 0.8 C 2.46 g/m*3 0.8 C 0 km/h
Sensor: Nr:Datum:Temp:Abs-Feuchte:Windchill:Wind:
Aussen-T/F 2976 31-01-2009 19:23:20 0.8 C 2.46 g/m*3 0.8 C 0 km/h
2977 31-01-2009 19:35:19 0.7 C 2.54 g/m*3 0.7 C 0 km/h
2978 31-01-2009 19:47:20 0.7 C 2.49 g/m*3 0.7 C 0 km/h
2979 31-01-2009 19:59:20 0.7 C 2.54 g/m*3 0.7 C 0 km/h
2980 31-01-2009 20:11:19 1 C 2.44 g/m*3 1 C 0 km/h
2981 31-01-2009 20:23:19 1.1 C 2.35 g/m*3 1.1 C 0 km/h
2982 31-01-2009 20:35:18 1 C 2.39 g/m*3 1 C 0 km/h
2983 31-01-2009 20:47:19 1.1 C 2.3 g/m*3 1.1 C 0 km/h
2984 31-01-2009 20:59:19 1.2 C 2.32 g/m*3 1.2 C 0 km/h
2985 31-01-2009 21:11:18 1.2 C 2.26 g/m*3 1.2 C 0 km/h
2986 31-01-2009 21:23:19 1.1 C 2.3 g/m*3 1.1 C 0 km/h
2987 31-01-2009 21:35:18 1.2 C 2.21 g/m*3 1.2 C 0 km/h
2988 31-01-2009 21:47:18 1 C 2.23 g/m*3 1 C 0 km/h
2989 31-01-2009 21:59:18 1 C 2.28 g/m*3 1 C 0 km/h
2990 31-01-2009 22:11:18 0.7 C 2.39 g/m*3 0.7 C 0 km/h
2991 31-01-2009 22:24:20 0.6 C 2.42 g/m*3 0.6 C 0 km/h
2992 31-01-2009 22:36:20 0.5 C 2.46 g/m*3 0.5 C 0 km/h
2993 31-01-2009 22:48:20 0.3 C 2.52 g/m*3 0.3 C 0 km/h
2994 31-01-2009 23:00:20 0.5 C 2.61 g/m*3 0.5 C 0 km/h
2995 31-01-2009 23:12:20 0.3 C 2.62 g/m*3 0.3 C 0 km/h
2996 31-01-2009 23:24:20 0 C 2.62 g/m*3 0 C 0 km/h
2997 31-01-2009 23:36:20 -0.3 C 2.61 g/m*3 -0.3 C 0 km/h
2998 31-01-2009 23:48:20 -0.4 C 2.64 g/m*3 -0.4 C 0 km/h
2999 01-02-2009 00:00:20 -0.4 C 2.69 g/m*3 -0.4 C 0 km/h
3000 01-02-2009 00:12:20 -0.3 C 2.66 g/m*3 -0.3 C 0 km/h
Sensor: Nr:Datum:Temp:Abs-Feuchte:Windchill:Wind:
Aussen-T/F 3001 01-02-2009 00:24:20 -0.3 C 2.66 g/m*3 -0.3 C 0 km/h
3002 01-02-2009 00:36:20 -0.3 C 2.66 g/m*3 -0.3 C 0 km/h
3003 01-02-2009 00:48:20 -0.2 C 2.63 g/m*3 -0.2 C 0 km/h
3004 01-02-2009 01:00:20 -0.2 C 2.48 g/m*3 -0.2 C 0 km/h
3005 01-02-2009 01:12:20 -0.2 C 2.39 g/m*3 -0.2 C 0 km/h
3006 01-02-2009 01:24:20 -0.2 C 2.34 g/m*3 -0.2 C 0 km/h
3007 01-02-2009 01:36:20 -0.2 C 2.29 g/m*3 -0.2 C 0 km/h
3008 01-02-2009 01:48:21 -0.1 C 2.21 g/m*3 -0.1 C 0 km/h
3009 01-02-2009 02:00:21 -0.1 C 2.17 g/m*3 -0.1 C 0 km/h
3010 01-02-2009 02:12:21 -0.1 C 2.17 g/m*3 -0.1 C 0 km/h
3011 01-02-2009 02:24:21 -0.1 C 2.17 g/m*3 -0.1 C 0 km/h
3012 01-02-2009 02:36:21 -0.2 C 2.15 g/m*3 -0.2 C 0 km/h
3013 01-02-2009 02:48:21 -0.2 C 2.1 g/m*3 -0.2 C 0 km/h
3014 01-02-2009 03:00:21 -0.1 C 2.02 g/m*3 -0.1 C 0 km/h
3015 01-02-2009 03:12:21 -0.1 C 1.97 g/m*3 -0.1 C 0 km/h
3016 01-02-2009 03:24:21 -0.1 C 2.02 g/m*3 -0.1 C 0 km/h
3017 01-02-2009 03:36:21 -0.2 C 2.01 g/m*3 -0.2 C 0 km/h
3018 01-02-2009 03:48:21 -0.2 C 2.05 g/m*3 -0.2 C 0 km/h
3019 01-02-2009 04:00:21 -0.2 C 1.96 g/m*3 -0.2 C 0 km/h
3020 01-02-2009 04:12:21 -0.1 C 1.97 g/m*3 -0.1 C 0 km/h
3021 01-02-2009 04:24:21 -0.2 C 1.96 g/m*3 -0.2 C 0 km/h
3022 01-02-2009 04:36:21 -0.3 C 2.04 g/m*3 -0.3 C 0 km/h
3023 01-02-2009 04:48:21 -0.4 C 2.12 g/m*3 -0.4 C 0 km/h
3024 01-02-2009 05:00:21 -0.4 C 2.22 g/m*3 -0.4 C 0 km/h
3025 01-02-2009 05:12:21 -0.5 C 2.29 g/m*3 -0.5 C 0 km/h
Sensor: Nr:Datum:Temp:Abs-Feuchte:Windchill:Wind:
Aussen-T/F 3026 01-02-2009 05:24:21 -0.4 C 2.36 g/m*3 -0.4 C 0 km/h
3027 01-02-2009 05:36:21 -0.5 C 2.25 g/m*3 -0.5 C 0 km/h
3028 01-02-2009 05:48:22 -0.5 C 2.15 g/m*3 -0.5 C 0 km/h
3029 01-02-2009 06:00:22 -0.6 C 2.09 g/m*3 -0.6 C 0 km/h
3030 01-02-2009 06:12:22 -0.6 C 2.05 g/m*3 -0.6 C 0 km/h
3031 01-02-2009 06:24:22 -0.7 C 1.98 g/m*3 -0.7 C 0 km/h
3032 01-02-2009 06:36:22 -0.7 C 1.98 g/m*3 -0.7 C 0 km/h
3033 01-02-2009 06:48:22 -0.8 C 1.97 g/m*3 -0.8 C 0 km/h
3034 01-02-2009 07:00:22 -0.9 C 1.96 g/m*3 -0.9 C 0 km/h
3035 01-02-2009 07:12:22 -0.9 C 1.96 g/m*3 -0.9 C 0 km/h
3036 01-02-2009 07:24:22 -1 C 1.94 g/m*3 -1 C 0 km/h
3037 01-02-2009 07:36:22 -1 C 1.94 g/m*3 -1 C 0 km/h
3038 01-02-2009 07:48:22 -1 C 1.99 g/m*3 -1 C 0 km/h
3039 01-02-2009 08:00:22 -1.1 C 2.02 g/m*3 -1.1 C 0 km/h
3040 01-02-2009 08:12:22 -1.1 C 2.02 g/m*3 -1.1 C 0 km/h
3041 01-02-2009 08:24:22 -1.1 C 2.07 g/m*3 -1.1 C 0 km/h
3042 01-02-2009 08:36:19 -1.1 C 2.11 g/m*3 -1.1 C 0 km/h
3043 01-02-2009 08:48:19 -1.1 C 2.11 g/m*3 -1.1 C 0 km/h
3044 01-02-2009 09:00:19 -1 C 2.12 g/m*3 -1 C 0 km/h
3045 01-02-2009 09:12:19 -0.9 C 2.14 g/m*3 -0.9 C 0 km/h
3046 01-02-2009 09:24:18 -0.8 C 2.15 g/m*3 -0.8 C 0 km/h
3047 01-02-2009 09:36:19 -0.8 C 2.15 g/m*3 -0.8 C 0 km/h
3048 01-02-2009 09:48:18 -0.8 C 2.15 g/m*3 -0.8 C 0 km/h
3049 01-02-2009 10:00:18 -0.6 C 2.14 g/m*3 -0.6 C 0 km/h
3050 01-02-2009 10:12:18 -0.4 C 2.17 g/m*3 -0.4 C 0 km/h
Sensor: Nr:Datum:Temp:Abs-Feuchte:Windchill:Wind:
Aussen-T/F 3051 01-02-2009 10:24:18 -0.2 C 2.2 g/m*3 -0.2 C 0 km/h
3052 01-02-2009 10:36:18 -0.1 C 2.12 g/m*3 -0.1 C 0 km/h
3053 01-02-2009 10:48:17 0 C 2.18 g/m*3 0 C 0 km/h
3054 01-02-2009 11:00:18 0 C 2.13 g/m*3 0 C 0 km/h
3055 01-02-2009 11:12:18 0.2 C 2.16 g/m*3 0.2 C 0 km/h
3056 01-02-2009 11:24:18 0.1 C 2.15 g/m*3 0.1 C 0 km/h
3057 01-02-2009 11:36:17 0.4 C 2.24 g/m*3 0.4 C 0 km/h
3058 01-02-2009 11:48:18 0.6 C 2.12 g/m*3 0.6 C 0 km/h
3059 01-02-2009 12:00:17 0.8 C 2.15 g/m*3 0.8 C 0 km/h
3060 01-02-2009 12:12:17 1 C 2.08 g/m*3 1 C 0 km/h
3061 01-02-2009 12:24:17 1.1 C 2.14 g/m*3 1.1 C 0 km/h
3062 01-02-2009 12:36:17 0.5 C 2.21 g/m*3 0.5 C 0 km/h
3063 01-02-2009 12:48:17 0.5 C 2.31 g/m*3 0.5 C 0 km/h
3064 01-02-2009 13:00:16 0.8 C 2.41 g/m*3 0.8 C 0 km/h
3065 01-02-2009 13:12:16 0.9 C 2.32 g/m*3 0.9 C 0 km/h
3066 01-02-2009 13:24:17 1.2 C 2.16 g/m*3 1.2 C 0 km/h
3067 01-02-2009 13:36:17 1.3 C 2.12 g/m*3 1.3 C 0 km/h
3068 01-02-2009 13:48:16 1.5 C 2.09 g/m*3 1.5 C 0 km/h
3069 01-02-2009 14:00:16 1.8 C 2.19 g/m*3 1.8 C 0 km/h
3070 01-02-2009 14:12:16 2.1 C 2.07 g/m*3 2.1 C 0 km/h
3071 01-02-2009 14:24:16 2.5 C 2.01 g/m*3 2.5 C 0 km/h
3072 01-02-2009 14:36:15 2.1 C 1.96 g/m*3 2.1 C 0 km/h
3073 01-02-2009 14:48:16 1.8 C 1.97 g/m*3 1.8 C 0 km/h
3074 01-02-2009 15:00:15 1.9 C 2.1 g/m*3 1.9 C 0 km/h
3075 01-02-2009 15:12:15 1.7 C 2.01 g/m*3 1.7 C 0 km/h
Sensor: Nr:Datum:Temp:Abs-Feuchte:Windchill:Wind:
Aussen-T/F 3076 01-02-2009 15:24:15 1.6 C 2.11 g/m*3 1.6 C 0 km/h
3077 01-02-2009 15:36:16 1.4 C 2.08 g/m*3 1.4 C 0 km/h
3078 01-02-2009 15:48:15 1.3 C 2.07 g/m*3 1.3 C 0 km/h
3079 01-02-2009 16:00:15 1 C 2.08 g/m*3 1 C 0 km/h
3080 01-02-2009 16:12:15 1 C 2.13 g/m*3 1 C 0 km/h
3081 01-02-2009 16:24:14 0.9 C 2.22 g/m*3 0.9 C 0 km/h
3082 01-02-2009 16:36:15 0.8 C 2.25 g/m*3 0.8 C 0 km/h
3083 01-02-2009 16:48:14 0.7 C 2.29 g/m*3 0.7 C 0 km/h
3084 01-02-2009 17:00:14 0.6 C 2.32 g/m*3 0.6 C 0 km/h
3085 01-02-2009 17:12:14 0.6 C 2.47 g/m*3 0.6 C 0 km/h
3086 01-02-2009 17:24:14 0.4 C 2.49 g/m*3 0.4 C 0 km/h
3087 01-02-2009 17:36:14 0.3 C 2.52 g/m*3 0.3 C 0 km/h
3088 01-02-2009 17:48:13 0.2 C 2.51 g/m*3 0.2 C 0 km/h
3089 01-02-2009 18:00:14 0.2 C 2.51 g/m*3 0.2 C 0 km/h
3090 01-02-2009 18:12:14 0.2 C 2.46 g/m*3 0.2 C 0 km/h
3091 01-02-2009 18:24:13 0.1 C 2.44 g/m*3 0.1 C 0 km/h
3092 01-02-2009 18:36:13 0 C 2.47 g/m*3 0 C 0 km/h
3093 01-02-2009 18:48:13 -0.1 C 2.5 g/m*3 -0.1 C 0 km/h
3094 01-02-2009 19:00:13 -0.2 C 2.53 g/m*3 -0.2 C 0 km/h
3095 01-02-2009 19:12:13 -0.4 C 2.5 g/m*3 -0.4 C 0 km/h
3096 01-02-2009 19:24:13 -0.5 C 2.53 g/m*3 -0.5 C 0 km/h
3097 01-02-2009 19:36:13 -0.6 C 2.46 g/m*3 -0.6 C 0 km/h
3098 01-02-2009 19:48:13 -0.7 C 2.45 g/m*3 -0.7 C 0 km/h
3099 01-02-2009 20:00:12 -0.8 C 2.43 g/m*3 -0.8 C 0 km/h
3100 01-02-2009 20:12:12 -0.9 C 2.41 g/m*3 -0.9 C 0 km/h
Sensor: Nr:Datum:Temp:Abs-Feuchte:Windchill:Wind:
Aussen-T/F 3101 01-02-2009 20:24:13 -1 C 2.4 g/m*3 -1 C 0 km/h
3102 01-02-2009 20:36:12 -1 C 2.4 g/m*3 -1 C 0 km/h
3103 01-02-2009 20:48:12 -1.1 C 2.38 g/m*3 -1.1 C 0 km/h
3104 01-02-2009 21:00:12 -1.2 C 2.36 g/m*3 -1.2 C 0 km/h
3105 01-02-2009 21:12:13 -1.1 C 2.38 g/m*3 -1.1 C 0 km/h
3106 01-02-2009 21:24:11 -1 C 2.4 g/m*3 -1 C 0 km/h
3107 01-02-2009 21:36:12 -1 C 2.35 g/m*3 -1 C 0 km/h
3108 01-02-2009 21:48:11 -1 C 2.35 g/m*3 -1 C 0 km/h
3109 01-02-2009 22:00:11 -0.9 C 2.37 g/m*3 -0.9 C 0 km/h
3110 01-02-2009 22:12:11 -1 C 2.35 g/m*3 -1 C 0 km/h
3111 01-02-2009 22:24:12 -1 C 2.35 g/m*3 -1 C 0 km/h
3112 01-02-2009 22:36:11 -0.9 C 2.37 g/m*3 -0.9 C 0 km/h
3113 01-02-2009 22:49:13 -1 C 2.35 g/m*3 -1 C 0 km/h
3114 01-02-2009 23:01:13 -1 C 2.35 g/m*3 -1 C 0 km/h
3115 01-02-2009 23:13:13 -1.1 C 2.38 g/m*3 -1.1 C 0 km/h
3116 01-02-2009 23:25:13 -1.1 C 2.38 g/m*3 -1.1 C 0 km/h
3117 01-02-2009 23:37:13 -1.2 C 2.36 g/m*3 -1.2 C 0 km/h
3118 01-02-2009 23:49:13 -1.1 C 2.42 g/m*3 -1.1 C 0 km/h
3119 02-02-2009 00:01:13 -1 C 2.44 g/m*3 -1 C 0 km/h
3120 02-02-2009 00:13:13 -1 C 2.44 g/m*3 -1 C 0 km/h
3121 02-02-2009 00:25:13 -1.2 C 2.41 g/m*3 -1.2 C 0 km/h
3122 02-02-2009 00:37:13 -1.4 C 2.42 g/m*3 -1.4 C 0 km/h
3123 02-02-2009 00:49:13 -1.7 C 2.41 g/m*3 -1.7 C 0 km/h
3124 02-02-2009 01:01:13 -1.8 C 2.39 g/m*3 -1.8 C 0 km/h
3125 02-02-2009 01:13:13 -1.8 C 2.44 g/m*3 -1.8 C 0 km/h
Sensor: Nr:Datum:Temp:Abs-Feuchte:Windchill:Wind:
Aussen-T/F 3126 02-02-2009 01:25:13 -2.1 C 2.43 g/m*3 -2.1 C 0 km/h
3127 02-02-2009 01:37:13 -2.1 C 2.47 g/m*3 -2.1 C 0 km/h
3128 02-02-2009 01:49:13 -2.3 C 2.44 g/m*3 -2.3 C 0 km/h
3129 02-02-2009 02:01:14 -2.3 C 2.48 g/m*3 -2.3 C 0 km/h
3130 02-02-2009 02:13:14 -2.1 C 2.55 g/m*3 -2.1 C 0 km/h
3131 02-02-2009 02:25:14 -1.9 C 2.55 g/m*3 -1.9 C 0 km/h
3132 02-02-2009 02:37:14 -1.7 C 2.58 g/m*3 -1.7 C 0 km/h
3133 02-02-2009 02:49:14 -1.5 C 2.58 g/m*3 -1.5 C 0 km/h
3134 02-02-2009 03:01:14 -1.3 C 2.57 g/m*3 -1.3 C 0 km/h
3135 02-02-2009 03:13:14 -1.3 C 2.52 g/m*3 -1.3 C 0 km/h
3136 02-02-2009 03:25:14 -1.3 C 2.52 g/m*3 -1.3 C 0 km/h
3137 02-02-2009 03:37:14 -1.2 C 2.54 g/m*3 -1.2 C 0 km/h
3138 02-02-2009 03:49:14 -1.1 C 2.56 g/m*3 -1.1 C 0 km/h
3139 02-02-2009 04:01:14 -1 C 2.58 g/m*3 -1 C 0 km/h
3140 02-02-2009 04:13:14 -0.8 C 2.57 g/m*3 -0.8 C 0 km/h
3141 02-02-2009 04:25:14 -0.7 C 2.58 g/m*3 -0.7 C 0 km/h
3142 02-02-2009 04:37:14 -0.7 C 2.54 g/m*3 -0.7 C 0 km/h
3143 02-02-2009 04:49:14 -0.8 C 2.52 g/m*3 -0.8 C 0 km/h
3144 02-02-2009 05:01:14 -0.8 C 2.57 g/m*3 -0.8 C 0 km/h
3145 02-02-2009 05:13:14 -0.8 C 2.57 g/m*3 -0.8 C 0 km/h
3146 02-02-2009 05:25:14 -0.8 C 2.57 g/m*3 -0.8 C 0 km/h
3147 02-02-2009 05:37:14 -0.7 C 2.58 g/m*3 -0.7 C 0 km/h
3148 02-02-2009 05:49:15 -0.8 C 2.61 g/m*3 -0.8 C 0 km/h
3149 02-02-2009 06:01:15 -0.7 C 2.58 g/m*3 -0.7 C 0 km/h
3150 02-02-2009 06:13:15 -0.8 C 2.61 g/m*3 -0.8 C 0 km/h
Sensor: Nr:Datum:Temp:Abs-Feuchte:Windchill:Wind:
Aussen-T/F 3151 02-02-2009 06:25:15 -0.8 C 2.66 g/m*3 -0.8 C 0 km/h
3152 02-02-2009 06:37:15 -0.8 C 2.66 g/m*3 -0.8 C 0 km/h
3153 02-02-2009 06:49:12 -0.8 C 2.66 g/m*3 -0.8 C 0 km/h
3154 02-02-2009 07:01:12 -0.9 C 2.64 g/m*3 -0.9 C 0 km/h
3155 02-02-2009 07:13:12 -0.9 C 2.69 g/m*3 -0.9 C 0 km/h
3156 02-02-2009 07:25:12 -0.8 C 2.75 g/m*3 -0.8 C 0 km/h
3157 02-02-2009 07:37:12 -0.6 C 2.79 g/m*3 -0.6 C 0 km/h
3158 02-02-2009 07:49:11 -0.5 C 2.86 g/m*3 -0.5 C 0 km/h
3159 02-02-2009 08:01:11 -0.5 C 2.86 g/m*3 -0.5 C 0 km/h
3160 02-02-2009 08:13:12 -0.4 C 2.83 g/m*3 -0.4 C 0 km/h
3161 02-02-2009 08:25:11 -0.3 C 2.8 g/m*3 -0.3 C 0 km/h
3162 02-02-2009 08:37:11 -0.6 C 2.79 g/m*3 -0.6 C 0 km/h
3163 02-02-2009 08:49:10 -0.8 C 2.8 g/m*3 -0.8 C 0 km/h
3164 02-02-2009 09:01:11 -0.7 C 2.77 g/m*3 -0.7 C 0 km/h
3165 02-02-2009 09:13:11 -0.5 C 2.81 g/m*3 -0.5 C 0 km/h
3166 02-02-2009 09:25:11 -0.2 C 2.72 g/m*3 -0.2 C 0 km/h
3167 02-02-2009 09:37:10 -0.2 C 2.77 g/m*3 -0.2 C 0 km/h
3168 02-02-2009 09:49:11 -0.1 C 2.79 g/m*3 -0.1 C 0 km/h
3169 02-02-2009 10:01:10 0.1 C 2.78 g/m*3 0.1 C 0 km/h
3170 02-02-2009 10:13:10 0.3 C 2.77 g/m*3 0.3 C 0 km/h
3171 02-02-2009 10:25:10 0.4 C 2.74 g/m*3 0.4 C 0 km/h
3172 02-02-2009 10:37:09 0.9 C 2.73 g/m*3 0.9 C 0 km/h
3173 02-02-2009 10:49:10 1.2 C 2.74 g/m*3 1.2 C 0 km/h
3174 02-02-2009 11:01:10 1.5 C 2.69 g/m*3 1.5 C 0 km/h
3175 02-02-2009 11:13:10 1.8 C 2.69 g/m*3 1.8 C 0 km/h
Sensor: Nr:Datum:Temp:Abs-Feuchte:Windchill:Wind:
Aussen-T/F 3176 02-02-2009 11:25:09 2.1 C 2.63 g/m*3 2.1 C 0 km/h
3177 02-02-2009 11:37:10 2.5 C 2.64 g/m*3 2.5 C 0 km/h
3178 02-02-2009 11:49:09 2.8 C 2.7 g/m*3 2.8 C 0 km/h
3179 02-02-2009 12:01:09 3.3 C 2.73 g/m*3 3.3 C 0 km/h
3180 02-02-2009 12:13:09 4 C 2.67 g/m*3 4 C 0 km/h
3181 02-02-2009 12:25:09 4.2 C 2.58 g/m*3 4.2 C 0 km/h
3182 02-02-2009 12:37:09 4.4 C 2.48 g/m*3 4.4 C 0 km/h
3183 02-02-2009 12:49:08 4.6 C 2.51 g/m*3 4.6 C 0 km/h
3184 02-02-2009 13:01:09 4.6 C 2.45 g/m*3 4.6 C 0 km/h
3185 02-02-2009 13:13:09 4.7 C 2.53 g/m*3 4.7 C 0 km/h
3186 02-02-2009 13:25:08 4.8 C 2.55 g/m*3 4.8 C 0 km/h
3187 02-02-2009 13:37:08 4.9 C 2.5 g/m*3 4.9 C 0 km/h
3188 02-02-2009 13:49:08 5 C 2.45 g/m*3 5 C 0 km/h
3189 02-02-2009 14:01:08 5.3 C 2.5 g/m*3 5.3 C 0 km/h
3190 02-02-2009 14:13:08 5.3 C 2.5 g/m*3 5.3 C 0 km/h
3191 02-02-2009 14:25:08 5.4 C 2.51 g/m*3 5.4 C 0 km/h
3192 02-02-2009 14:37:07 5.1 C 2.53 g/m*3 5.1 C 0 km/h
3193 02-02-2009 14:49:08 5.1 C 2.67 g/m*3 5.1 C 0 km/h
3194 02-02-2009 15:01:07 5.2 C 2.62 g/m*3 5.2 C 0 km/h
3195 02-02-2009 15:13:07 5.1 C 2.67 g/m*3 5.1 C 0 km/h
3196 02-02-2009 15:25:07 5.1 C 2.67 g/m*3 5.1 C 0 km/h
3197 02-02-2009 15:37:07 5.1 C 2.67 g/m*3 5.1 C 0 km/h
3198 02-02-2009 15:49:07 5 C 2.72 g/m*3 5 C 0 km/h
3199 02-02-2009 16:01:06 4.9 C 2.7 g/m*3 4.9 C 0 km/h
3200 02-02-2009 16:13:06 4.6 C 2.78 g/m*3 4.6 C 0 km/h
Sensor: Nr:Datum:Temp:Abs-Feuchte:Windchill:Wind:
Aussen-T/F 3201 02-02-2009 16:25:07 4.3 C 2.79 g/m*3 4.3 C 0 km/h
3202 02-02-2009 16:37:07 3.9 C 2.91 g/m*3 3.9 C 0 km/h
3203 02-02-2009 16:49:06 3.7 C 2.93 g/m*3 3.7 C 0 km/h
3204 02-02-2009 17:01:06 3.5 C 2.95 g/m*3 3.5 C 0 km/h
3205 02-02-2009 17:13:06 3.3 C 2.97 g/m*3 3.3 C 0 km/h
3206 02-02-2009 17:25:06 3.1 C 2.99 g/m*3 3.1 C 0 km/h
3207 02-02-2009 17:37:06 3.1 C 2.99 g/m*3 3.1 C 0 km/h
3208 02-02-2009 17:49:06 3 C 3.03 g/m*3 3 C 0 km/h
3209 02-02-2009 18:01:05 2.6 C 3.07 g/m*3 2.6 C 0 km/h
3210 02-02-2009 18:13:05 2.7 C 3.09 g/m*3 2.7 C 0 km/h
3211 02-02-2009 18:25:06 2.6 C 3.07 g/m*3 2.6 C 0 km/h
3212 02-02-2009 18:37:06 2.2 C 3.1 g/m*3 2.2 C 0 km/h
3213 02-02-2009 18:49:06 2.1 C 3.13 g/m*3 2.1 C 0 km/h
3214 02-02-2009 19:01:06 1.8 C 3.18 g/m*3 1.8 C 0 km/h
3215 02-02-2009 19:13:06 1.5 C 3.17 g/m*3 1.5 C 0 km/h
3216 02-02-2009 19:25:05 1.3 C 3.23 g/m*3 1.3 C 0 km/h
3217 02-02-2009 19:37:05 1.1 C 3.24 g/m*3 1.1 C 0 km/h
3218 02-02-2009 19:49:04 1.3 C 3.28 g/m*3 1.3 C 0 km/h
3219 02-02-2009 20:01:05 1.2 C 3.21 g/m*3 1.2 C 0 km/h
3220 02-02-2009 20:13:05 1 C 3.27 g/m*3 1 C 0 km/h
3221 02-02-2009 20:25:04 1.3 C 3.34 g/m*3 1.3 C 0 km/h
3222 02-02-2009 20:37:04 1.2 C 3.26 g/m*3 1.2 C 0 km/h
3223 02-02-2009 20:49:05 1.4 C 3.31 g/m*3 1.4 C 0 km/h
3224 02-02-2009 21:01:03 1.6 C 3.35 g/m*3 1.6 C 0 km/h
3225 02-02-2009 21:13:03 1.3 C 3.28 g/m*3 1.3 C 0 km/h
Sensor: Nr:Datum:Temp:Abs-Feuchte:Windchill:Wind:
Aussen-T/F 3226 02-02-2009 21:26:05 1.5 C 3.33 g/m*3 1.5 C 0 km/h
3227 02-02-2009 21:38:05 1.4 C 3.31 g/m*3 1.4 C 0 km/h
3228 02-02-2009 21:50:06 1.2 C 3.26 g/m*3 1.2 C 0 km/h
3229 02-02-2009 22:02:06 1.1 C 3.34 g/m*3 1.1 C 0 km/h
3230 02-02-2009 22:14:06 0.8 C 3.33 g/m*3 0.8 C 0 km/h
3231 02-02-2009 22:26:06 0.6 C 3.43 g/m*3 0.6 C 0 km/h
3232 02-02-2009 22:38:06 0.4 C 3.44 g/m*3 0.4 C 0 km/h
3233 02-02-2009 22:50:06 0.3 C 3.46 g/m*3 0.3 C 0 km/h
3234 02-02-2009 23:02:06 0.1 C 3.42 g/m*3 0.1 C 0 km/h
3235 02-02-2009 23:14:06 0 C 3.44 g/m*3 0 C 0 km/h
3236 02-02-2009 23:26:06 -0.1 C 3.46 g/m*3 -0.1 C 0 km/h
3237 02-02-2009 23:38:06 -0.3 C 3.42 g/m*3 -0.3 C 0 km/h
3238 02-02-2009 23:50:06 -0.3 C 3.46 g/m*3 -0.3 C 0 km/h
3239 03-02-2009 00:02:06 -0.4 C 3.49 g/m*3 -0.4 C 0 km/h
3240 03-02-2009 00:14:06 -0.5 C 3.46 g/m*3 -0.5 C 0 km/h
3241 03-02-2009 00:26:06 -0.7 C 3.42 g/m*3 -0.7 C 0 km/h